<?xml version="1.0" encoding="UTF-8" standalone="no" ?>
<gpx xmlns="http://www.topografix.com/GPX/1/1" xmlns:xsi="http://www.w3.org/2001/XMLSchema-instance" xsi:schemaLocation="http://www.topografix.com/GPX/1/1 http://www.topografix.com/GPX/1/1/gpx.xsd" version="1.1" creator="VisuGPX - https://www.visugpx.com">
  <metadata>
    <name>Lenquo de capo - 24/03/22</name>
    <desc><![CDATA[10:12:37

comment ...]]></desc>
  </metadata>
  <trk>
    <name><![CDATA[Lenquo de capo - 24/03/22]]></name>
    <desc><![CDATA[comment ...]]></desc>
    <extensions>
      <line xmlns="http://www.topografix.com/GPX/gpx_style/0/2">
        <color>0000FF</color>
        <width>4</width>
      </line>
    </extensions>
    <trkseg>
      <trkpt lat="42.78596" lon="0.14862">
        <ele>1820.2</ele>
        <time>2022-03-24T09:12:38Z</time>
      </trkpt>
      <trkpt lat="42.78597" lon="0.14859">
        <ele>1819.5</ele>
        <time>2022-03-24T09:12:39Z</time>
      </trkpt>
      <trkpt lat="42.78587" lon="0.14847">
        <ele>1824.1</ele>
        <time>2022-03-24T09:12:54Z</time>
      </trkpt>
      <trkpt lat="42.78583" lon="0.14841">
        <ele>1826.1</ele>
        <time>2022-03-24T09:12:57Z</time>
      </trkpt>
      <trkpt lat="42.78577" lon="0.14826">
        <ele>1827.8</ele>
        <time>2022-03-24T09:13:01Z</time>
      </trkpt>
      <trkpt lat="42.78574" lon="0.14822">
        <ele>1828.5</ele>
        <time>2022-03-24T09:13:08Z</time>
      </trkpt>
      <trkpt lat="42.78571" lon="0.14825">
        <ele>1829.8</ele>
        <time>2022-03-24T09:13:13Z</time>
      </trkpt>
      <trkpt lat="42.78569" lon="0.14825">
        <ele>1830.6</ele>
        <time>2022-03-24T09:13:22Z</time>
      </trkpt>
      <trkpt lat="42.78567" lon="0.14822">
        <ele>1831.1</ele>
        <time>2022-03-24T09:13:26Z</time>
      </trkpt>
      <trkpt lat="42.78564" lon="0.14818">
        <ele>1831.9</ele>
        <time>2022-03-24T09:13:31Z</time>
      </trkpt>
      <trkpt lat="42.78562" lon="0.14815">
        <ele>1832.4</ele>
        <time>2022-03-24T09:13:36Z</time>
      </trkpt>
      <trkpt lat="42.78562" lon="0.1481">
        <ele>1832</ele>
        <time>2022-03-24T09:13:39Z</time>
      </trkpt>
      <trkpt lat="42.78556" lon="0.1476">
        <ele>1831.5</ele>
        <time>2022-03-24T09:14:05Z</time>
      </trkpt>
      <trkpt lat="42.78555" lon="0.14756">
        <ele>1831.7</ele>
        <time>2022-03-24T09:14:07Z</time>
      </trkpt>
      <trkpt lat="42.78557" lon="0.14663">
        <ele>1827.6</ele>
        <time>2022-03-24T09:14:27Z</time>
      </trkpt>
      <trkpt lat="42.78555" lon="0.14657">
        <ele>1827.9</ele>
        <time>2022-03-24T09:14:36Z</time>
      </trkpt>
      <trkpt lat="42.78555" lon="0.1466">
        <ele>1828</ele>
        <time>2022-03-24T09:14:50Z</time>
      </trkpt>
      <trkpt lat="42.78553" lon="0.14662">
        <ele>1829</ele>
        <time>2022-03-24T09:15:02Z</time>
      </trkpt>
      <trkpt lat="42.78554" lon="0.1466">
        <ele>1828.5</ele>
        <time>2022-03-24T09:15:32Z</time>
      </trkpt>
      <trkpt lat="42.78551" lon="0.14661">
        <ele>1829.9</ele>
        <time>2022-03-24T09:15:35Z</time>
      </trkpt>
      <trkpt lat="42.78558" lon="0.14652">
        <ele>1827.2</ele>
        <time>2022-03-24T09:15:53Z</time>
      </trkpt>
      <trkpt lat="42.78567" lon="0.14646">
        <ele>1826.4</ele>
        <time>2022-03-24T09:17:52Z</time>
      </trkpt>
      <trkpt lat="42.78572" lon="0.14642">
        <ele>1826.3</ele>
        <time>2022-03-24T09:18:02Z</time>
      </trkpt>
      <trkpt lat="42.78565" lon="0.14649">
        <ele>1826.5</ele>
        <time>2022-03-24T09:18:42Z</time>
      </trkpt>
      <trkpt lat="42.78556" lon="0.14655">
        <ele>1827.5</ele>
        <time>2022-03-24T09:19:18Z</time>
      </trkpt>
      <trkpt lat="42.78553" lon="0.14658">
        <ele>1828.9</ele>
        <time>2022-03-24T09:19:20Z</time>
      </trkpt>
      <trkpt lat="42.7855" lon="0.14657">
        <ele>1830.3</ele>
        <time>2022-03-24T09:19:52Z</time>
      </trkpt>
      <trkpt lat="42.78539" lon="0.14665">
        <ele>1835.7</ele>
        <time>2022-03-24T09:20:04Z</time>
      </trkpt>
      <trkpt lat="42.78537" lon="0.14663">
        <ele>1836.6</ele>
        <time>2022-03-24T09:20:08Z</time>
      </trkpt>
      <trkpt lat="42.78533" lon="0.14656">
        <ele>1838.2</ele>
        <time>2022-03-24T09:20:24Z</time>
      </trkpt>
      <trkpt lat="42.78545" lon="0.14654">
        <ele>1832.5</ele>
        <time>2022-03-24T09:20:37Z</time>
      </trkpt>
      <trkpt lat="42.78555" lon="0.14652">
        <ele>1827.7</ele>
        <time>2022-03-24T09:21:02Z</time>
      </trkpt>
      <trkpt lat="42.78549" lon="0.14655">
        <ele>1830.6</ele>
        <time>2022-03-24T09:21:23Z</time>
      </trkpt>
      <trkpt lat="42.78546" lon="0.14658">
        <ele>1832.2</ele>
        <time>2022-03-24T09:21:37Z</time>
      </trkpt>
      <trkpt lat="42.78558" lon="0.14654">
        <ele>1827.3</ele>
        <time>2022-03-24T09:22:02Z</time>
      </trkpt>
      <trkpt lat="42.7856" lon="0.1465">
        <ele>1827</ele>
        <time>2022-03-24T09:22:52Z</time>
      </trkpt>
      <trkpt lat="42.78552" lon="0.14633">
        <ele>1828.8</ele>
        <time>2022-03-24T09:23:08Z</time>
      </trkpt>
      <trkpt lat="42.78552" lon="0.1463">
        <ele>1828.9</ele>
        <time>2022-03-24T09:23:10Z</time>
      </trkpt>
      <trkpt lat="42.78553" lon="0.14626">
        <ele>1828.6</ele>
        <time>2022-03-24T09:23:12Z</time>
      </trkpt>
      <trkpt lat="42.78554" lon="0.14624">
        <ele>1828.2</ele>
        <time>2022-03-24T09:23:15Z</time>
      </trkpt>
      <trkpt lat="42.78552" lon="0.14622">
        <ele>1829.2</ele>
        <time>2022-03-24T09:23:20Z</time>
      </trkpt>
      <trkpt lat="42.78548" lon="0.14616">
        <ele>1831.1</ele>
        <time>2022-03-24T09:23:26Z</time>
      </trkpt>
      <trkpt lat="42.78548" lon="0.14612">
        <ele>1831.2</ele>
        <time>2022-03-24T09:23:29Z</time>
      </trkpt>
      <trkpt lat="42.7855" lon="0.14609">
        <ele>1830.4</ele>
        <time>2022-03-24T09:23:31Z</time>
      </trkpt>
      <trkpt lat="42.7855" lon="0.14606">
        <ele>1830.4</ele>
        <time>2022-03-24T09:23:37Z</time>
      </trkpt>
      <trkpt lat="42.78552" lon="0.14603">
        <ele>1829.7</ele>
        <time>2022-03-24T09:23:41Z</time>
      </trkpt>
      <trkpt lat="42.78554" lon="0.14589">
        <ele>1829.3</ele>
        <time>2022-03-24T09:23:56Z</time>
      </trkpt>
      <trkpt lat="42.78553" lon="0.14587">
        <ele>1829.7</ele>
        <time>2022-03-24T09:24:00Z</time>
      </trkpt>
      <trkpt lat="42.78553" lon="0.14579">
        <ele>1830.3</ele>
        <time>2022-03-24T09:24:07Z</time>
      </trkpt>
      <trkpt lat="42.78553" lon="0.14572">
        <ele>1831.1</ele>
        <time>2022-03-24T09:24:12Z</time>
      </trkpt>
      <trkpt lat="42.78552" lon="0.14567">
        <ele>1831.8</ele>
        <time>2022-03-24T09:24:18Z</time>
      </trkpt>
      <trkpt lat="42.78548" lon="0.14562">
        <ele>1832.8</ele>
        <time>2022-03-24T09:24:24Z</time>
      </trkpt>
      <trkpt lat="42.78548" lon="0.14555">
        <ele>1833.3</ele>
        <time>2022-03-24T09:24:29Z</time>
      </trkpt>
      <trkpt lat="42.78546" lon="0.14551">
        <ele>1833.7</ele>
        <time>2022-03-24T09:24:32Z</time>
      </trkpt>
      <trkpt lat="42.78544" lon="0.1455">
        <ele>1833.8</ele>
        <time>2022-03-24T09:24:34Z</time>
      </trkpt>
      <trkpt lat="42.78533" lon="0.1454">
        <ele>1834.1</ele>
        <time>2022-03-24T09:24:46Z</time>
      </trkpt>
      <trkpt lat="42.78532" lon="0.14536">
        <ele>1834.2</ele>
        <time>2022-03-24T09:24:49Z</time>
      </trkpt>
      <trkpt lat="42.78527" lon="0.14528">
        <ele>1834.4</ele>
        <time>2022-03-24T09:24:56Z</time>
      </trkpt>
      <trkpt lat="42.78527" lon="0.14526">
        <ele>1834.5</ele>
        <time>2022-03-24T09:24:58Z</time>
      </trkpt>
      <trkpt lat="42.78531" lon="0.14512">
        <ele>1835.4</ele>
        <time>2022-03-24T09:25:10Z</time>
      </trkpt>
      <trkpt lat="42.78526" lon="0.14508">
        <ele>1836.1</ele>
        <time>2022-03-24T09:25:17Z</time>
      </trkpt>
      <trkpt lat="42.78522" lon="0.14501">
        <ele>1837.8</ele>
        <time>2022-03-24T09:25:25Z</time>
      </trkpt>
      <trkpt lat="42.78525" lon="0.14499">
        <ele>1837</ele>
        <time>2022-03-24T09:25:28Z</time>
      </trkpt>
      <trkpt lat="42.78528" lon="0.14497">
        <ele>1836.2</ele>
        <time>2022-03-24T09:25:30Z</time>
      </trkpt>
      <trkpt lat="42.78541" lon="0.14492">
        <ele>1838</ele>
        <time>2022-03-24T09:25:39Z</time>
      </trkpt>
      <trkpt lat="42.78546" lon="0.14487">
        <ele>1838.9</ele>
        <time>2022-03-24T09:25:48Z</time>
      </trkpt>
      <trkpt lat="42.78551" lon="0.14473">
        <ele>1840.5</ele>
        <time>2022-03-24T09:26:05Z</time>
      </trkpt>
      <trkpt lat="42.78551" lon="0.1447">
        <ele>1840.7</ele>
        <time>2022-03-24T09:26:08Z</time>
      </trkpt>
      <trkpt lat="42.7855" lon="0.14467">
        <ele>1840.8</ele>
        <time>2022-03-24T09:26:11Z</time>
      </trkpt>
      <trkpt lat="42.78552" lon="0.14461">
        <ele>1841.4</ele>
        <time>2022-03-24T09:26:16Z</time>
      </trkpt>
      <trkpt lat="42.78552" lon="0.14457">
        <ele>1841.7</ele>
        <time>2022-03-24T09:26:19Z</time>
      </trkpt>
      <trkpt lat="42.78549" lon="0.14456">
        <ele>1841.5</ele>
        <time>2022-03-24T09:26:22Z</time>
      </trkpt>
      <trkpt lat="42.78548" lon="0.14452">
        <ele>1841.6</ele>
        <time>2022-03-24T09:26:26Z</time>
      </trkpt>
      <trkpt lat="42.78549" lon="0.14442">
        <ele>1842.6</ele>
        <time>2022-03-24T09:26:36Z</time>
      </trkpt>
      <trkpt lat="42.78548" lon="0.14417">
        <ele>1846.1</ele>
        <time>2022-03-24T09:27:01Z</time>
      </trkpt>
      <trkpt lat="42.78542" lon="0.14396">
        <ele>1848.5</ele>
        <time>2022-03-24T09:27:22Z</time>
      </trkpt>
      <trkpt lat="42.78539" lon="0.14391">
        <ele>1848.9</ele>
        <time>2022-03-24T09:27:30Z</time>
      </trkpt>
      <trkpt lat="42.78539" lon="0.14385">
        <ele>1849.8</ele>
        <time>2022-03-24T09:27:36Z</time>
      </trkpt>
      <trkpt lat="42.78541" lon="0.14382">
        <ele>1850.5</ele>
        <time>2022-03-24T09:27:39Z</time>
      </trkpt>
      <trkpt lat="42.78542" lon="0.14365">
        <ele>1853.4</ele>
        <time>2022-03-24T09:27:57Z</time>
      </trkpt>
      <trkpt lat="42.78541" lon="0.14362">
        <ele>1853.8</ele>
        <time>2022-03-24T09:28:03Z</time>
      </trkpt>
      <trkpt lat="42.78541" lon="0.14359">
        <ele>1854.2</ele>
        <time>2022-03-24T09:28:10Z</time>
      </trkpt>
      <trkpt lat="42.78543" lon="0.1436">
        <ele>1854.4</ele>
        <time>2022-03-24T09:28:14Z</time>
      </trkpt>
      <trkpt lat="42.78543" lon="0.14357">
        <ele>1854.8</ele>
        <time>2022-03-24T09:28:26Z</time>
      </trkpt>
      <trkpt lat="42.78541" lon="0.14358">
        <ele>1854.4</ele>
        <time>2022-03-24T09:28:41Z</time>
      </trkpt>
      <trkpt lat="42.78544" lon="0.14362">
        <ele>1854.2</ele>
        <time>2022-03-24T09:28:44Z</time>
      </trkpt>
      <trkpt lat="42.78546" lon="0.14361">
        <ele>1854.6</ele>
        <time>2022-03-24T09:28:46Z</time>
      </trkpt>
      <trkpt lat="42.7855" lon="0.1436">
        <ele>1855.4</ele>
        <time>2022-03-24T09:28:48Z</time>
      </trkpt>
      <trkpt lat="42.78549" lon="0.14357">
        <ele>1855.6</ele>
        <time>2022-03-24T09:28:52Z</time>
      </trkpt>
      <trkpt lat="42.78549" lon="0.14354">
        <ele>1856.1</ele>
        <time>2022-03-24T09:28:55Z</time>
      </trkpt>
      <trkpt lat="42.78546" lon="0.14352">
        <ele>1855.9</ele>
        <time>2022-03-24T09:28:57Z</time>
      </trkpt>
      <trkpt lat="42.78544" lon="0.14349">
        <ele>1856.1</ele>
        <time>2022-03-24T09:28:59Z</time>
      </trkpt>
      <trkpt lat="42.78545" lon="0.14345">
        <ele>1856.8</ele>
        <time>2022-03-24T09:29:01Z</time>
      </trkpt>
      <trkpt lat="42.7854" lon="0.14343">
        <ele>1856.4</ele>
        <time>2022-03-24T09:29:07Z</time>
      </trkpt>
      <trkpt lat="42.78537" lon="0.14337">
        <ele>1856.8</ele>
        <time>2022-03-24T09:29:13Z</time>
      </trkpt>
      <trkpt lat="42.78532" lon="0.14329">
        <ele>1857.5</ele>
        <time>2022-03-24T09:29:21Z</time>
      </trkpt>
      <trkpt lat="42.78531" lon="0.14327">
        <ele>1857.8</ele>
        <time>2022-03-24T09:29:24Z</time>
      </trkpt>
      <trkpt lat="42.78528" lon="0.14318">
        <ele>1859.3</ele>
        <time>2022-03-24T09:29:35Z</time>
      </trkpt>
      <trkpt lat="42.78527" lon="0.14308">
        <ele>1861.4</ele>
        <time>2022-03-24T09:29:44Z</time>
      </trkpt>
      <trkpt lat="42.78514" lon="0.14287">
        <ele>1863</ele>
        <time>2022-03-24T09:30:05Z</time>
      </trkpt>
      <trkpt lat="42.78512" lon="0.14275">
        <ele>1864.8</ele>
        <time>2022-03-24T09:30:19Z</time>
      </trkpt>
      <trkpt lat="42.78512" lon="0.14271">
        <ele>1865.5</ele>
        <time>2022-03-24T09:30:22Z</time>
      </trkpt>
      <trkpt lat="42.78511" lon="0.14269">
        <ele>1865.8</ele>
        <time>2022-03-24T09:30:26Z</time>
      </trkpt>
      <trkpt lat="42.78508" lon="0.14263">
        <ele>1866.5</ele>
        <time>2022-03-24T09:30:33Z</time>
      </trkpt>
      <trkpt lat="42.78502" lon="0.14256">
        <ele>1867.1</ele>
        <time>2022-03-24T09:30:43Z</time>
      </trkpt>
      <trkpt lat="42.78491" lon="0.14235">
        <ele>1870.5</ele>
        <time>2022-03-24T09:31:11Z</time>
      </trkpt>
      <trkpt lat="42.78486" lon="0.14228">
        <ele>1871.6</ele>
        <time>2022-03-24T09:31:22Z</time>
      </trkpt>
      <trkpt lat="42.78484" lon="0.14226">
        <ele>1871.8</ele>
        <time>2022-03-24T09:31:25Z</time>
      </trkpt>
      <trkpt lat="42.78483" lon="0.14224">
        <ele>1872.1</ele>
        <time>2022-03-24T09:31:29Z</time>
      </trkpt>
      <trkpt lat="42.78481" lon="0.14222">
        <ele>1872.4</ele>
        <time>2022-03-24T09:31:33Z</time>
      </trkpt>
      <trkpt lat="42.78479" lon="0.14221">
        <ele>1872.5</ele>
        <time>2022-03-24T09:31:36Z</time>
      </trkpt>
      <trkpt lat="42.78476" lon="0.14213">
        <ele>1874.2</ele>
        <time>2022-03-24T09:31:44Z</time>
      </trkpt>
      <trkpt lat="42.78476" lon="0.1421">
        <ele>1874.8</ele>
        <time>2022-03-24T09:31:49Z</time>
      </trkpt>
      <trkpt lat="42.78476" lon="0.14207">
        <ele>1875.5</ele>
        <time>2022-03-24T09:31:52Z</time>
      </trkpt>
      <trkpt lat="42.78474" lon="0.14205">
        <ele>1875.8</ele>
        <time>2022-03-24T09:31:55Z</time>
      </trkpt>
      <trkpt lat="42.78473" lon="0.14194">
        <ele>1878.1</ele>
        <time>2022-03-24T09:32:11Z</time>
      </trkpt>
      <trkpt lat="42.78464" lon="0.14174">
        <ele>1880.4</ele>
        <time>2022-03-24T09:32:37Z</time>
      </trkpt>
      <trkpt lat="42.78462" lon="0.14173">
        <ele>1880.3</ele>
        <time>2022-03-24T09:32:40Z</time>
      </trkpt>
      <trkpt lat="42.78462" lon="0.14167">
        <ele>1881.5</ele>
        <time>2022-03-24T09:32:48Z</time>
      </trkpt>
      <trkpt lat="42.78463" lon="0.14161">
        <ele>1882.9</ele>
        <time>2022-03-24T09:32:53Z</time>
      </trkpt>
      <trkpt lat="42.7846" lon="0.14152">
        <ele>1884.4</ele>
        <time>2022-03-24T09:33:03Z</time>
      </trkpt>
      <trkpt lat="42.7846" lon="0.14146">
        <ele>1885.7</ele>
        <time>2022-03-24T09:33:10Z</time>
      </trkpt>
      <trkpt lat="42.78457" lon="0.14141">
        <ele>1886.4</ele>
        <time>2022-03-24T09:33:17Z</time>
      </trkpt>
      <trkpt lat="42.78455" lon="0.14138">
        <ele>1886.7</ele>
        <time>2022-03-24T09:33:20Z</time>
      </trkpt>
      <trkpt lat="42.78455" lon="0.14135">
        <ele>1887.3</ele>
        <time>2022-03-24T09:33:24Z</time>
      </trkpt>
      <trkpt lat="42.78455" lon="0.14132">
        <ele>1887.9</ele>
        <time>2022-03-24T09:33:28Z</time>
      </trkpt>
      <trkpt lat="42.78455" lon="0.14129">
        <ele>1888.4</ele>
        <time>2022-03-24T09:33:32Z</time>
      </trkpt>
      <trkpt lat="42.78454" lon="0.14127">
        <ele>1888.7</ele>
        <time>2022-03-24T09:33:35Z</time>
      </trkpt>
      <trkpt lat="42.78453" lon="0.14124">
        <ele>1889.1</ele>
        <time>2022-03-24T09:33:38Z</time>
      </trkpt>
      <trkpt lat="42.78451" lon="0.14118">
        <ele>1889.9</ele>
        <time>2022-03-24T09:33:44Z</time>
      </trkpt>
      <trkpt lat="42.78451" lon="0.14106">
        <ele>1892.2</ele>
        <time>2022-03-24T09:33:58Z</time>
      </trkpt>
      <trkpt lat="42.78448" lon="0.14101">
        <ele>1892.8</ele>
        <time>2022-03-24T09:34:04Z</time>
      </trkpt>
      <trkpt lat="42.78447" lon="0.14099">
        <ele>1893</ele>
        <time>2022-03-24T09:34:07Z</time>
      </trkpt>
      <trkpt lat="42.78446" lon="0.1409">
        <ele>1894.8</ele>
        <time>2022-03-24T09:34:16Z</time>
      </trkpt>
      <trkpt lat="42.78441" lon="0.14082">
        <ele>1895.7</ele>
        <time>2022-03-24T09:34:25Z</time>
      </trkpt>
      <trkpt lat="42.78441" lon="0.14079">
        <ele>1896.3</ele>
        <time>2022-03-24T09:34:28Z</time>
      </trkpt>
      <trkpt lat="42.78441" lon="0.14076">
        <ele>1896.8</ele>
        <time>2022-03-24T09:34:31Z</time>
      </trkpt>
      <trkpt lat="42.7844" lon="0.14074">
        <ele>1897</ele>
        <time>2022-03-24T09:34:35Z</time>
      </trkpt>
      <trkpt lat="42.78438" lon="0.14072">
        <ele>1897.1</ele>
        <time>2022-03-24T09:34:38Z</time>
      </trkpt>
      <trkpt lat="42.78436" lon="0.14068">
        <ele>1897.5</ele>
        <time>2022-03-24T09:34:44Z</time>
      </trkpt>
      <trkpt lat="42.78432" lon="0.14047">
        <ele>1900.6</ele>
        <time>2022-03-24T09:35:02Z</time>
      </trkpt>
      <trkpt lat="42.78434" lon="0.14039">
        <ele>1902.3</ele>
        <time>2022-03-24T09:35:10Z</time>
      </trkpt>
      <trkpt lat="42.78435" lon="0.14036">
        <ele>1902.9</ele>
        <time>2022-03-24T09:35:13Z</time>
      </trkpt>
      <trkpt lat="42.78431" lon="0.14018">
        <ele>1905.2</ele>
        <time>2022-03-24T09:35:33Z</time>
      </trkpt>
      <trkpt lat="42.78429" lon="0.14012">
        <ele>1905.7</ele>
        <time>2022-03-24T09:35:39Z</time>
      </trkpt>
      <trkpt lat="42.78427" lon="0.14011">
        <ele>1905.5</ele>
        <time>2022-03-24T09:35:43Z</time>
      </trkpt>
      <trkpt lat="42.7843" lon="0.1401">
        <ele>1906.3</ele>
        <time>2022-03-24T09:35:54Z</time>
      </trkpt>
      <trkpt lat="42.78427" lon="0.14015">
        <ele>1904.9</ele>
        <time>2022-03-24T09:36:35Z</time>
      </trkpt>
      <trkpt lat="42.78428" lon="0.14019">
        <ele>1904.4</ele>
        <time>2022-03-24T09:36:57Z</time>
      </trkpt>
      <trkpt lat="42.78429" lon="0.14013">
        <ele>1905.6</ele>
        <time>2022-03-24T09:37:04Z</time>
      </trkpt>
      <trkpt lat="42.7844" lon="0.1401">
        <ele>1908.3</ele>
        <time>2022-03-24T09:37:19Z</time>
      </trkpt>
      <trkpt lat="42.78435" lon="0.14015">
        <ele>1906.4</ele>
        <time>2022-03-24T09:37:30Z</time>
      </trkpt>
      <trkpt lat="42.7843" lon="0.14016">
        <ele>1905.3</ele>
        <time>2022-03-24T09:37:32Z</time>
      </trkpt>
      <trkpt lat="42.78428" lon="0.14013">
        <ele>1905.4</ele>
        <time>2022-03-24T09:37:37Z</time>
      </trkpt>
      <trkpt lat="42.78433" lon="0.14007">
        <ele>1907.4</ele>
        <time>2022-03-24T09:37:54Z</time>
      </trkpt>
      <trkpt lat="42.78432" lon="0.1401">
        <ele>1906.7</ele>
        <time>2022-03-24T09:38:03Z</time>
      </trkpt>
      <trkpt lat="42.78423" lon="0.1402">
        <ele>1903.3</ele>
        <time>2022-03-24T09:38:31Z</time>
      </trkpt>
      <trkpt lat="42.78425" lon="0.14016">
        <ele>1904.3</ele>
        <time>2022-03-24T09:38:33Z</time>
      </trkpt>
      <trkpt lat="42.78428" lon="0.14012">
        <ele>1905.5</ele>
        <time>2022-03-24T09:38:37Z</time>
      </trkpt>
      <trkpt lat="42.7843" lon="0.14012">
        <ele>1905.9</ele>
        <time>2022-03-24T09:38:45Z</time>
      </trkpt>
      <trkpt lat="42.78432" lon="0.1401">
        <ele>1906.7</ele>
        <time>2022-03-24T09:38:57Z</time>
      </trkpt>
      <trkpt lat="42.78433" lon="0.14009">
        <ele>1907</ele>
        <time>2022-03-24T09:39:03Z</time>
      </trkpt>
      <trkpt lat="42.78433" lon="0.14002">
        <ele>1908.2</ele>
        <time>2022-03-24T09:39:13Z</time>
      </trkpt>
      <trkpt lat="42.78427" lon="0.13985">
        <ele>1909.4</ele>
        <time>2022-03-24T09:39:30Z</time>
      </trkpt>
      <trkpt lat="42.78423" lon="0.13977">
        <ele>1909.7</ele>
        <time>2022-03-24T09:39:39Z</time>
      </trkpt>
      <trkpt lat="42.78419" lon="0.13952">
        <ele>1913.1</ele>
        <time>2022-03-24T09:40:04Z</time>
      </trkpt>
      <trkpt lat="42.78419" lon="0.13945">
        <ele>1914.3</ele>
        <time>2022-03-24T09:40:11Z</time>
      </trkpt>
      <trkpt lat="42.78419" lon="0.13932">
        <ele>1915.8</ele>
        <time>2022-03-24T09:40:23Z</time>
      </trkpt>
      <trkpt lat="42.78417" lon="0.13926">
        <ele>1916.1</ele>
        <time>2022-03-24T09:40:29Z</time>
      </trkpt>
      <trkpt lat="42.78414" lon="0.13918">
        <ele>1916.2</ele>
        <time>2022-03-24T09:40:41Z</time>
      </trkpt>
      <trkpt lat="42.78414" lon="0.13903">
        <ele>1917.8</ele>
        <time>2022-03-24T09:40:55Z</time>
      </trkpt>
      <trkpt lat="42.78415" lon="0.13901">
        <ele>1918.3</ele>
        <time>2022-03-24T09:40:57Z</time>
      </trkpt>
      <trkpt lat="42.78412" lon="0.139">
        <ele>1917.6</ele>
        <time>2022-03-24T09:41:00Z</time>
      </trkpt>
      <trkpt lat="42.78415" lon="0.13888">
        <ele>1919.6</ele>
        <time>2022-03-24T09:41:15Z</time>
      </trkpt>
      <trkpt lat="42.78415" lon="0.13884">
        <ele>1919.9</ele>
        <time>2022-03-24T09:41:19Z</time>
      </trkpt>
      <trkpt lat="42.78415" lon="0.13881">
        <ele>1920.2</ele>
        <time>2022-03-24T09:41:22Z</time>
      </trkpt>
      <trkpt lat="42.78419" lon="0.13853">
        <ele>1923.5</ele>
        <time>2022-03-24T09:41:50Z</time>
      </trkpt>
      <trkpt lat="42.78424" lon="0.13835">
        <ele>1926.9</ele>
        <time>2022-03-24T09:42:07Z</time>
      </trkpt>
      <trkpt lat="42.78422" lon="0.13833">
        <ele>1926.6</ele>
        <time>2022-03-24T09:42:10Z</time>
      </trkpt>
      <trkpt lat="42.78423" lon="0.1383">
        <ele>1927.2</ele>
        <time>2022-03-24T09:42:13Z</time>
      </trkpt>
      <trkpt lat="42.78424" lon="0.13826">
        <ele>1927.8</ele>
        <time>2022-03-24T09:42:16Z</time>
      </trkpt>
      <trkpt lat="42.78425" lon="0.1382">
        <ele>1928.7</ele>
        <time>2022-03-24T09:42:21Z</time>
      </trkpt>
      <trkpt lat="42.78425" lon="0.13816">
        <ele>1929.1</ele>
        <time>2022-03-24T09:42:24Z</time>
      </trkpt>
      <trkpt lat="42.78432" lon="0.13788">
        <ele>1933.1</ele>
        <time>2022-03-24T09:42:52Z</time>
      </trkpt>
      <trkpt lat="42.7843" lon="0.13786">
        <ele>1932.8</ele>
        <time>2022-03-24T09:42:55Z</time>
      </trkpt>
      <trkpt lat="42.78429" lon="0.13782">
        <ele>1932.8</ele>
        <time>2022-03-24T09:43:00Z</time>
      </trkpt>
      <trkpt lat="42.78427" lon="0.13779">
        <ele>1932.5</ele>
        <time>2022-03-24T09:43:04Z</time>
      </trkpt>
      <trkpt lat="42.78427" lon="0.13775">
        <ele>1932.9</ele>
        <time>2022-03-24T09:43:08Z</time>
      </trkpt>
      <trkpt lat="42.78429" lon="0.1376">
        <ele>1935</ele>
        <time>2022-03-24T09:43:20Z</time>
      </trkpt>
      <trkpt lat="42.78427" lon="0.13758">
        <ele>1934.7</ele>
        <time>2022-03-24T09:43:23Z</time>
      </trkpt>
      <trkpt lat="42.78426" lon="0.13755">
        <ele>1934.8</ele>
        <time>2022-03-24T09:43:26Z</time>
      </trkpt>
      <trkpt lat="42.78426" lon="0.13751">
        <ele>1935.2</ele>
        <time>2022-03-24T09:43:29Z</time>
      </trkpt>
      <trkpt lat="42.78427" lon="0.13748">
        <ele>1935.8</ele>
        <time>2022-03-24T09:43:32Z</time>
      </trkpt>
      <trkpt lat="42.78427" lon="0.13744">
        <ele>1936.3</ele>
        <time>2022-03-24T09:43:36Z</time>
      </trkpt>
      <trkpt lat="42.78427" lon="0.13741">
        <ele>1936.6</ele>
        <time>2022-03-24T09:43:39Z</time>
      </trkpt>
      <trkpt lat="42.7843" lon="0.13716">
        <ele>1939.9</ele>
        <time>2022-03-24T09:44:05Z</time>
      </trkpt>
      <trkpt lat="42.78439" lon="0.13684">
        <ele>1944.9</ele>
        <time>2022-03-24T09:44:37Z</time>
      </trkpt>
      <trkpt lat="42.78445" lon="0.13664">
        <ele>1947.4</ele>
        <time>2022-03-24T09:44:57Z</time>
      </trkpt>
      <trkpt lat="42.78444" lon="0.13658">
        <ele>1947.5</ele>
        <time>2022-03-24T09:45:04Z</time>
      </trkpt>
      <trkpt lat="42.78442" lon="0.13655">
        <ele>1947.3</ele>
        <time>2022-03-24T09:45:07Z</time>
      </trkpt>
      <trkpt lat="42.78441" lon="0.13655">
        <ele>1947.1</ele>
        <time>2022-03-24T09:45:10Z</time>
      </trkpt>
      <trkpt lat="42.7844" lon="0.13653">
        <ele>1947.1</ele>
        <time>2022-03-24T09:45:34Z</time>
      </trkpt>
      <trkpt lat="42.78439" lon="0.13619">
        <ele>1951.8</ele>
        <time>2022-03-24T09:46:03Z</time>
      </trkpt>
      <trkpt lat="42.78437" lon="0.13608">
        <ele>1953.5</ele>
        <time>2022-03-24T09:46:17Z</time>
      </trkpt>
      <trkpt lat="42.78435" lon="0.13603">
        <ele>1954.3</ele>
        <time>2022-03-24T09:46:24Z</time>
      </trkpt>
      <trkpt lat="42.78433" lon="0.13601">
        <ele>1954.5</ele>
        <time>2022-03-24T09:46:26Z</time>
      </trkpt>
      <trkpt lat="42.78431" lon="0.13597">
        <ele>1955.1</ele>
        <time>2022-03-24T09:46:32Z</time>
      </trkpt>
      <trkpt lat="42.78418" lon="0.13583">
        <ele>1957.2</ele>
        <time>2022-03-24T09:46:54Z</time>
      </trkpt>
      <trkpt lat="42.78417" lon="0.1358">
        <ele>1957.7</ele>
        <time>2022-03-24T09:46:57Z</time>
      </trkpt>
      <trkpt lat="42.78417" lon="0.13571">
        <ele>1959.7</ele>
        <time>2022-03-24T09:47:07Z</time>
      </trkpt>
      <trkpt lat="42.78412" lon="0.13562">
        <ele>1961.6</ele>
        <time>2022-03-24T09:47:20Z</time>
      </trkpt>
      <trkpt lat="42.78409" lon="0.13557">
        <ele>1962.7</ele>
        <time>2022-03-24T09:47:26Z</time>
      </trkpt>
      <trkpt lat="42.78407" lon="0.13555">
        <ele>1963.1</ele>
        <time>2022-03-24T09:47:29Z</time>
      </trkpt>
      <trkpt lat="42.78406" lon="0.13553">
        <ele>1963.6</ele>
        <time>2022-03-24T09:47:36Z</time>
      </trkpt>
      <trkpt lat="42.78402" lon="0.13548">
        <ele>1964.9</ele>
        <time>2022-03-24T09:47:42Z</time>
      </trkpt>
      <trkpt lat="42.784" lon="0.13547">
        <ele>1965.2</ele>
        <time>2022-03-24T09:47:45Z</time>
      </trkpt>
      <trkpt lat="42.78398" lon="0.13544">
        <ele>1965.9</ele>
        <time>2022-03-24T09:47:48Z</time>
      </trkpt>
      <trkpt lat="42.78396" lon="0.13543">
        <ele>1966.2</ele>
        <time>2022-03-24T09:47:51Z</time>
      </trkpt>
      <trkpt lat="42.78394" lon="0.13542">
        <ele>1966.4</ele>
        <time>2022-03-24T09:47:54Z</time>
      </trkpt>
      <trkpt lat="42.78388" lon="0.13539">
        <ele>1967.1</ele>
        <time>2022-03-24T09:48:01Z</time>
      </trkpt>
      <trkpt lat="42.78387" lon="0.13538">
        <ele>1967.2</ele>
        <time>2022-03-24T09:48:04Z</time>
      </trkpt>
      <trkpt lat="42.78387" lon="0.13535">
        <ele>1967.9</ele>
        <time>2022-03-24T09:48:08Z</time>
      </trkpt>
      <trkpt lat="42.78385" lon="0.13532">
        <ele>1968.4</ele>
        <time>2022-03-24T09:48:15Z</time>
      </trkpt>
      <trkpt lat="42.78383" lon="0.13531">
        <ele>1968.4</ele>
        <time>2022-03-24T09:48:18Z</time>
      </trkpt>
      <trkpt lat="42.78382" lon="0.13528">
        <ele>1969</ele>
        <time>2022-03-24T09:48:22Z</time>
      </trkpt>
      <trkpt lat="42.78381" lon="0.13524">
        <ele>1969.7</ele>
        <time>2022-03-24T09:48:26Z</time>
      </trkpt>
      <trkpt lat="42.78369" lon="0.13496">
        <ele>1974.9</ele>
        <time>2022-03-24T09:48:58Z</time>
      </trkpt>
      <trkpt lat="42.78365" lon="0.13488">
        <ele>1976.4</ele>
        <time>2022-03-24T09:49:09Z</time>
      </trkpt>
      <trkpt lat="42.78362" lon="0.13484">
        <ele>1977.1</ele>
        <time>2022-03-24T09:49:15Z</time>
      </trkpt>
      <trkpt lat="42.78361" lon="0.13481">
        <ele>1977.8</ele>
        <time>2022-03-24T09:49:18Z</time>
      </trkpt>
      <trkpt lat="42.78362" lon="0.13478">
        <ele>1978.6</ele>
        <time>2022-03-24T09:49:21Z</time>
      </trkpt>
      <trkpt lat="42.78361" lon="0.13475">
        <ele>1979.3</ele>
        <time>2022-03-24T09:49:24Z</time>
      </trkpt>
      <trkpt lat="42.78354" lon="0.13466">
        <ele>1979.9</ele>
        <time>2022-03-24T09:49:37Z</time>
      </trkpt>
      <trkpt lat="42.78352" lon="0.1346">
        <ele>1980.8</ele>
        <time>2022-03-24T09:49:44Z</time>
      </trkpt>
      <trkpt lat="42.78351" lon="0.13454">
        <ele>1982</ele>
        <time>2022-03-24T09:49:50Z</time>
      </trkpt>
      <trkpt lat="42.78354" lon="0.1345">
        <ele>1983.5</ele>
        <time>2022-03-24T09:50:00Z</time>
      </trkpt>
      <trkpt lat="42.78361" lon="0.13447">
        <ele>1985.4</ele>
        <time>2022-03-24T09:50:13Z</time>
      </trkpt>
      <trkpt lat="42.78378" lon="0.13435">
        <ele>1991</ele>
        <time>2022-03-24T09:50:43Z</time>
      </trkpt>
      <trkpt lat="42.78382" lon="0.13433">
        <ele>1992.2</ele>
        <time>2022-03-24T09:50:50Z</time>
      </trkpt>
      <trkpt lat="42.78392" lon="0.13426">
        <ele>1995.6</ele>
        <time>2022-03-24T09:51:15Z</time>
      </trkpt>
      <trkpt lat="42.784" lon="0.1342">
        <ele>1998.2</ele>
        <time>2022-03-24T09:51:34Z</time>
      </trkpt>
      <trkpt lat="42.78399" lon="0.13417">
        <ele>1999</ele>
        <time>2022-03-24T09:51:43Z</time>
      </trkpt>
      <trkpt lat="42.78396" lon="0.13411">
        <ele>2000.2</ele>
        <time>2022-03-24T09:51:53Z</time>
      </trkpt>
      <trkpt lat="42.78394" lon="0.13408">
        <ele>2000.8</ele>
        <time>2022-03-24T09:51:56Z</time>
      </trkpt>
      <trkpt lat="42.78389" lon="0.13398">
        <ele>2002.7</ele>
        <time>2022-03-24T09:52:08Z</time>
      </trkpt>
      <trkpt lat="42.78386" lon="0.13394">
        <ele>2003.1</ele>
        <time>2022-03-24T09:52:15Z</time>
      </trkpt>
      <trkpt lat="42.78384" lon="0.13391">
        <ele>2003.4</ele>
        <time>2022-03-24T09:52:20Z</time>
      </trkpt>
      <trkpt lat="42.78381" lon="0.13388">
        <ele>2003.5</ele>
        <time>2022-03-24T09:52:26Z</time>
      </trkpt>
      <trkpt lat="42.7838" lon="0.13384">
        <ele>2004.3</ele>
        <time>2022-03-24T09:52:29Z</time>
      </trkpt>
      <trkpt lat="42.78381" lon="0.13381">
        <ele>2005.3</ele>
        <time>2022-03-24T09:52:32Z</time>
      </trkpt>
      <trkpt lat="42.7838" lon="0.13378">
        <ele>2005.8</ele>
        <time>2022-03-24T09:52:35Z</time>
      </trkpt>
      <trkpt lat="42.78378" lon="0.1337">
        <ele>2007.4</ele>
        <time>2022-03-24T09:52:44Z</time>
      </trkpt>
      <trkpt lat="42.78375" lon="0.13356">
        <ele>2010.4</ele>
        <time>2022-03-24T09:52:57Z</time>
      </trkpt>
      <trkpt lat="42.78373" lon="0.13354">
        <ele>2010.5</ele>
        <time>2022-03-24T09:53:00Z</time>
      </trkpt>
      <trkpt lat="42.78368" lon="0.13352">
        <ele>2010</ele>
        <time>2022-03-24T09:53:05Z</time>
      </trkpt>
      <trkpt lat="42.78367" lon="0.1335">
        <ele>2010.4</ele>
        <time>2022-03-24T09:53:08Z</time>
      </trkpt>
      <trkpt lat="42.78363" lon="0.13338">
        <ele>2013</ele>
        <time>2022-03-24T09:53:23Z</time>
      </trkpt>
      <trkpt lat="42.78362" lon="0.13336">
        <ele>2013.4</ele>
        <time>2022-03-24T09:53:26Z</time>
      </trkpt>
      <trkpt lat="42.78354" lon="0.13324">
        <ele>2016.1</ele>
        <time>2022-03-24T09:53:39Z</time>
      </trkpt>
      <trkpt lat="42.78352" lon="0.13323">
        <ele>2016.2</ele>
        <time>2022-03-24T09:53:42Z</time>
      </trkpt>
      <trkpt lat="42.7835" lon="0.13321">
        <ele>2016.7</ele>
        <time>2022-03-24T09:53:46Z</time>
      </trkpt>
      <trkpt lat="42.78349" lon="0.13318">
        <ele>2017.6</ele>
        <time>2022-03-24T09:53:51Z</time>
      </trkpt>
      <trkpt lat="42.78349" lon="0.13313">
        <ele>2019.2</ele>
        <time>2022-03-24T09:54:02Z</time>
      </trkpt>
      <trkpt lat="42.78335" lon="0.13305">
        <ele>2021.2</ele>
        <time>2022-03-24T09:54:20Z</time>
      </trkpt>
      <trkpt lat="42.78333" lon="0.13305">
        <ele>2021.2</ele>
        <time>2022-03-24T09:54:23Z</time>
      </trkpt>
      <trkpt lat="42.78331" lon="0.13303">
        <ele>2021.8</ele>
        <time>2022-03-24T09:54:26Z</time>
      </trkpt>
      <trkpt lat="42.78327" lon="0.13301">
        <ele>2022.5</ele>
        <time>2022-03-24T09:54:33Z</time>
      </trkpt>
      <trkpt lat="42.78325" lon="0.13299">
        <ele>2023.1</ele>
        <time>2022-03-24T09:54:36Z</time>
      </trkpt>
      <trkpt lat="42.78325" lon="0.13297">
        <ele>2023.8</ele>
        <time>2022-03-24T09:54:39Z</time>
      </trkpt>
      <trkpt lat="42.7832" lon="0.1329">
        <ele>2026</ele>
        <time>2022-03-24T09:54:46Z</time>
      </trkpt>
      <trkpt lat="42.78318" lon="0.13286">
        <ele>2027.3</ele>
        <time>2022-03-24T09:54:54Z</time>
      </trkpt>
      <trkpt lat="42.78316" lon="0.13285">
        <ele>2027.7</ele>
        <time>2022-03-24T09:54:56Z</time>
      </trkpt>
      <trkpt lat="42.78313" lon="0.13285">
        <ele>2027.7</ele>
        <time>2022-03-24T09:55:01Z</time>
      </trkpt>
      <trkpt lat="42.78312" lon="0.13283">
        <ele>2028.3</ele>
        <time>2022-03-24T09:55:09Z</time>
      </trkpt>
      <trkpt lat="42.7831" lon="0.13281">
        <ele>2029</ele>
        <time>2022-03-24T09:55:13Z</time>
      </trkpt>
      <trkpt lat="42.78309" lon="0.13279">
        <ele>2029.6</ele>
        <time>2022-03-24T09:55:15Z</time>
      </trkpt>
      <trkpt lat="42.78306" lon="0.13275">
        <ele>2031</ele>
        <time>2022-03-24T09:55:23Z</time>
      </trkpt>
      <trkpt lat="42.783" lon="0.13274">
        <ele>2032.3</ele>
        <time>2022-03-24T09:55:33Z</time>
      </trkpt>
      <trkpt lat="42.78298" lon="0.13274">
        <ele>2032.6</ele>
        <time>2022-03-24T09:55:36Z</time>
      </trkpt>
      <trkpt lat="42.78292" lon="0.13273">
        <ele>2034</ele>
        <time>2022-03-24T09:55:45Z</time>
      </trkpt>
      <trkpt lat="42.7828" lon="0.13267">
        <ele>2037.8</ele>
        <time>2022-03-24T09:56:03Z</time>
      </trkpt>
      <trkpt lat="42.78278" lon="0.13268">
        <ele>2037.8</ele>
        <time>2022-03-24T09:56:07Z</time>
      </trkpt>
      <trkpt lat="42.78276" lon="0.13268">
        <ele>2038</ele>
        <time>2022-03-24T09:56:10Z</time>
      </trkpt>
      <trkpt lat="42.78275" lon="0.13267">
        <ele>2038.4</ele>
        <time>2022-03-24T09:56:15Z</time>
      </trkpt>
      <trkpt lat="42.78273" lon="0.13266">
        <ele>2038.8</ele>
        <time>2022-03-24T09:56:19Z</time>
      </trkpt>
      <trkpt lat="42.78271" lon="0.13264">
        <ele>2039.6</ele>
        <time>2022-03-24T09:56:24Z</time>
      </trkpt>
      <trkpt lat="42.78255" lon="0.1325">
        <ele>2044.6</ele>
        <time>2022-03-24T09:56:52Z</time>
      </trkpt>
      <trkpt lat="42.78253" lon="0.13249">
        <ele>2045.1</ele>
        <time>2022-03-24T09:56:56Z</time>
      </trkpt>
      <trkpt lat="42.78251" lon="0.13248">
        <ele>2045.5</ele>
        <time>2022-03-24T09:56:59Z</time>
      </trkpt>
      <trkpt lat="42.78249" lon="0.13248">
        <ele>2045.7</ele>
        <time>2022-03-24T09:57:04Z</time>
      </trkpt>
      <trkpt lat="42.78247" lon="0.13247">
        <ele>2046.2</ele>
        <time>2022-03-24T09:57:11Z</time>
      </trkpt>
      <trkpt lat="42.78246" lon="0.13245">
        <ele>2046.8</ele>
        <time>2022-03-24T09:57:15Z</time>
      </trkpt>
      <trkpt lat="42.78244" lon="0.13245">
        <ele>2047</ele>
        <time>2022-03-24T09:57:18Z</time>
      </trkpt>
      <trkpt lat="42.78237" lon="0.13239">
        <ele>2049.4</ele>
        <time>2022-03-24T09:57:28Z</time>
      </trkpt>
      <trkpt lat="42.78235" lon="0.13237">
        <ele>2050.1</ele>
        <time>2022-03-24T09:57:32Z</time>
      </trkpt>
      <trkpt lat="42.78233" lon="0.13236">
        <ele>2050.6</ele>
        <time>2022-03-24T09:57:35Z</time>
      </trkpt>
      <trkpt lat="42.78231" lon="0.13237">
        <ele>2050.5</ele>
        <time>2022-03-24T09:57:39Z</time>
      </trkpt>
      <trkpt lat="42.7823" lon="0.13237">
        <ele>2050.6</ele>
        <time>2022-03-24T09:57:41Z</time>
      </trkpt>
      <trkpt lat="42.78228" lon="0.13237">
        <ele>2050.7</ele>
        <time>2022-03-24T09:57:44Z</time>
      </trkpt>
      <trkpt lat="42.78226" lon="0.13239">
        <ele>2050.4</ele>
        <time>2022-03-24T09:57:48Z</time>
      </trkpt>
      <trkpt lat="42.78223" lon="0.13239">
        <ele>2050.7</ele>
        <time>2022-03-24T09:57:52Z</time>
      </trkpt>
      <trkpt lat="42.78222" lon="0.13237">
        <ele>2051.3</ele>
        <time>2022-03-24T09:57:57Z</time>
      </trkpt>
      <trkpt lat="42.78217" lon="0.13233">
        <ele>2052.8</ele>
        <time>2022-03-24T09:58:06Z</time>
      </trkpt>
      <trkpt lat="42.78215" lon="0.13231">
        <ele>2053.6</ele>
        <time>2022-03-24T09:58:09Z</time>
      </trkpt>
      <trkpt lat="42.78215" lon="0.13228">
        <ele>2054.3</ele>
        <time>2022-03-24T09:58:12Z</time>
      </trkpt>
      <trkpt lat="42.78214" lon="0.13226">
        <ele>2054.9</ele>
        <time>2022-03-24T09:58:16Z</time>
      </trkpt>
      <trkpt lat="42.78212" lon="0.13225">
        <ele>2055.4</ele>
        <time>2022-03-24T09:58:18Z</time>
      </trkpt>
      <trkpt lat="42.7821" lon="0.13223">
        <ele>2056.1</ele>
        <time>2022-03-24T09:58:21Z</time>
      </trkpt>
      <trkpt lat="42.78205" lon="0.13218">
        <ele>2058</ele>
        <time>2022-03-24T09:58:34Z</time>
      </trkpt>
      <trkpt lat="42.78203" lon="0.13218">
        <ele>2058.2</ele>
        <time>2022-03-24T09:58:43Z</time>
      </trkpt>
      <trkpt lat="42.782" lon="0.13216">
        <ele>2059</ele>
        <time>2022-03-24T09:58:52Z</time>
      </trkpt>
      <trkpt lat="42.78199" lon="0.13214">
        <ele>2059.6</ele>
        <time>2022-03-24T09:58:56Z</time>
      </trkpt>
      <trkpt lat="42.78197" lon="0.13212">
        <ele>2060.3</ele>
        <time>2022-03-24T09:58:59Z</time>
      </trkpt>
      <trkpt lat="42.78196" lon="0.1321">
        <ele>2060.9</ele>
        <time>2022-03-24T09:59:04Z</time>
      </trkpt>
      <trkpt lat="42.78194" lon="0.13207">
        <ele>2061.9</ele>
        <time>2022-03-24T09:59:08Z</time>
      </trkpt>
      <trkpt lat="42.78192" lon="0.13207">
        <ele>2062.1</ele>
        <time>2022-03-24T09:59:10Z</time>
      </trkpt>
      <trkpt lat="42.78188" lon="0.13204">
        <ele>2063.2</ele>
        <time>2022-03-24T09:59:17Z</time>
      </trkpt>
      <trkpt lat="42.78187" lon="0.13198">
        <ele>2064.9</ele>
        <time>2022-03-24T09:59:26Z</time>
      </trkpt>
      <trkpt lat="42.78187" lon="0.13196">
        <ele>2065.4</ele>
        <time>2022-03-24T09:59:32Z</time>
      </trkpt>
      <trkpt lat="42.78186" lon="0.13193">
        <ele>2066.3</ele>
        <time>2022-03-24T09:59:40Z</time>
      </trkpt>
      <trkpt lat="42.7819" lon="0.13177">
        <ele>2070.3</ele>
        <time>2022-03-24T09:59:58Z</time>
      </trkpt>
      <trkpt lat="42.78189" lon="0.13174">
        <ele>2071.2</ele>
        <time>2022-03-24T10:00:04Z</time>
      </trkpt>
      <trkpt lat="42.78188" lon="0.13166">
        <ele>2073.4</ele>
        <time>2022-03-24T10:00:22Z</time>
      </trkpt>
      <trkpt lat="42.78186" lon="0.13164">
        <ele>2073.9</ele>
        <time>2022-03-24T10:00:27Z</time>
      </trkpt>
      <trkpt lat="42.78185" lon="0.13158">
        <ele>2075.3</ele>
        <time>2022-03-24T10:00:35Z</time>
      </trkpt>
      <trkpt lat="42.78183" lon="0.13157">
        <ele>2075.6</ele>
        <time>2022-03-24T10:00:39Z</time>
      </trkpt>
      <trkpt lat="42.78182" lon="0.13154">
        <ele>2076.4</ele>
        <time>2022-03-24T10:00:43Z</time>
      </trkpt>
      <trkpt lat="42.78179" lon="0.13151">
        <ele>2077.3</ele>
        <time>2022-03-24T10:00:52Z</time>
      </trkpt>
      <trkpt lat="42.78178" lon="0.13148">
        <ele>2078</ele>
        <time>2022-03-24T10:00:56Z</time>
      </trkpt>
      <trkpt lat="42.78178" lon="0.13145">
        <ele>2078.7</ele>
        <time>2022-03-24T10:01:00Z</time>
      </trkpt>
      <trkpt lat="42.78179" lon="0.13142">
        <ele>2079.4</ele>
        <time>2022-03-24T10:01:03Z</time>
      </trkpt>
      <trkpt lat="42.78178" lon="0.13139">
        <ele>2080.2</ele>
        <time>2022-03-24T10:01:08Z</time>
      </trkpt>
      <trkpt lat="42.78176" lon="0.13138">
        <ele>2080.6</ele>
        <time>2022-03-24T10:01:13Z</time>
      </trkpt>
      <trkpt lat="42.78178" lon="0.13135">
        <ele>2081.2</ele>
        <time>2022-03-24T10:01:16Z</time>
      </trkpt>
      <trkpt lat="42.78179" lon="0.13131">
        <ele>2082.1</ele>
        <time>2022-03-24T10:01:19Z</time>
      </trkpt>
      <trkpt lat="42.78179" lon="0.13129">
        <ele>2082.6</ele>
        <time>2022-03-24T10:01:24Z</time>
      </trkpt>
      <trkpt lat="42.78178" lon="0.13127">
        <ele>2083.2</ele>
        <time>2022-03-24T10:01:32Z</time>
      </trkpt>
      <trkpt lat="42.78175" lon="0.13126">
        <ele>2083.6</ele>
        <time>2022-03-24T10:01:35Z</time>
      </trkpt>
      <trkpt lat="42.78173" lon="0.13124">
        <ele>2084.3</ele>
        <time>2022-03-24T10:01:38Z</time>
      </trkpt>
      <trkpt lat="42.78172" lon="0.13122">
        <ele>2084.9</ele>
        <time>2022-03-24T10:01:44Z</time>
      </trkpt>
      <trkpt lat="42.78169" lon="0.13118">
        <ele>2086.1</ele>
        <time>2022-03-24T10:01:57Z</time>
      </trkpt>
      <trkpt lat="42.78169" lon="0.13114">
        <ele>2087.1</ele>
        <time>2022-03-24T10:02:00Z</time>
      </trkpt>
      <trkpt lat="42.78167" lon="0.13114">
        <ele>2087.2</ele>
        <time>2022-03-24T10:02:03Z</time>
      </trkpt>
      <trkpt lat="42.78164" lon="0.13108">
        <ele>2088.4</ele>
        <time>2022-03-24T10:02:14Z</time>
      </trkpt>
      <trkpt lat="42.78162" lon="0.13107">
        <ele>2088.4</ele>
        <time>2022-03-24T10:02:18Z</time>
      </trkpt>
      <trkpt lat="42.78159" lon="0.13102">
        <ele>2089.3</ele>
        <time>2022-03-24T10:02:26Z</time>
      </trkpt>
      <trkpt lat="42.78159" lon="0.13096">
        <ele>2091.1</ele>
        <time>2022-03-24T10:02:33Z</time>
      </trkpt>
      <trkpt lat="42.7816" lon="0.1309">
        <ele>2093.1</ele>
        <time>2022-03-24T10:02:41Z</time>
      </trkpt>
      <trkpt lat="42.78161" lon="0.13088">
        <ele>2093.8</ele>
        <time>2022-03-24T10:02:44Z</time>
      </trkpt>
      <trkpt lat="42.78164" lon="0.13078">
        <ele>2097.3</ele>
        <time>2022-03-24T10:02:58Z</time>
      </trkpt>
      <trkpt lat="42.78162" lon="0.13077">
        <ele>2097.4</ele>
        <time>2022-03-24T10:03:03Z</time>
      </trkpt>
      <trkpt lat="42.78161" lon="0.13074">
        <ele>2098.2</ele>
        <time>2022-03-24T10:03:12Z</time>
      </trkpt>
      <trkpt lat="42.78158" lon="0.13067">
        <ele>2100</ele>
        <time>2022-03-24T10:03:25Z</time>
      </trkpt>
      <trkpt lat="42.78157" lon="0.13064">
        <ele>2100.9</ele>
        <time>2022-03-24T10:03:32Z</time>
      </trkpt>
      <trkpt lat="42.78154" lon="0.13063">
        <ele>2100.8</ele>
        <time>2022-03-24T10:03:43Z</time>
      </trkpt>
      <trkpt lat="42.7815" lon="0.13065">
        <ele>2099.5</ele>
        <time>2022-03-24T10:03:48Z</time>
      </trkpt>
      <trkpt lat="42.78148" lon="0.13064">
        <ele>2099.6</ele>
        <time>2022-03-24T10:03:55Z</time>
      </trkpt>
      <trkpt lat="42.7815" lon="0.13061">
        <ele>2100.8</ele>
        <time>2022-03-24T10:04:40Z</time>
      </trkpt>
      <trkpt lat="42.78155" lon="0.13057">
        <ele>2102.9</ele>
        <time>2022-03-24T10:04:47Z</time>
      </trkpt>
      <trkpt lat="42.78157" lon="0.13056">
        <ele>2103.5</ele>
        <time>2022-03-24T10:04:52Z</time>
      </trkpt>
      <trkpt lat="42.78159" lon="0.13056">
        <ele>2103.8</ele>
        <time>2022-03-24T10:04:54Z</time>
      </trkpt>
      <trkpt lat="42.78161" lon="0.13056">
        <ele>2104</ele>
        <time>2022-03-24T10:04:57Z</time>
      </trkpt>
      <trkpt lat="42.78169" lon="0.13051">
        <ele>2106.6</ele>
        <time>2022-03-24T10:05:13Z</time>
      </trkpt>
      <trkpt lat="42.78166" lon="0.13052">
        <ele>2105.9</ele>
        <time>2022-03-24T10:05:47Z</time>
      </trkpt>
      <trkpt lat="42.78163" lon="0.13054">
        <ele>2104.9</ele>
        <time>2022-03-24T10:05:52Z</time>
      </trkpt>
      <trkpt lat="42.78161" lon="0.13053">
        <ele>2104.9</ele>
        <time>2022-03-24T10:06:06Z</time>
      </trkpt>
      <trkpt lat="42.7816" lon="0.13055">
        <ele>2104.2</ele>
        <time>2022-03-24T10:06:30Z</time>
      </trkpt>
      <trkpt lat="42.78162" lon="0.13055">
        <ele>2104.5</ele>
        <time>2022-03-24T10:06:37Z</time>
      </trkpt>
      <trkpt lat="42.78162" lon="0.13057">
        <ele>2103.9</ele>
        <time>2022-03-24T10:06:50Z</time>
      </trkpt>
      <trkpt lat="42.78162" lon="0.13054">
        <ele>2104.8</ele>
        <time>2022-03-24T10:08:09Z</time>
      </trkpt>
      <trkpt lat="42.78158" lon="0.13052">
        <ele>2104.8</ele>
        <time>2022-03-24T10:09:30Z</time>
      </trkpt>
      <trkpt lat="42.78157" lon="0.13052">
        <ele>2104.7</ele>
        <time>2022-03-24T10:09:33Z</time>
      </trkpt>
      <trkpt lat="42.78161" lon="0.13052">
        <ele>2105.2</ele>
        <time>2022-03-24T10:10:15Z</time>
      </trkpt>
      <trkpt lat="42.78163" lon="0.13051">
        <ele>2105.8</ele>
        <time>2022-03-24T10:10:19Z</time>
      </trkpt>
      <trkpt lat="42.78165" lon="0.13052">
        <ele>2105.8</ele>
        <time>2022-03-24T10:10:23Z</time>
      </trkpt>
      <trkpt lat="42.7816" lon="0.13041">
        <ele>2108.4</ele>
        <time>2022-03-24T10:11:03Z</time>
      </trkpt>
      <trkpt lat="42.78162" lon="0.13038">
        <ele>2109.5</ele>
        <time>2022-03-24T10:11:08Z</time>
      </trkpt>
      <trkpt lat="42.78164" lon="0.13036">
        <ele>2110.3</ele>
        <time>2022-03-24T10:11:12Z</time>
      </trkpt>
      <trkpt lat="42.78167" lon="0.13029">
        <ele>2112.7</ele>
        <time>2022-03-24T10:11:23Z</time>
      </trkpt>
      <trkpt lat="42.78168" lon="0.13026">
        <ele>2113.8</ele>
        <time>2022-03-24T10:11:27Z</time>
      </trkpt>
      <trkpt lat="42.7817" lon="0.13025">
        <ele>2114.4</ele>
        <time>2022-03-24T10:11:30Z</time>
      </trkpt>
      <trkpt lat="42.78172" lon="0.13023">
        <ele>2115.3</ele>
        <time>2022-03-24T10:11:35Z</time>
      </trkpt>
      <trkpt lat="42.78172" lon="0.13019">
        <ele>2116.6</ele>
        <time>2022-03-24T10:11:42Z</time>
      </trkpt>
      <trkpt lat="42.78163" lon="0.12999">
        <ele>2121.9</ele>
        <time>2022-03-24T10:12:13Z</time>
      </trkpt>
      <trkpt lat="42.78164" lon="0.12995">
        <ele>2123.3</ele>
        <time>2022-03-24T10:12:19Z</time>
      </trkpt>
      <trkpt lat="42.78164" lon="0.12992">
        <ele>2124.3</ele>
        <time>2022-03-24T10:12:23Z</time>
      </trkpt>
      <trkpt lat="42.78162" lon="0.12989">
        <ele>2125.1</ele>
        <time>2022-03-24T10:12:30Z</time>
      </trkpt>
      <trkpt lat="42.78162" lon="0.12987">
        <ele>2125.7</ele>
        <time>2022-03-24T10:12:35Z</time>
      </trkpt>
      <trkpt lat="42.78152" lon="0.12977">
        <ele>2127.9</ele>
        <time>2022-03-24T10:12:59Z</time>
      </trkpt>
      <trkpt lat="42.78152" lon="0.12974">
        <ele>2128.8</ele>
        <time>2022-03-24T10:13:02Z</time>
      </trkpt>
      <trkpt lat="42.7815" lon="0.12968">
        <ele>2130.7</ele>
        <time>2022-03-24T10:13:11Z</time>
      </trkpt>
      <trkpt lat="42.7815" lon="0.12962">
        <ele>2132.9</ele>
        <time>2022-03-24T10:13:19Z</time>
      </trkpt>
      <trkpt lat="42.78152" lon="0.12959">
        <ele>2134.2</ele>
        <time>2022-03-24T10:13:25Z</time>
      </trkpt>
      <trkpt lat="42.78157" lon="0.12943">
        <ele>2140.4</ele>
        <time>2022-03-24T10:14:06Z</time>
      </trkpt>
      <trkpt lat="42.7816" lon="0.12938">
        <ele>2142.4</ele>
        <time>2022-03-24T10:14:15Z</time>
      </trkpt>
      <trkpt lat="42.78162" lon="0.1293">
        <ele>2145.2</ele>
        <time>2022-03-24T10:14:38Z</time>
      </trkpt>
      <trkpt lat="42.78164" lon="0.12928">
        <ele>2146</ele>
        <time>2022-03-24T10:14:44Z</time>
      </trkpt>
      <trkpt lat="42.78166" lon="0.12927">
        <ele>2146.6</ele>
        <time>2022-03-24T10:14:49Z</time>
      </trkpt>
      <trkpt lat="42.78169" lon="0.12923">
        <ele>2148.2</ele>
        <time>2022-03-24T10:14:58Z</time>
      </trkpt>
      <trkpt lat="42.78174" lon="0.12916">
        <ele>2151</ele>
        <time>2022-03-24T10:15:15Z</time>
      </trkpt>
      <trkpt lat="42.78179" lon="0.12914">
        <ele>2152.2</ele>
        <time>2022-03-24T10:15:23Z</time>
      </trkpt>
      <trkpt lat="42.78178" lon="0.12912">
        <ele>2152.7</ele>
        <time>2022-03-24T10:15:29Z</time>
      </trkpt>
      <trkpt lat="42.7818" lon="0.12906">
        <ele>2154.7</ele>
        <time>2022-03-24T10:15:41Z</time>
      </trkpt>
      <trkpt lat="42.78179" lon="0.12904">
        <ele>2155.2</ele>
        <time>2022-03-24T10:15:48Z</time>
      </trkpt>
      <trkpt lat="42.7818" lon="0.12901">
        <ele>2156.2</ele>
        <time>2022-03-24T10:15:52Z</time>
      </trkpt>
      <trkpt lat="42.78179" lon="0.12898">
        <ele>2157.1</ele>
        <time>2022-03-24T10:15:58Z</time>
      </trkpt>
      <trkpt lat="42.78165" lon="0.12882">
        <ele>2161.1</ele>
        <time>2022-03-24T10:16:30Z</time>
      </trkpt>
      <trkpt lat="42.78163" lon="0.12877">
        <ele>2162.5</ele>
        <time>2022-03-24T10:16:38Z</time>
      </trkpt>
      <trkpt lat="42.78161" lon="0.12876">
        <ele>2162.7</ele>
        <time>2022-03-24T10:16:42Z</time>
      </trkpt>
      <trkpt lat="42.78159" lon="0.12873">
        <ele>2163.5</ele>
        <time>2022-03-24T10:16:45Z</time>
      </trkpt>
      <trkpt lat="42.78157" lon="0.12872">
        <ele>2163.6</ele>
        <time>2022-03-24T10:16:48Z</time>
      </trkpt>
      <trkpt lat="42.78155" lon="0.1287">
        <ele>2164.1</ele>
        <time>2022-03-24T10:16:53Z</time>
      </trkpt>
      <trkpt lat="42.78155" lon="0.12867">
        <ele>2165.2</ele>
        <time>2022-03-24T10:17:13Z</time>
      </trkpt>
      <trkpt lat="42.78157" lon="0.12864">
        <ele>2166.3</ele>
        <time>2022-03-24T10:17:18Z</time>
      </trkpt>
      <trkpt lat="42.7816" lon="0.1286">
        <ele>2167.9</ele>
        <time>2022-03-24T10:17:25Z</time>
      </trkpt>
      <trkpt lat="42.7817" lon="0.1285">
        <ele>2172.4</ele>
        <time>2022-03-24T10:17:45Z</time>
      </trkpt>
      <trkpt lat="42.78172" lon="0.12847">
        <ele>2173.7</ele>
        <time>2022-03-24T10:17:53Z</time>
      </trkpt>
      <trkpt lat="42.78174" lon="0.12845">
        <ele>2174.6</ele>
        <time>2022-03-24T10:17:58Z</time>
      </trkpt>
      <trkpt lat="42.78178" lon="0.12843">
        <ele>2175.7</ele>
        <time>2022-03-24T10:18:09Z</time>
      </trkpt>
      <trkpt lat="42.7818" lon="0.12837">
        <ele>2178.1</ele>
        <time>2022-03-24T10:18:26Z</time>
      </trkpt>
      <trkpt lat="42.7818" lon="0.12834">
        <ele>2179.2</ele>
        <time>2022-03-24T10:18:32Z</time>
      </trkpt>
      <trkpt lat="42.78176" lon="0.12827">
        <ele>2181.1</ele>
        <time>2022-03-24T10:18:46Z</time>
      </trkpt>
      <trkpt lat="42.78175" lon="0.12824">
        <ele>2181.9</ele>
        <time>2022-03-24T10:18:55Z</time>
      </trkpt>
      <trkpt lat="42.78174" lon="0.12822">
        <ele>2182.5</ele>
        <time>2022-03-24T10:19:01Z</time>
      </trkpt>
      <trkpt lat="42.78171" lon="0.12819">
        <ele>2183.1</ele>
        <time>2022-03-24T10:19:11Z</time>
      </trkpt>
      <trkpt lat="42.7817" lon="0.12816">
        <ele>2184</ele>
        <time>2022-03-24T10:19:15Z</time>
      </trkpt>
      <trkpt lat="42.78168" lon="0.12816">
        <ele>2183.8</ele>
        <time>2022-03-24T10:19:18Z</time>
      </trkpt>
      <trkpt lat="42.78166" lon="0.12814">
        <ele>2184.2</ele>
        <time>2022-03-24T10:19:21Z</time>
      </trkpt>
      <trkpt lat="42.78165" lon="0.12811">
        <ele>2185.1</ele>
        <time>2022-03-24T10:19:28Z</time>
      </trkpt>
      <trkpt lat="42.78159" lon="0.12803">
        <ele>2187.3</ele>
        <time>2022-03-24T10:19:42Z</time>
      </trkpt>
      <trkpt lat="42.78157" lon="0.12801">
        <ele>2187.9</ele>
        <time>2022-03-24T10:19:46Z</time>
      </trkpt>
      <trkpt lat="42.78156" lon="0.12794">
        <ele>2190.2</ele>
        <time>2022-03-24T10:19:56Z</time>
      </trkpt>
      <trkpt lat="42.78154" lon="0.12792">
        <ele>2190.7</ele>
        <time>2022-03-24T10:20:01Z</time>
      </trkpt>
      <trkpt lat="42.78154" lon="0.12789">
        <ele>2191.8</ele>
        <time>2022-03-24T10:20:06Z</time>
      </trkpt>
      <trkpt lat="42.78151" lon="0.12785">
        <ele>2192.9</ele>
        <time>2022-03-24T10:20:15Z</time>
      </trkpt>
      <trkpt lat="42.78149" lon="0.12783">
        <ele>2193.3</ele>
        <time>2022-03-24T10:20:18Z</time>
      </trkpt>
      <trkpt lat="42.78148" lon="0.1278">
        <ele>2194.2</ele>
        <time>2022-03-24T10:20:23Z</time>
      </trkpt>
      <trkpt lat="42.78146" lon="0.12779">
        <ele>2194.4</ele>
        <time>2022-03-24T10:20:29Z</time>
      </trkpt>
      <trkpt lat="42.78145" lon="0.12777">
        <ele>2194.9</ele>
        <time>2022-03-24T10:20:32Z</time>
      </trkpt>
      <trkpt lat="42.78141" lon="0.1277">
        <ele>2196.8</ele>
        <time>2022-03-24T10:20:45Z</time>
      </trkpt>
      <trkpt lat="42.78141" lon="0.12762">
        <ele>2199.4</ele>
        <time>2022-03-24T10:20:53Z</time>
      </trkpt>
      <trkpt lat="42.78142" lon="0.1276">
        <ele>2200.2</ele>
        <time>2022-03-24T10:20:59Z</time>
      </trkpt>
      <trkpt lat="42.78152" lon="0.12756">
        <ele>2202.8</ele>
        <time>2022-03-24T10:21:24Z</time>
      </trkpt>
      <trkpt lat="42.78155" lon="0.12753">
        <ele>2204.3</ele>
        <time>2022-03-24T10:21:33Z</time>
      </trkpt>
      <trkpt lat="42.7815" lon="0.12745">
        <ele>2206.3</ele>
        <time>2022-03-24T10:22:01Z</time>
      </trkpt>
      <trkpt lat="42.78148" lon="0.12743">
        <ele>2206.7</ele>
        <time>2022-03-24T10:22:07Z</time>
      </trkpt>
      <trkpt lat="42.78148" lon="0.1274">
        <ele>2207.8</ele>
        <time>2022-03-24T10:22:11Z</time>
      </trkpt>
      <trkpt lat="42.78148" lon="0.12738">
        <ele>2208.5</ele>
        <time>2022-03-24T10:22:15Z</time>
      </trkpt>
      <trkpt lat="42.78154" lon="0.12729">
        <ele>2212.3</ele>
        <time>2022-03-24T10:22:32Z</time>
      </trkpt>
      <trkpt lat="42.78155" lon="0.12726">
        <ele>2213.5</ele>
        <time>2022-03-24T10:22:38Z</time>
      </trkpt>
      <trkpt lat="42.78158" lon="0.12722">
        <ele>2215.1</ele>
        <time>2022-03-24T10:22:46Z</time>
      </trkpt>
      <trkpt lat="42.78159" lon="0.12719">
        <ele>2216.2</ele>
        <time>2022-03-24T10:22:52Z</time>
      </trkpt>
      <trkpt lat="42.7816" lon="0.12716">
        <ele>2217.3</ele>
        <time>2022-03-24T10:22:57Z</time>
      </trkpt>
      <trkpt lat="42.78162" lon="0.12712">
        <ele>2218.9</ele>
        <time>2022-03-24T10:23:08Z</time>
      </trkpt>
      <trkpt lat="42.78166" lon="0.12713">
        <ele>2218.9</ele>
        <time>2022-03-24T10:23:24Z</time>
      </trkpt>
      <trkpt lat="42.78165" lon="0.12716">
        <ele>2217.8</ele>
        <time>2022-03-24T10:23:27Z</time>
      </trkpt>
      <trkpt lat="42.78167" lon="0.12717">
        <ele>2217.7</ele>
        <time>2022-03-24T10:23:34Z</time>
      </trkpt>
      <trkpt lat="42.78167" lon="0.12713">
        <ele>2219</ele>
        <time>2022-03-24T10:23:46Z</time>
      </trkpt>
      <trkpt lat="42.78166" lon="0.12708">
        <ele>2220.5</ele>
        <time>2022-03-24T10:23:53Z</time>
      </trkpt>
      <trkpt lat="42.78167" lon="0.12705">
        <ele>2221.6</ele>
        <time>2022-03-24T10:23:58Z</time>
      </trkpt>
      <trkpt lat="42.78165" lon="0.12703">
        <ele>2222.1</ele>
        <time>2022-03-24T10:24:05Z</time>
      </trkpt>
      <trkpt lat="42.78164" lon="0.127">
        <ele>2223</ele>
        <time>2022-03-24T10:24:10Z</time>
      </trkpt>
      <trkpt lat="42.7816" lon="0.12697">
        <ele>2223.7</ele>
        <time>2022-03-24T10:24:17Z</time>
      </trkpt>
      <trkpt lat="42.78159" lon="0.12694">
        <ele>2224.6</ele>
        <time>2022-03-24T10:24:20Z</time>
      </trkpt>
      <trkpt lat="42.78158" lon="0.12691">
        <ele>2225.5</ele>
        <time>2022-03-24T10:24:24Z</time>
      </trkpt>
      <trkpt lat="42.78156" lon="0.1269">
        <ele>2225.7</ele>
        <time>2022-03-24T10:24:27Z</time>
      </trkpt>
      <trkpt lat="42.78154" lon="0.1269">
        <ele>2225.5</ele>
        <time>2022-03-24T10:24:34Z</time>
      </trkpt>
      <trkpt lat="42.78151" lon="0.12687">
        <ele>2226.3</ele>
        <time>2022-03-24T10:24:45Z</time>
      </trkpt>
      <trkpt lat="42.78147" lon="0.1268">
        <ele>2228.3</ele>
        <time>2022-03-24T10:24:54Z</time>
      </trkpt>
      <trkpt lat="42.78146" lon="0.12678">
        <ele>2228.8</ele>
        <time>2022-03-24T10:24:58Z</time>
      </trkpt>
      <trkpt lat="42.78141" lon="0.12671">
        <ele>2230.7</ele>
        <time>2022-03-24T10:25:09Z</time>
      </trkpt>
      <trkpt lat="42.78141" lon="0.12669">
        <ele>2231.4</ele>
        <time>2022-03-24T10:25:18Z</time>
      </trkpt>
      <trkpt lat="42.78138" lon="0.12664">
        <ele>2232.8</ele>
        <time>2022-03-24T10:25:28Z</time>
      </trkpt>
      <trkpt lat="42.78136" lon="0.12662">
        <ele>2233.4</ele>
        <time>2022-03-24T10:25:31Z</time>
      </trkpt>
      <trkpt lat="42.78134" lon="0.1266">
        <ele>2234.1</ele>
        <time>2022-03-24T10:25:35Z</time>
      </trkpt>
      <trkpt lat="42.78132" lon="0.12658">
        <ele>2234.7</ele>
        <time>2022-03-24T10:25:40Z</time>
      </trkpt>
      <trkpt lat="42.7813" lon="0.12653">
        <ele>2236.1</ele>
        <time>2022-03-24T10:25:54Z</time>
      </trkpt>
      <trkpt lat="42.78128" lon="0.1265">
        <ele>2237</ele>
        <time>2022-03-24T10:25:58Z</time>
      </trkpt>
      <trkpt lat="42.78127" lon="0.12648">
        <ele>2237.5</ele>
        <time>2022-03-24T10:26:01Z</time>
      </trkpt>
      <trkpt lat="42.78125" lon="0.12646">
        <ele>2238.1</ele>
        <time>2022-03-24T10:26:09Z</time>
      </trkpt>
      <trkpt lat="42.78124" lon="0.12643">
        <ele>2238.9</ele>
        <time>2022-03-24T10:26:12Z</time>
      </trkpt>
      <trkpt lat="42.7812" lon="0.12636">
        <ele>2240.7</ele>
        <time>2022-03-24T10:26:28Z</time>
      </trkpt>
      <trkpt lat="42.78107" lon="0.12623">
        <ele>2243.1</ele>
        <time>2022-03-24T10:26:55Z</time>
      </trkpt>
      <trkpt lat="42.78105" lon="0.12623">
        <ele>2242.9</ele>
        <time>2022-03-24T10:26:59Z</time>
      </trkpt>
      <trkpt lat="42.78103" lon="0.12621">
        <ele>2243.2</ele>
        <time>2022-03-24T10:27:06Z</time>
      </trkpt>
      <trkpt lat="42.78101" lon="0.12615">
        <ele>2244.4</ele>
        <time>2022-03-24T10:27:15Z</time>
      </trkpt>
      <trkpt lat="42.78099" lon="0.12613">
        <ele>2244.7</ele>
        <time>2022-03-24T10:27:18Z</time>
      </trkpt>
      <trkpt lat="42.78093" lon="0.12607">
        <ele>2245.8</ele>
        <time>2022-03-24T10:27:34Z</time>
      </trkpt>
      <trkpt lat="42.78092" lon="0.12604">
        <ele>2246.5</ele>
        <time>2022-03-24T10:27:48Z</time>
      </trkpt>
      <trkpt lat="42.78095" lon="0.12603">
        <ele>2247</ele>
        <time>2022-03-24T10:27:52Z</time>
      </trkpt>
      <trkpt lat="42.78094" lon="0.12602">
        <ele>2247.2</ele>
        <time>2022-03-24T10:28:02Z</time>
      </trkpt>
      <trkpt lat="42.78092" lon="0.12602">
        <ele>2247</ele>
        <time>2022-03-24T10:28:11Z</time>
      </trkpt>
      <trkpt lat="42.7809" lon="0.12603">
        <ele>2246.6</ele>
        <time>2022-03-24T10:28:13Z</time>
      </trkpt>
      <trkpt lat="42.78089" lon="0.12598">
        <ele>2247.8</ele>
        <time>2022-03-24T10:28:21Z</time>
      </trkpt>
      <trkpt lat="42.78089" lon="0.12599">
        <ele>2247.5</ele>
        <time>2022-03-24T10:29:10Z</time>
      </trkpt>
      <trkpt lat="42.78089" lon="0.12603">
        <ele>2246.5</ele>
        <time>2022-03-24T10:29:14Z</time>
      </trkpt>
      <trkpt lat="42.78089" lon="0.12604">
        <ele>2246.3</ele>
        <time>2022-03-24T10:29:38Z</time>
      </trkpt>
      <trkpt lat="42.7809" lon="0.12604">
        <ele>2246.3</ele>
        <time>2022-03-24T10:31:05Z</time>
      </trkpt>
      <trkpt lat="42.78091" lon="0.12605">
        <ele>2246.2</ele>
        <time>2022-03-24T10:31:51Z</time>
      </trkpt>
      <trkpt lat="42.7809" lon="0.12606">
        <ele>2245.8</ele>
        <time>2022-03-24T10:39:36Z</time>
      </trkpt>
      <trkpt lat="42.78087" lon="0.12605">
        <ele>2245.8</ele>
        <time>2022-03-24T10:39:39Z</time>
      </trkpt>
      <trkpt lat="42.78084" lon="0.12599">
        <ele>2247.1</ele>
        <time>2022-03-24T10:39:47Z</time>
      </trkpt>
      <trkpt lat="42.78073" lon="0.12584">
        <ele>2250.1</ele>
        <time>2022-03-24T10:40:03Z</time>
      </trkpt>
      <trkpt lat="42.78061" lon="0.12572">
        <ele>2252</ele>
        <time>2022-03-24T10:40:27Z</time>
      </trkpt>
      <trkpt lat="42.78059" lon="0.12569">
        <ele>2252.5</ele>
        <time>2022-03-24T10:40:30Z</time>
      </trkpt>
      <trkpt lat="42.78058" lon="0.12567">
        <ele>2252.8</ele>
        <time>2022-03-24T10:40:34Z</time>
      </trkpt>
      <trkpt lat="42.78056" lon="0.12565">
        <ele>2253</ele>
        <time>2022-03-24T10:40:37Z</time>
      </trkpt>
      <trkpt lat="42.78055" lon="0.12564">
        <ele>2253.3</ele>
        <time>2022-03-24T10:40:42Z</time>
      </trkpt>
      <trkpt lat="42.78045" lon="0.12556">
        <ele>2257.5</ele>
        <time>2022-03-24T10:41:06Z</time>
      </trkpt>
      <trkpt lat="42.78028" lon="0.12556">
        <ele>2261.8</ele>
        <time>2022-03-24T10:41:38Z</time>
      </trkpt>
      <trkpt lat="42.78026" lon="0.12555">
        <ele>2262.9</ele>
        <time>2022-03-24T10:41:43Z</time>
      </trkpt>
      <trkpt lat="42.78024" lon="0.12555">
        <ele>2263.7</ele>
        <time>2022-03-24T10:41:49Z</time>
      </trkpt>
      <trkpt lat="42.78017" lon="0.12558">
        <ele>2265.5</ele>
        <time>2022-03-24T10:41:57Z</time>
      </trkpt>
      <trkpt lat="42.78014" lon="0.12561">
        <ele>2265.8</ele>
        <time>2022-03-24T10:42:05Z</time>
      </trkpt>
      <trkpt lat="42.7801" lon="0.12562">
        <ele>2267.1</ele>
        <time>2022-03-24T10:42:13Z</time>
      </trkpt>
      <trkpt lat="42.78008" lon="0.12564">
        <ele>2267.3</ele>
        <time>2022-03-24T10:42:17Z</time>
      </trkpt>
      <trkpt lat="42.78007" lon="0.12566">
        <ele>2267.1</ele>
        <time>2022-03-24T10:42:22Z</time>
      </trkpt>
      <trkpt lat="42.78005" lon="0.12566">
        <ele>2267.9</ele>
        <time>2022-03-24T10:42:25Z</time>
      </trkpt>
      <trkpt lat="42.78003" lon="0.12566">
        <ele>2268.8</ele>
        <time>2022-03-24T10:42:28Z</time>
      </trkpt>
      <trkpt lat="42.78001" lon="0.12567">
        <ele>2269.3</ele>
        <time>2022-03-24T10:42:31Z</time>
      </trkpt>
      <trkpt lat="42.77996" lon="0.12571">
        <ele>2269.8</ele>
        <time>2022-03-24T10:42:41Z</time>
      </trkpt>
      <trkpt lat="42.77994" lon="0.1257">
        <ele>2270.7</ele>
        <time>2022-03-24T10:42:46Z</time>
      </trkpt>
      <trkpt lat="42.77987" lon="0.1257">
        <ele>2272.8</ele>
        <time>2022-03-24T10:42:57Z</time>
      </trkpt>
      <trkpt lat="42.77985" lon="0.12571">
        <ele>2273.2</ele>
        <time>2022-03-24T10:43:05Z</time>
      </trkpt>
      <trkpt lat="42.7798" lon="0.1257">
        <ele>2275</ele>
        <time>2022-03-24T10:43:17Z</time>
      </trkpt>
      <trkpt lat="42.77978" lon="0.12571">
        <ele>2275.4</ele>
        <time>2022-03-24T10:43:21Z</time>
      </trkpt>
      <trkpt lat="42.77977" lon="0.12572">
        <ele>2275.5</ele>
        <time>2022-03-24T10:43:24Z</time>
      </trkpt>
      <trkpt lat="42.77976" lon="0.12573">
        <ele>2275.7</ele>
        <time>2022-03-24T10:43:41Z</time>
      </trkpt>
      <trkpt lat="42.77977" lon="0.12576">
        <ele>2274.7</ele>
        <time>2022-03-24T10:43:43Z</time>
      </trkpt>
      <trkpt lat="42.7798" lon="0.12569">
        <ele>2275.2</ele>
        <time>2022-03-24T10:44:11Z</time>
      </trkpt>
      <trkpt lat="42.77975" lon="0.12565">
        <ele>2277.5</ele>
        <time>2022-03-24T10:44:28Z</time>
      </trkpt>
      <trkpt lat="42.7797" lon="0.12561">
        <ele>2279.7</ele>
        <time>2022-03-24T10:44:42Z</time>
      </trkpt>
      <trkpt lat="42.77969" lon="0.12558">
        <ele>2280.6</ele>
        <time>2022-03-24T10:44:47Z</time>
      </trkpt>
      <trkpt lat="42.77967" lon="0.12556">
        <ele>2281.6</ele>
        <time>2022-03-24T10:44:49Z</time>
      </trkpt>
      <trkpt lat="42.77968" lon="0.12549">
        <ele>2283.4</ele>
        <time>2022-03-24T10:44:58Z</time>
      </trkpt>
      <trkpt lat="42.77967" lon="0.12546">
        <ele>2284.6</ele>
        <time>2022-03-24T10:45:02Z</time>
      </trkpt>
      <trkpt lat="42.77969" lon="0.12544">
        <ele>2284.6</ele>
        <time>2022-03-24T10:45:08Z</time>
      </trkpt>
      <trkpt lat="42.77971" lon="0.12544">
        <ele>2284.1</ele>
        <time>2022-03-24T10:45:13Z</time>
      </trkpt>
      <trkpt lat="42.77973" lon="0.12542">
        <ele>2284.2</ele>
        <time>2022-03-24T10:45:17Z</time>
      </trkpt>
      <trkpt lat="42.77972" lon="0.12536">
        <ele>2286.4</ele>
        <time>2022-03-24T10:45:26Z</time>
      </trkpt>
      <trkpt lat="42.77973" lon="0.12534">
        <ele>2286.8</ele>
        <time>2022-03-24T10:45:33Z</time>
      </trkpt>
      <trkpt lat="42.77969" lon="0.1253">
        <ele>2289</ele>
        <time>2022-03-24T10:45:51Z</time>
      </trkpt>
      <trkpt lat="42.77967" lon="0.12528">
        <ele>2290.1</ele>
        <time>2022-03-24T10:45:55Z</time>
      </trkpt>
      <trkpt lat="42.77964" lon="0.12528">
        <ele>2290.7</ele>
        <time>2022-03-24T10:45:58Z</time>
      </trkpt>
      <trkpt lat="42.77962" lon="0.12527">
        <ele>2291.5</ele>
        <time>2022-03-24T10:46:01Z</time>
      </trkpt>
      <trkpt lat="42.7796" lon="0.12528">
        <ele>2291.6</ele>
        <time>2022-03-24T10:46:04Z</time>
      </trkpt>
      <trkpt lat="42.77958" lon="0.1253">
        <ele>2291.5</ele>
        <time>2022-03-24T10:46:14Z</time>
      </trkpt>
      <trkpt lat="42.77956" lon="0.12531">
        <ele>2291.7</ele>
        <time>2022-03-24T10:46:20Z</time>
      </trkpt>
      <trkpt lat="42.77949" lon="0.12533">
        <ele>2292.8</ele>
        <time>2022-03-24T10:46:32Z</time>
      </trkpt>
      <trkpt lat="42.7794" lon="0.12533">
        <ele>2295.5</ele>
        <time>2022-03-24T10:46:43Z</time>
      </trkpt>
      <trkpt lat="42.77941" lon="0.12531">
        <ele>2295.6</ele>
        <time>2022-03-24T10:46:47Z</time>
      </trkpt>
      <trkpt lat="42.77941" lon="0.12529">
        <ele>2296</ele>
        <time>2022-03-24T10:46:49Z</time>
      </trkpt>
      <trkpt lat="42.77945" lon="0.12525">
        <ele>2295.9</ele>
        <time>2022-03-24T10:47:31Z</time>
      </trkpt>
      <trkpt lat="42.77945" lon="0.12522">
        <ele>2297</ele>
        <time>2022-03-24T10:47:38Z</time>
      </trkpt>
      <trkpt lat="42.77945" lon="0.12518">
        <ele>2298.4</ele>
        <time>2022-03-24T10:47:44Z</time>
      </trkpt>
      <trkpt lat="42.77943" lon="0.12516">
        <ele>2299.8</ele>
        <time>2022-03-24T10:47:49Z</time>
      </trkpt>
      <trkpt lat="42.77941" lon="0.12516">
        <ele>2300.5</ele>
        <time>2022-03-24T10:47:54Z</time>
      </trkpt>
      <trkpt lat="42.77937" lon="0.12513">
        <ele>2303</ele>
        <time>2022-03-24T10:48:03Z</time>
      </trkpt>
      <trkpt lat="42.77934" lon="0.12512">
        <ele>2304.4</ele>
        <time>2022-03-24T10:48:09Z</time>
      </trkpt>
      <trkpt lat="42.7793" lon="0.12512">
        <ele>2305.9</ele>
        <time>2022-03-24T10:48:22Z</time>
      </trkpt>
      <trkpt lat="42.77928" lon="0.12511">
        <ele>2307</ele>
        <time>2022-03-24T10:48:25Z</time>
      </trkpt>
      <trkpt lat="42.77926" lon="0.12511">
        <ele>2307.7</ele>
        <time>2022-03-24T10:48:28Z</time>
      </trkpt>
      <trkpt lat="42.77924" lon="0.12512">
        <ele>2308</ele>
        <time>2022-03-24T10:48:32Z</time>
      </trkpt>
      <trkpt lat="42.77922" lon="0.12512">
        <ele>2308.8</ele>
        <time>2022-03-24T10:48:36Z</time>
      </trkpt>
      <trkpt lat="42.7792" lon="0.12511">
        <ele>2309.8</ele>
        <time>2022-03-24T10:48:39Z</time>
      </trkpt>
      <trkpt lat="42.77918" lon="0.1251">
        <ele>2310.9</ele>
        <time>2022-03-24T10:48:43Z</time>
      </trkpt>
      <trkpt lat="42.77917" lon="0.12508">
        <ele>2312</ele>
        <time>2022-03-24T10:48:46Z</time>
      </trkpt>
      <trkpt lat="42.77915" lon="0.12508">
        <ele>2312.8</ele>
        <time>2022-03-24T10:48:49Z</time>
      </trkpt>
      <trkpt lat="42.77913" lon="0.12507">
        <ele>2313.9</ele>
        <time>2022-03-24T10:48:55Z</time>
      </trkpt>
      <trkpt lat="42.77913" lon="0.12496">
        <ele>2317.8</ele>
        <time>2022-03-24T10:49:18Z</time>
      </trkpt>
      <trkpt lat="42.77912" lon="0.12493">
        <ele>2319.2</ele>
        <time>2022-03-24T10:49:22Z</time>
      </trkpt>
      <trkpt lat="42.77912" lon="0.1249">
        <ele>2320.3</ele>
        <time>2022-03-24T10:49:26Z</time>
      </trkpt>
      <trkpt lat="42.77914" lon="0.12489">
        <ele>2320</ele>
        <time>2022-03-24T10:49:32Z</time>
      </trkpt>
      <trkpt lat="42.77915" lon="0.1248">
        <ele>2322.8</ele>
        <time>2022-03-24T10:49:46Z</time>
      </trkpt>
      <trkpt lat="42.77914" lon="0.12478">
        <ele>2324</ele>
        <time>2022-03-24T10:49:51Z</time>
      </trkpt>
      <trkpt lat="42.77913" lon="0.12477">
        <ele>2324.7</ele>
        <time>2022-03-24T10:49:54Z</time>
      </trkpt>
      <trkpt lat="42.77912" lon="0.12474">
        <ele>2326.2</ele>
        <time>2022-03-24T10:50:07Z</time>
      </trkpt>
      <trkpt lat="42.7791" lon="0.12473">
        <ele>2327.4</ele>
        <time>2022-03-24T10:50:10Z</time>
      </trkpt>
      <trkpt lat="42.7791" lon="0.12471">
        <ele>2327.9</ele>
        <time>2022-03-24T10:50:14Z</time>
      </trkpt>
      <trkpt lat="42.77909" lon="0.1247">
        <ele>2328.6</ele>
        <time>2022-03-24T10:50:20Z</time>
      </trkpt>
      <trkpt lat="42.77906" lon="0.12468">
        <ele>2330.3</ele>
        <time>2022-03-24T10:50:27Z</time>
      </trkpt>
      <trkpt lat="42.77904" lon="0.12468">
        <ele>2331.1</ele>
        <time>2022-03-24T10:50:32Z</time>
      </trkpt>
      <trkpt lat="42.77903" lon="0.12467">
        <ele>2331.7</ele>
        <time>2022-03-24T10:50:36Z</time>
      </trkpt>
      <trkpt lat="42.77901" lon="0.12464">
        <ele>2333.3</ele>
        <time>2022-03-24T10:50:42Z</time>
      </trkpt>
      <trkpt lat="42.77901" lon="0.12458">
        <ele>2334.8</ele>
        <time>2022-03-24T10:50:50Z</time>
      </trkpt>
      <trkpt lat="42.779" lon="0.12456">
        <ele>2335.7</ele>
        <time>2022-03-24T10:50:56Z</time>
      </trkpt>
      <trkpt lat="42.77901" lon="0.12453">
        <ele>2336</ele>
        <time>2022-03-24T10:51:03Z</time>
      </trkpt>
      <trkpt lat="42.77905" lon="0.12445">
        <ele>2336.5</ele>
        <time>2022-03-24T10:51:20Z</time>
      </trkpt>
      <trkpt lat="42.77907" lon="0.1244">
        <ele>2337.4</ele>
        <time>2022-03-24T10:51:35Z</time>
      </trkpt>
      <trkpt lat="42.77907" lon="0.12429">
        <ele>2341.4</ele>
        <time>2022-03-24T10:51:58Z</time>
      </trkpt>
      <trkpt lat="42.77912" lon="0.12425">
        <ele>2341.2</ele>
        <time>2022-03-24T10:52:04Z</time>
      </trkpt>
      <trkpt lat="42.77915" lon="0.1242">
        <ele>2342.2</ele>
        <time>2022-03-24T10:52:14Z</time>
      </trkpt>
      <trkpt lat="42.77917" lon="0.12418">
        <ele>2342.4</ele>
        <time>2022-03-24T10:52:18Z</time>
      </trkpt>
      <trkpt lat="42.77916" lon="0.12415">
        <ele>2343.8</ele>
        <time>2022-03-24T10:52:24Z</time>
      </trkpt>
      <trkpt lat="42.77914" lon="0.12414">
        <ele>2344.8</ele>
        <time>2022-03-24T10:52:29Z</time>
      </trkpt>
      <trkpt lat="42.77911" lon="0.12413">
        <ele>2345.9</ele>
        <time>2022-03-24T10:52:35Z</time>
      </trkpt>
      <trkpt lat="42.7791" lon="0.12412">
        <ele>2346.6</ele>
        <time>2022-03-24T10:52:38Z</time>
      </trkpt>
      <trkpt lat="42.77907" lon="0.12409">
        <ele>2348.3</ele>
        <time>2022-03-24T10:52:46Z</time>
      </trkpt>
      <trkpt lat="42.77906" lon="0.12407">
        <ele>2349.2</ele>
        <time>2022-03-24T10:52:50Z</time>
      </trkpt>
      <trkpt lat="42.77904" lon="0.12407">
        <ele>2349.7</ele>
        <time>2022-03-24T10:52:53Z</time>
      </trkpt>
      <trkpt lat="42.77902" lon="0.12407">
        <ele>2350.1</ele>
        <time>2022-03-24T10:52:55Z</time>
      </trkpt>
      <trkpt lat="42.779" lon="0.12407">
        <ele>2350.6</ele>
        <time>2022-03-24T10:53:01Z</time>
      </trkpt>
      <trkpt lat="42.77898" lon="0.12405">
        <ele>2351.6</ele>
        <time>2022-03-24T10:53:06Z</time>
      </trkpt>
      <trkpt lat="42.77897" lon="0.12402">
        <ele>2352.6</ele>
        <time>2022-03-24T10:53:12Z</time>
      </trkpt>
      <trkpt lat="42.779" lon="0.12395">
        <ele>2354</ele>
        <time>2022-03-24T10:53:23Z</time>
      </trkpt>
      <trkpt lat="42.77903" lon="0.12392">
        <ele>2354.5</ele>
        <time>2022-03-24T10:53:32Z</time>
      </trkpt>
      <trkpt lat="42.77901" lon="0.12388">
        <ele>2355.9</ele>
        <time>2022-03-24T10:53:51Z</time>
      </trkpt>
      <trkpt lat="42.77899" lon="0.12386">
        <ele>2356.7</ele>
        <time>2022-03-24T10:53:54Z</time>
      </trkpt>
      <trkpt lat="42.77899" lon="0.12384">
        <ele>2357.2</ele>
        <time>2022-03-24T10:54:05Z</time>
      </trkpt>
      <trkpt lat="42.77897" lon="0.1238">
        <ele>2358.4</ele>
        <time>2022-03-24T10:54:12Z</time>
      </trkpt>
      <trkpt lat="42.77891" lon="0.12371">
        <ele>2360.8</ele>
        <time>2022-03-24T10:54:46Z</time>
      </trkpt>
      <trkpt lat="42.7789" lon="0.12368">
        <ele>2361.5</ele>
        <time>2022-03-24T10:54:50Z</time>
      </trkpt>
      <trkpt lat="42.7789" lon="0.12363">
        <ele>2362.6</ele>
        <time>2022-03-24T10:55:00Z</time>
      </trkpt>
      <trkpt lat="42.77891" lon="0.1236">
        <ele>2363.4</ele>
        <time>2022-03-24T10:55:06Z</time>
      </trkpt>
      <trkpt lat="42.7789" lon="0.12356">
        <ele>2364.4</ele>
        <time>2022-03-24T10:55:18Z</time>
      </trkpt>
      <trkpt lat="42.7789" lon="0.12353">
        <ele>2365.1</ele>
        <time>2022-03-24T10:55:22Z</time>
      </trkpt>
      <trkpt lat="42.77888" lon="0.12349">
        <ele>2366</ele>
        <time>2022-03-24T10:55:35Z</time>
      </trkpt>
      <trkpt lat="42.77888" lon="0.12346">
        <ele>2366.8</ele>
        <time>2022-03-24T10:55:43Z</time>
      </trkpt>
      <trkpt lat="42.77887" lon="0.12344">
        <ele>2367.2</ele>
        <time>2022-03-24T10:55:46Z</time>
      </trkpt>
      <trkpt lat="42.77884" lon="0.12335">
        <ele>2369.1</ele>
        <time>2022-03-24T10:56:07Z</time>
      </trkpt>
      <trkpt lat="42.77879" lon="0.12331">
        <ele>2369.5</ele>
        <time>2022-03-24T10:56:22Z</time>
      </trkpt>
      <trkpt lat="42.77877" lon="0.1233">
        <ele>2369.4</ele>
        <time>2022-03-24T10:56:27Z</time>
      </trkpt>
      <trkpt lat="42.77875" lon="0.1233">
        <ele>2369.2</ele>
        <time>2022-03-24T10:56:30Z</time>
      </trkpt>
      <trkpt lat="42.77873" lon="0.12329">
        <ele>2369.1</ele>
        <time>2022-03-24T10:56:33Z</time>
      </trkpt>
      <trkpt lat="42.77873" lon="0.12322">
        <ele>2370.4</ele>
        <time>2022-03-24T10:57:05Z</time>
      </trkpt>
      <trkpt lat="42.77877" lon="0.12316">
        <ele>2372.4</ele>
        <time>2022-03-24T10:57:18Z</time>
      </trkpt>
      <trkpt lat="42.77879" lon="0.12315">
        <ele>2373</ele>
        <time>2022-03-24T10:57:23Z</time>
      </trkpt>
      <trkpt lat="42.77879" lon="0.12311">
        <ele>2373.9</ele>
        <time>2022-03-24T10:57:34Z</time>
      </trkpt>
      <trkpt lat="42.77874" lon="0.12304">
        <ele>2374.2</ele>
        <time>2022-03-24T10:57:53Z</time>
      </trkpt>
      <trkpt lat="42.77878" lon="0.12292">
        <ele>2379.6</ele>
        <time>2022-03-24T10:58:34Z</time>
      </trkpt>
      <trkpt lat="42.77876" lon="0.12286">
        <ele>2381</ele>
        <time>2022-03-24T10:58:50Z</time>
      </trkpt>
      <trkpt lat="42.77874" lon="0.12277">
        <ele>2383.5</ele>
        <time>2022-03-24T10:59:09Z</time>
      </trkpt>
      <trkpt lat="42.77872" lon="0.12275">
        <ele>2383.6</ele>
        <time>2022-03-24T10:59:12Z</time>
      </trkpt>
      <trkpt lat="42.7787" lon="0.12273">
        <ele>2383.8</ele>
        <time>2022-03-24T10:59:16Z</time>
      </trkpt>
      <trkpt lat="42.77868" lon="0.12271">
        <ele>2384</ele>
        <time>2022-03-24T10:59:25Z</time>
      </trkpt>
      <trkpt lat="42.77858" lon="0.12264">
        <ele>2385.3</ele>
        <time>2022-03-24T10:59:52Z</time>
      </trkpt>
      <trkpt lat="42.77856" lon="0.12263">
        <ele>2385.9</ele>
        <time>2022-03-24T10:59:57Z</time>
      </trkpt>
      <trkpt lat="42.77854" lon="0.12262">
        <ele>2386.6</ele>
        <time>2022-03-24T11:00:03Z</time>
      </trkpt>
      <trkpt lat="42.77853" lon="0.12261">
        <ele>2387.1</ele>
        <time>2022-03-24T11:00:08Z</time>
      </trkpt>
      <trkpt lat="42.77851" lon="0.12259">
        <ele>2388.2</ele>
        <time>2022-03-24T11:00:12Z</time>
      </trkpt>
      <trkpt lat="42.77849" lon="0.12258">
        <ele>2388.9</ele>
        <time>2022-03-24T11:00:15Z</time>
      </trkpt>
      <trkpt lat="42.77848" lon="0.12259">
        <ele>2388.5</ele>
        <time>2022-03-24T11:00:19Z</time>
      </trkpt>
      <trkpt lat="42.77846" lon="0.12258">
        <ele>2389.2</ele>
        <time>2022-03-24T11:00:24Z</time>
      </trkpt>
      <trkpt lat="42.77846" lon="0.12252">
        <ele>2391.8</ele>
        <time>2022-03-24T11:00:38Z</time>
      </trkpt>
      <trkpt lat="42.77847" lon="0.1225">
        <ele>2392.5</ele>
        <time>2022-03-24T11:00:44Z</time>
      </trkpt>
      <trkpt lat="42.77847" lon="0.12245">
        <ele>2394.8</ele>
        <time>2022-03-24T11:00:55Z</time>
      </trkpt>
      <trkpt lat="42.77849" lon="0.12242">
        <ele>2395.9</ele>
        <time>2022-03-24T11:01:02Z</time>
      </trkpt>
      <trkpt lat="42.77854" lon="0.12234">
        <ele>2399.1</ele>
        <time>2022-03-24T11:01:27Z</time>
      </trkpt>
      <trkpt lat="42.77855" lon="0.12231">
        <ele>2400.4</ele>
        <time>2022-03-24T11:01:31Z</time>
      </trkpt>
      <trkpt lat="42.77856" lon="0.12229">
        <ele>2401.2</ele>
        <time>2022-03-24T11:01:38Z</time>
      </trkpt>
      <trkpt lat="42.77858" lon="0.12228">
        <ele>2401.5</ele>
        <time>2022-03-24T11:01:47Z</time>
      </trkpt>
      <trkpt lat="42.77859" lon="0.12226">
        <ele>2402.4</ele>
        <time>2022-03-24T11:01:58Z</time>
      </trkpt>
      <trkpt lat="42.77862" lon="0.12226">
        <ele>2402.4</ele>
        <time>2022-03-24T11:02:04Z</time>
      </trkpt>
      <trkpt lat="42.77864" lon="0.12224">
        <ele>2403.8</ele>
        <time>2022-03-24T11:02:11Z</time>
      </trkpt>
      <trkpt lat="42.77866" lon="0.12224">
        <ele>2404.2</ele>
        <time>2022-03-24T11:02:16Z</time>
      </trkpt>
      <trkpt lat="42.7787" lon="0.12223">
        <ele>2405.6</ele>
        <time>2022-03-24T11:02:30Z</time>
      </trkpt>
      <trkpt lat="42.77868" lon="0.1222">
        <ele>2406.7</ele>
        <time>2022-03-24T11:03:03Z</time>
      </trkpt>
      <trkpt lat="42.77862" lon="0.12217">
        <ele>2407.2</ele>
        <time>2022-03-24T11:03:26Z</time>
      </trkpt>
      <trkpt lat="42.77863" lon="0.12215">
        <ele>2408.5</ele>
        <time>2022-03-24T11:03:43Z</time>
      </trkpt>
      <trkpt lat="42.77867" lon="0.12212">
        <ele>2410.8</ele>
        <time>2022-03-24T11:03:59Z</time>
      </trkpt>
      <trkpt lat="42.77869" lon="0.12212">
        <ele>2411.2</ele>
        <time>2022-03-24T11:04:03Z</time>
      </trkpt>
      <trkpt lat="42.7787" lon="0.12214">
        <ele>2410.3</ele>
        <time>2022-03-24T11:04:06Z</time>
      </trkpt>
      <trkpt lat="42.77872" lon="0.12211">
        <ele>2412.2</ele>
        <time>2022-03-24T11:04:14Z</time>
      </trkpt>
      <trkpt lat="42.77874" lon="0.12209">
        <ele>2413.5</ele>
        <time>2022-03-24T11:04:20Z</time>
      </trkpt>
      <trkpt lat="42.7788" lon="0.12212">
        <ele>2413</ele>
        <time>2022-03-24T11:04:31Z</time>
      </trkpt>
      <trkpt lat="42.77889" lon="0.12217">
        <ele>2412.3</ele>
        <time>2022-03-24T11:05:02Z</time>
      </trkpt>
      <trkpt lat="42.77893" lon="0.12218">
        <ele>2413.4</ele>
        <time>2022-03-24T11:05:15Z</time>
      </trkpt>
      <trkpt lat="42.77892" lon="0.12213">
        <ele>2415.1</ele>
        <time>2022-03-24T11:05:28Z</time>
      </trkpt>
      <trkpt lat="42.7789" lon="0.12212">
        <ele>2414.8</ele>
        <time>2022-03-24T11:05:31Z</time>
      </trkpt>
      <trkpt lat="42.77888" lon="0.12211">
        <ele>2414.7</ele>
        <time>2022-03-24T11:05:36Z</time>
      </trkpt>
      <trkpt lat="42.77888" lon="0.12208">
        <ele>2416</ele>
        <time>2022-03-24T11:05:41Z</time>
      </trkpt>
      <trkpt lat="42.77887" lon="0.12205">
        <ele>2417.2</ele>
        <time>2022-03-24T11:06:05Z</time>
      </trkpt>
      <trkpt lat="42.77888" lon="0.12202">
        <ele>2418.6</ele>
        <time>2022-03-24T11:06:17Z</time>
      </trkpt>
      <trkpt lat="42.77886" lon="0.122">
        <ele>2419.3</ele>
        <time>2022-03-24T11:06:20Z</time>
      </trkpt>
      <trkpt lat="42.77885" lon="0.12198">
        <ele>2420.1</ele>
        <time>2022-03-24T11:06:24Z</time>
      </trkpt>
      <trkpt lat="42.77883" lon="0.12198">
        <ele>2419.9</ele>
        <time>2022-03-24T11:06:28Z</time>
      </trkpt>
      <trkpt lat="42.77882" lon="0.12195">
        <ele>2421.2</ele>
        <time>2022-03-24T11:06:34Z</time>
      </trkpt>
      <trkpt lat="42.77883" lon="0.12193">
        <ele>2422.1</ele>
        <time>2022-03-24T11:06:47Z</time>
      </trkpt>
      <trkpt lat="42.77882" lon="0.1219">
        <ele>2423</ele>
        <time>2022-03-24T11:06:53Z</time>
      </trkpt>
      <trkpt lat="42.77881" lon="0.12177">
        <ele>2427.5</ele>
        <time>2022-03-24T11:07:23Z</time>
      </trkpt>
      <trkpt lat="42.7788" lon="0.12172">
        <ele>2429.4</ele>
        <time>2022-03-24T11:07:29Z</time>
      </trkpt>
      <trkpt lat="42.77877" lon="0.12167">
        <ele>2431.6</ele>
        <time>2022-03-24T11:07:37Z</time>
      </trkpt>
      <trkpt lat="42.77877" lon="0.12164">
        <ele>2432.5</ele>
        <time>2022-03-24T11:07:40Z</time>
      </trkpt>
      <trkpt lat="42.77878" lon="0.12161">
        <ele>2433.2</ele>
        <time>2022-03-24T11:07:45Z</time>
      </trkpt>
      <trkpt lat="42.77878" lon="0.12159">
        <ele>2433.7</ele>
        <time>2022-03-24T11:07:49Z</time>
      </trkpt>
      <trkpt lat="42.7788" lon="0.12157">
        <ele>2433.9</ele>
        <time>2022-03-24T11:07:54Z</time>
      </trkpt>
      <trkpt lat="42.77881" lon="0.12151">
        <ele>2435.4</ele>
        <time>2022-03-24T11:08:09Z</time>
      </trkpt>
      <trkpt lat="42.77883" lon="0.12144">
        <ele>2436.9</ele>
        <time>2022-03-24T11:08:28Z</time>
      </trkpt>
      <trkpt lat="42.77885" lon="0.12142">
        <ele>2437</ele>
        <time>2022-03-24T11:08:32Z</time>
      </trkpt>
      <trkpt lat="42.77886" lon="0.12139">
        <ele>2437.6</ele>
        <time>2022-03-24T11:08:37Z</time>
      </trkpt>
      <trkpt lat="42.77879" lon="0.12135">
        <ele>2439.9</ele>
        <time>2022-03-24T11:08:46Z</time>
      </trkpt>
      <trkpt lat="42.77877" lon="0.12133">
        <ele>2440.5</ele>
        <time>2022-03-24T11:08:54Z</time>
      </trkpt>
      <trkpt lat="42.77877" lon="0.1213">
        <ele>2441</ele>
        <time>2022-03-24T11:08:58Z</time>
      </trkpt>
      <trkpt lat="42.77878" lon="0.12127">
        <ele>2441.4</ele>
        <time>2022-03-24T11:09:05Z</time>
      </trkpt>
      <trkpt lat="42.77878" lon="0.12124">
        <ele>2442</ele>
        <time>2022-03-24T11:09:12Z</time>
      </trkpt>
      <trkpt lat="42.77873" lon="0.1212">
        <ele>2442.8</ele>
        <time>2022-03-24T11:09:22Z</time>
      </trkpt>
      <trkpt lat="42.77872" lon="0.12117">
        <ele>2443.1</ele>
        <time>2022-03-24T11:09:27Z</time>
      </trkpt>
      <trkpt lat="42.77871" lon="0.12115">
        <ele>2443.3</ele>
        <time>2022-03-24T11:09:32Z</time>
      </trkpt>
      <trkpt lat="42.77871" lon="0.1211">
        <ele>2444</ele>
        <time>2022-03-24T11:09:45Z</time>
      </trkpt>
      <trkpt lat="42.77869" lon="0.12107">
        <ele>2444.7</ele>
        <time>2022-03-24T11:09:49Z</time>
      </trkpt>
      <trkpt lat="42.77868" lon="0.12105">
        <ele>2445.1</ele>
        <time>2022-03-24T11:09:52Z</time>
      </trkpt>
      <trkpt lat="42.77866" lon="0.12103">
        <ele>2445.4</ele>
        <time>2022-03-24T11:10:00Z</time>
      </trkpt>
      <trkpt lat="42.77861" lon="0.121">
        <ele>2445.4</ele>
        <time>2022-03-24T11:10:11Z</time>
      </trkpt>
      <trkpt lat="42.77858" lon="0.12097">
        <ele>2445.9</ele>
        <time>2022-03-24T11:10:19Z</time>
      </trkpt>
      <trkpt lat="42.77856" lon="0.12095">
        <ele>2446.2</ele>
        <time>2022-03-24T11:10:23Z</time>
      </trkpt>
      <trkpt lat="42.77856" lon="0.12093">
        <ele>2446.6</ele>
        <time>2022-03-24T11:10:28Z</time>
      </trkpt>
      <trkpt lat="42.77854" lon="0.1209">
        <ele>2447</ele>
        <time>2022-03-24T11:10:39Z</time>
      </trkpt>
      <trkpt lat="42.77853" lon="0.12088">
        <ele>2447.3</ele>
        <time>2022-03-24T11:10:45Z</time>
      </trkpt>
      <trkpt lat="42.77847" lon="0.12077">
        <ele>2450</ele>
        <time>2022-03-24T11:11:13Z</time>
      </trkpt>
      <trkpt lat="42.77843" lon="0.12065">
        <ele>2454.1</ele>
        <time>2022-03-24T11:11:44Z</time>
      </trkpt>
      <trkpt lat="42.7784" lon="0.12053">
        <ele>2458.1</ele>
        <time>2022-03-24T11:12:14Z</time>
      </trkpt>
      <trkpt lat="42.77838" lon="0.12042">
        <ele>2461.8</ele>
        <time>2022-03-24T11:12:38Z</time>
      </trkpt>
      <trkpt lat="42.77836" lon="0.1204">
        <ele>2462.1</ele>
        <time>2022-03-24T11:12:41Z</time>
      </trkpt>
      <trkpt lat="42.7783" lon="0.12033">
        <ele>2462.9</ele>
        <time>2022-03-24T11:13:30Z</time>
      </trkpt>
      <trkpt lat="42.77827" lon="0.12021">
        <ele>2466.4</ele>
        <time>2022-03-24T11:14:01Z</time>
      </trkpt>
      <trkpt lat="42.77826" lon="0.12017">
        <ele>2467.6</ele>
        <time>2022-03-24T11:14:11Z</time>
      </trkpt>
      <trkpt lat="42.77827" lon="0.12015">
        <ele>2468.8</ele>
        <time>2022-03-24T11:14:14Z</time>
      </trkpt>
      <trkpt lat="42.77829" lon="0.12013">
        <ele>2470.5</ele>
        <time>2022-03-24T11:14:18Z</time>
      </trkpt>
      <trkpt lat="42.7783" lon="0.1201">
        <ele>2472.2</ele>
        <time>2022-03-24T11:14:22Z</time>
      </trkpt>
      <trkpt lat="42.77832" lon="0.12002">
        <ele>2476.5</ele>
        <time>2022-03-24T11:14:45Z</time>
      </trkpt>
      <trkpt lat="42.77831" lon="0.11999">
        <ele>2477.1</ele>
        <time>2022-03-24T11:14:48Z</time>
      </trkpt>
      <trkpt lat="42.77831" lon="0.11997">
        <ele>2477.6</ele>
        <time>2022-03-24T11:14:52Z</time>
      </trkpt>
      <trkpt lat="42.77831" lon="0.11994">
        <ele>2478.3</ele>
        <time>2022-03-24T11:14:57Z</time>
      </trkpt>
      <trkpt lat="42.77829" lon="0.11992">
        <ele>2477.8</ele>
        <time>2022-03-24T11:15:01Z</time>
      </trkpt>
      <trkpt lat="42.77825" lon="0.11983">
        <ele>2478.1</ele>
        <time>2022-03-24T11:15:14Z</time>
      </trkpt>
      <trkpt lat="42.77824" lon="0.11977">
        <ele>2479.1</ele>
        <time>2022-03-24T11:15:20Z</time>
      </trkpt>
      <trkpt lat="42.77826" lon="0.11975">
        <ele>2480.6</ele>
        <time>2022-03-24T11:15:23Z</time>
      </trkpt>
      <trkpt lat="42.77826" lon="0.11965">
        <ele>2482.9</ele>
        <time>2022-03-24T11:15:35Z</time>
      </trkpt>
      <trkpt lat="42.77825" lon="0.11957">
        <ele>2484.2</ele>
        <time>2022-03-24T11:15:50Z</time>
      </trkpt>
      <trkpt lat="42.77823" lon="0.11951">
        <ele>2484.7</ele>
        <time>2022-03-24T11:15:58Z</time>
      </trkpt>
      <trkpt lat="42.77824" lon="0.11948">
        <ele>2485.8</ele>
        <time>2022-03-24T11:16:02Z</time>
      </trkpt>
      <trkpt lat="42.77825" lon="0.11946">
        <ele>2486.7</ele>
        <time>2022-03-24T11:16:08Z</time>
      </trkpt>
      <trkpt lat="42.77822" lon="0.11946">
        <ele>2485.5</ele>
        <time>2022-03-24T11:16:23Z</time>
      </trkpt>
      <trkpt lat="42.77823" lon="0.1195">
        <ele>2485</ele>
        <time>2022-03-24T11:16:29Z</time>
      </trkpt>
      <trkpt lat="42.77823" lon="0.11949">
        <ele>2485.2</ele>
        <time>2022-03-24T11:17:00Z</time>
      </trkpt>
      <trkpt lat="42.77823" lon="0.11947">
        <ele>2485.7</ele>
        <time>2022-03-24T11:17:14Z</time>
      </trkpt>
      <trkpt lat="42.7782" lon="0.11948">
        <ele>2484.3</ele>
        <time>2022-03-24T11:22:04Z</time>
      </trkpt>
      <trkpt lat="42.77826" lon="0.11931">
        <ele>2488.6</ele>
        <time>2022-03-24T11:22:34Z</time>
      </trkpt>
      <trkpt lat="42.77828" lon="0.11923">
        <ele>2489.9</ele>
        <time>2022-03-24T11:22:49Z</time>
      </trkpt>
      <trkpt lat="42.77828" lon="0.1192">
        <ele>2490.2</ele>
        <time>2022-03-24T11:22:56Z</time>
      </trkpt>
      <trkpt lat="42.77828" lon="0.11901">
        <ele>2493.7</ele>
        <time>2022-03-24T11:23:23Z</time>
      </trkpt>
      <trkpt lat="42.7783" lon="0.11895">
        <ele>2495.6</ele>
        <time>2022-03-24T11:23:33Z</time>
      </trkpt>
      <trkpt lat="42.77832" lon="0.11891">
        <ele>2497.1</ele>
        <time>2022-03-24T11:23:42Z</time>
      </trkpt>
      <trkpt lat="42.77831" lon="0.11888">
        <ele>2497.4</ele>
        <time>2022-03-24T11:23:47Z</time>
      </trkpt>
      <trkpt lat="42.77831" lon="0.11886">
        <ele>2497.7</ele>
        <time>2022-03-24T11:23:50Z</time>
      </trkpt>
      <trkpt lat="42.77832" lon="0.11883">
        <ele>2498.4</ele>
        <time>2022-03-24T11:23:54Z</time>
      </trkpt>
      <trkpt lat="42.77832" lon="0.1188">
        <ele>2498.8</ele>
        <time>2022-03-24T11:24:01Z</time>
      </trkpt>
      <trkpt lat="42.77834" lon="0.11878">
        <ele>2499.8</ele>
        <time>2022-03-24T11:24:06Z</time>
      </trkpt>
      <trkpt lat="42.77834" lon="0.11875">
        <ele>2500.3</ele>
        <time>2022-03-24T11:24:12Z</time>
      </trkpt>
      <trkpt lat="42.77832" lon="0.11874">
        <ele>2499.7</ele>
        <time>2022-03-24T11:24:17Z</time>
      </trkpt>
      <trkpt lat="42.77832" lon="0.11871">
        <ele>2500.1</ele>
        <time>2022-03-24T11:24:21Z</time>
      </trkpt>
      <trkpt lat="42.77833" lon="0.11868">
        <ele>2500.9</ele>
        <time>2022-03-24T11:24:25Z</time>
      </trkpt>
      <trkpt lat="42.77835" lon="0.11863">
        <ele>2502.4</ele>
        <time>2022-03-24T11:24:37Z</time>
      </trkpt>
      <trkpt lat="42.77839" lon="0.1186">
        <ele>2504.5</ele>
        <time>2022-03-24T11:24:43Z</time>
      </trkpt>
      <trkpt lat="42.7784" lon="0.11857">
        <ele>2505.5</ele>
        <time>2022-03-24T11:24:47Z</time>
      </trkpt>
      <trkpt lat="42.7784" lon="0.11846">
        <ele>2507.9</ele>
        <time>2022-03-24T11:25:04Z</time>
      </trkpt>
      <trkpt lat="42.77839" lon="0.11844">
        <ele>2507.9</ele>
        <time>2022-03-24T11:25:08Z</time>
      </trkpt>
      <trkpt lat="42.77838" lon="0.11841">
        <ele>2508.2</ele>
        <time>2022-03-24T11:25:13Z</time>
      </trkpt>
      <trkpt lat="42.7784" lon="0.11839">
        <ele>2509.4</ele>
        <time>2022-03-24T11:25:18Z</time>
      </trkpt>
      <trkpt lat="42.7784" lon="0.11836">
        <ele>2510.1</ele>
        <time>2022-03-24T11:25:26Z</time>
      </trkpt>
      <trkpt lat="42.7784" lon="0.11834">
        <ele>2510.5</ele>
        <time>2022-03-24T11:25:30Z</time>
      </trkpt>
      <trkpt lat="42.77841" lon="0.11832">
        <ele>2511.4</ele>
        <time>2022-03-24T11:25:33Z</time>
      </trkpt>
      <trkpt lat="42.77842" lon="0.11827">
        <ele>2513</ele>
        <time>2022-03-24T11:25:43Z</time>
      </trkpt>
      <trkpt lat="42.77842" lon="0.11824">
        <ele>2513.8</ele>
        <time>2022-03-24T11:25:48Z</time>
      </trkpt>
      <trkpt lat="42.77841" lon="0.11822">
        <ele>2513.9</ele>
        <time>2022-03-24T11:25:55Z</time>
      </trkpt>
      <trkpt lat="42.77841" lon="0.11819">
        <ele>2514.6</ele>
        <time>2022-03-24T11:26:00Z</time>
      </trkpt>
      <trkpt lat="42.77841" lon="0.11816">
        <ele>2515.4</ele>
        <time>2022-03-24T11:26:04Z</time>
      </trkpt>
      <trkpt lat="42.7784" lon="0.11815">
        <ele>2515.3</ele>
        <time>2022-03-24T11:26:09Z</time>
      </trkpt>
      <trkpt lat="42.77838" lon="0.11813">
        <ele>2515</ele>
        <time>2022-03-24T11:26:15Z</time>
      </trkpt>
      <trkpt lat="42.77838" lon="0.1181">
        <ele>2515.7</ele>
        <time>2022-03-24T11:26:21Z</time>
      </trkpt>
      <trkpt lat="42.77838" lon="0.11806">
        <ele>2516.7</ele>
        <time>2022-03-24T11:26:28Z</time>
      </trkpt>
      <trkpt lat="42.77838" lon="0.11801">
        <ele>2518.2</ele>
        <time>2022-03-24T11:26:38Z</time>
      </trkpt>
      <trkpt lat="42.77838" lon="0.11799">
        <ele>2518.7</ele>
        <time>2022-03-24T11:26:43Z</time>
      </trkpt>
      <trkpt lat="42.77837" lon="0.11796">
        <ele>2519.2</ele>
        <time>2022-03-24T11:26:48Z</time>
      </trkpt>
      <trkpt lat="42.77837" lon="0.11794">
        <ele>2519.8</ele>
        <time>2022-03-24T11:26:51Z</time>
      </trkpt>
      <trkpt lat="42.77837" lon="0.11789">
        <ele>2521.2</ele>
        <time>2022-03-24T11:27:00Z</time>
      </trkpt>
      <trkpt lat="42.77834" lon="0.11783">
        <ele>2521.8</ele>
        <time>2022-03-24T11:27:08Z</time>
      </trkpt>
      <trkpt lat="42.77835" lon="0.11778">
        <ele>2523.6</ele>
        <time>2022-03-24T11:27:16Z</time>
      </trkpt>
      <trkpt lat="42.77836" lon="0.11775">
        <ele>2524.9</ele>
        <time>2022-03-24T11:27:21Z</time>
      </trkpt>
      <trkpt lat="42.77835" lon="0.11762">
        <ele>2528.7</ele>
        <time>2022-03-24T11:27:51Z</time>
      </trkpt>
      <trkpt lat="42.77832" lon="0.11754">
        <ele>2530.3</ele>
        <time>2022-03-24T11:28:04Z</time>
      </trkpt>
      <trkpt lat="42.77833" lon="0.11752">
        <ele>2531.3</ele>
        <time>2022-03-24T11:28:10Z</time>
      </trkpt>
      <trkpt lat="42.77835" lon="0.11749">
        <ele>2532.9</ele>
        <time>2022-03-24T11:28:13Z</time>
      </trkpt>
      <trkpt lat="42.77837" lon="0.11747">
        <ele>2534.3</ele>
        <time>2022-03-24T11:28:17Z</time>
      </trkpt>
      <trkpt lat="42.77837" lon="0.11745">
        <ele>2534.9</ele>
        <time>2022-03-24T11:28:21Z</time>
      </trkpt>
      <trkpt lat="42.77837" lon="0.11742">
        <ele>2535.9</ele>
        <time>2022-03-24T11:28:26Z</time>
      </trkpt>
      <trkpt lat="42.77836" lon="0.11739">
        <ele>2536.5</ele>
        <time>2022-03-24T11:28:29Z</time>
      </trkpt>
      <trkpt lat="42.77836" lon="0.11737">
        <ele>2537.1</ele>
        <time>2022-03-24T11:28:33Z</time>
      </trkpt>
      <trkpt lat="42.77834" lon="0.11736">
        <ele>2536.8</ele>
        <time>2022-03-24T11:28:37Z</time>
      </trkpt>
      <trkpt lat="42.77833" lon="0.11733">
        <ele>2537.4</ele>
        <time>2022-03-24T11:28:41Z</time>
      </trkpt>
      <trkpt lat="42.77831" lon="0.11732">
        <ele>2537.3</ele>
        <time>2022-03-24T11:28:46Z</time>
      </trkpt>
      <trkpt lat="42.77832" lon="0.11726">
        <ele>2539.5</ele>
        <time>2022-03-24T11:28:58Z</time>
      </trkpt>
      <trkpt lat="42.77832" lon="0.11724">
        <ele>2540.1</ele>
        <time>2022-03-24T11:29:02Z</time>
      </trkpt>
      <trkpt lat="42.77832" lon="0.11721">
        <ele>2541.1</ele>
        <time>2022-03-24T11:29:07Z</time>
      </trkpt>
      <trkpt lat="42.7783" lon="0.11719">
        <ele>2541.2</ele>
        <time>2022-03-24T11:29:11Z</time>
      </trkpt>
      <trkpt lat="42.77826" lon="0.11713">
        <ele>2542.3</ele>
        <time>2022-03-24T11:29:25Z</time>
      </trkpt>
      <trkpt lat="42.77824" lon="0.11711">
        <ele>2542.6</ele>
        <time>2022-03-24T11:29:31Z</time>
      </trkpt>
      <trkpt lat="42.77822" lon="0.11704">
        <ele>2544.6</ele>
        <time>2022-03-24T11:29:51Z</time>
      </trkpt>
      <trkpt lat="42.7782" lon="0.11703">
        <ele>2544.7</ele>
        <time>2022-03-24T11:29:55Z</time>
      </trkpt>
      <trkpt lat="42.77819" lon="0.11696">
        <ele>2546.9</ele>
        <time>2022-03-24T11:30:11Z</time>
      </trkpt>
      <trkpt lat="42.77819" lon="0.11694">
        <ele>2547.6</ele>
        <time>2022-03-24T11:30:15Z</time>
      </trkpt>
      <trkpt lat="42.77815" lon="0.11689">
        <ele>2548.4</ele>
        <time>2022-03-24T11:30:29Z</time>
      </trkpt>
      <trkpt lat="42.77814" lon="0.11685">
        <ele>2549.3</ele>
        <time>2022-03-24T11:30:38Z</time>
      </trkpt>
      <trkpt lat="42.77813" lon="0.11683">
        <ele>2549.6</ele>
        <time>2022-03-24T11:30:42Z</time>
      </trkpt>
      <trkpt lat="42.77813" lon="0.11681">
        <ele>2550.1</ele>
        <time>2022-03-24T11:30:52Z</time>
      </trkpt>
      <trkpt lat="42.77811" lon="0.11673">
        <ele>2551.7</ele>
        <time>2022-03-24T11:31:04Z</time>
      </trkpt>
      <trkpt lat="42.7781" lon="0.11671">
        <ele>2551.9</ele>
        <time>2022-03-24T11:31:09Z</time>
      </trkpt>
      <trkpt lat="42.7781" lon="0.11668">
        <ele>2552.6</ele>
        <time>2022-03-24T11:31:14Z</time>
      </trkpt>
      <trkpt lat="42.7781" lon="0.11666">
        <ele>2553.1</ele>
        <time>2022-03-24T11:31:19Z</time>
      </trkpt>
      <trkpt lat="42.77809" lon="0.11662">
        <ele>2553.9</ele>
        <time>2022-03-24T11:31:23Z</time>
      </trkpt>
      <trkpt lat="42.77807" lon="0.11658">
        <ele>2554.5</ele>
        <time>2022-03-24T11:31:34Z</time>
      </trkpt>
      <trkpt lat="42.77805" lon="0.11656">
        <ele>2554.6</ele>
        <time>2022-03-24T11:31:38Z</time>
      </trkpt>
      <trkpt lat="42.77805" lon="0.11653">
        <ele>2555.4</ele>
        <time>2022-03-24T11:31:44Z</time>
      </trkpt>
      <trkpt lat="42.77804" lon="0.11651">
        <ele>2555.8</ele>
        <time>2022-03-24T11:31:48Z</time>
      </trkpt>
      <trkpt lat="42.77803" lon="0.11649">
        <ele>2556.2</ele>
        <time>2022-03-24T11:31:52Z</time>
      </trkpt>
      <trkpt lat="42.77798" lon="0.11637">
        <ele>2558.6</ele>
        <time>2022-03-24T11:32:11Z</time>
      </trkpt>
      <trkpt lat="42.7779" lon="0.11628">
        <ele>2559.7</ele>
        <time>2022-03-24T11:32:28Z</time>
      </trkpt>
      <trkpt lat="42.77789" lon="0.11626">
        <ele>2560.1</ele>
        <time>2022-03-24T11:32:33Z</time>
      </trkpt>
      <trkpt lat="42.77787" lon="0.11624">
        <ele>2560.4</ele>
        <time>2022-03-24T11:32:42Z</time>
      </trkpt>
      <trkpt lat="42.77786" lon="0.11622">
        <ele>2560.8</ele>
        <time>2022-03-24T11:32:47Z</time>
      </trkpt>
      <trkpt lat="42.77786" lon="0.11615">
        <ele>2562.4</ele>
        <time>2022-03-24T11:32:55Z</time>
      </trkpt>
      <trkpt lat="42.77787" lon="0.11609">
        <ele>2564</ele>
        <time>2022-03-24T11:33:06Z</time>
      </trkpt>
      <trkpt lat="42.77791" lon="0.11598">
        <ele>2567.3</ele>
        <time>2022-03-24T11:33:35Z</time>
      </trkpt>
      <trkpt lat="42.77793" lon="0.11596">
        <ele>2567.8</ele>
        <time>2022-03-24T11:33:42Z</time>
      </trkpt>
      <trkpt lat="42.77802" lon="0.11585">
        <ele>2570.7</ele>
        <time>2022-03-24T11:34:15Z</time>
      </trkpt>
      <trkpt lat="42.77813" lon="0.1158">
        <ele>2573.5</ele>
        <time>2022-03-24T11:34:45Z</time>
      </trkpt>
      <trkpt lat="42.77818" lon="0.1158">
        <ele>2574.5</ele>
        <time>2022-03-24T11:34:56Z</time>
      </trkpt>
      <trkpt lat="42.77819" lon="0.11574">
        <ele>2576.3</ele>
        <time>2022-03-24T11:35:12Z</time>
      </trkpt>
      <trkpt lat="42.77825" lon="0.11571">
        <ele>2578.1</ele>
        <time>2022-03-24T11:35:25Z</time>
      </trkpt>
      <trkpt lat="42.77825" lon="0.11565">
        <ele>2579.6</ele>
        <time>2022-03-24T11:35:41Z</time>
      </trkpt>
      <trkpt lat="42.77831" lon="0.11561">
        <ele>2581.5</ele>
        <time>2022-03-24T11:36:06Z</time>
      </trkpt>
      <trkpt lat="42.77834" lon="0.11556">
        <ele>2583.1</ele>
        <time>2022-03-24T11:36:19Z</time>
      </trkpt>
      <trkpt lat="42.77833" lon="0.11552">
        <ele>2583.6</ele>
        <time>2022-03-24T11:36:24Z</time>
      </trkpt>
      <trkpt lat="42.77837" lon="0.11545">
        <ele>2586.1</ele>
        <time>2022-03-24T11:36:45Z</time>
      </trkpt>
      <trkpt lat="42.77838" lon="0.11541">
        <ele>2587.2</ele>
        <time>2022-03-24T11:36:57Z</time>
      </trkpt>
      <trkpt lat="42.7784" lon="0.11535">
        <ele>2589</ele>
        <time>2022-03-24T11:37:08Z</time>
      </trkpt>
      <trkpt lat="42.77842" lon="0.1153">
        <ele>2590.7</ele>
        <time>2022-03-24T11:37:18Z</time>
      </trkpt>
      <trkpt lat="42.77842" lon="0.11528">
        <ele>2591.1</ele>
        <time>2022-03-24T11:37:25Z</time>
      </trkpt>
      <trkpt lat="42.77843" lon="0.11525">
        <ele>2592</ele>
        <time>2022-03-24T11:37:38Z</time>
      </trkpt>
      <trkpt lat="42.77842" lon="0.11522">
        <ele>2592.2</ele>
        <time>2022-03-24T11:37:43Z</time>
      </trkpt>
      <trkpt lat="42.77843" lon="0.11519">
        <ele>2593.2</ele>
        <time>2022-03-24T11:37:48Z</time>
      </trkpt>
      <trkpt lat="42.77847" lon="0.11509">
        <ele>2596.6</ele>
        <time>2022-03-24T11:38:17Z</time>
      </trkpt>
      <trkpt lat="42.7785" lon="0.11506">
        <ele>2598.4</ele>
        <time>2022-03-24T11:38:32Z</time>
      </trkpt>
      <trkpt lat="42.7785" lon="0.11498">
        <ele>2600</ele>
        <time>2022-03-24T11:38:42Z</time>
      </trkpt>
      <trkpt lat="42.77849" lon="0.11496">
        <ele>2599.9</ele>
        <time>2022-03-24T11:38:47Z</time>
      </trkpt>
      <trkpt lat="42.77848" lon="0.11494">
        <ele>2599.9</ele>
        <time>2022-03-24T11:38:55Z</time>
      </trkpt>
      <trkpt lat="42.77848" lon="0.11491">
        <ele>2600.4</ele>
        <time>2022-03-24T11:39:01Z</time>
      </trkpt>
      <trkpt lat="42.77847" lon="0.11488">
        <ele>2600.6</ele>
        <time>2022-03-24T11:39:08Z</time>
      </trkpt>
      <trkpt lat="42.77847" lon="0.11484">
        <ele>2601.3</ele>
        <time>2022-03-24T11:39:14Z</time>
      </trkpt>
      <trkpt lat="42.77847" lon="0.11481">
        <ele>2601.8</ele>
        <time>2022-03-24T11:39:19Z</time>
      </trkpt>
      <trkpt lat="42.77847" lon="0.11476">
        <ele>2602.7</ele>
        <time>2022-03-24T11:39:28Z</time>
      </trkpt>
      <trkpt lat="42.77848" lon="0.11474">
        <ele>2603.5</ele>
        <time>2022-03-24T11:39:32Z</time>
      </trkpt>
      <trkpt lat="42.77847" lon="0.11469">
        <ele>2604.1</ele>
        <time>2022-03-24T11:39:40Z</time>
      </trkpt>
      <trkpt lat="42.77846" lon="0.11464">
        <ele>2604.7</ele>
        <time>2022-03-24T11:39:52Z</time>
      </trkpt>
      <trkpt lat="42.77847" lon="0.11461">
        <ele>2605.6</ele>
        <time>2022-03-24T11:39:57Z</time>
      </trkpt>
      <trkpt lat="42.77846" lon="0.11459">
        <ele>2605.7</ele>
        <time>2022-03-24T11:40:01Z</time>
      </trkpt>
      <trkpt lat="42.77844" lon="0.11457">
        <ele>2605.4</ele>
        <time>2022-03-24T11:40:07Z</time>
      </trkpt>
      <trkpt lat="42.77843" lon="0.1145">
        <ele>2606.6</ele>
        <time>2022-03-24T11:40:20Z</time>
      </trkpt>
      <trkpt lat="42.77842" lon="0.11448">
        <ele>2606.7</ele>
        <time>2022-03-24T11:40:24Z</time>
      </trkpt>
      <trkpt lat="42.77841" lon="0.11445">
        <ele>2607.1</ele>
        <time>2022-03-24T11:40:28Z</time>
      </trkpt>
      <trkpt lat="42.77839" lon="0.11444">
        <ele>2606.8</ele>
        <time>2022-03-24T11:40:32Z</time>
      </trkpt>
      <trkpt lat="42.77839" lon="0.11441">
        <ele>2607.7</ele>
        <time>2022-03-24T11:40:37Z</time>
      </trkpt>
      <trkpt lat="42.77838" lon="0.11439">
        <ele>2608.1</ele>
        <time>2022-03-24T11:40:42Z</time>
      </trkpt>
      <trkpt lat="42.77838" lon="0.11436">
        <ele>2609.1</ele>
        <time>2022-03-24T11:40:45Z</time>
      </trkpt>
      <trkpt lat="42.77837" lon="0.11435">
        <ele>2609.2</ele>
        <time>2022-03-24T11:40:48Z</time>
      </trkpt>
      <trkpt lat="42.77836" lon="0.11433">
        <ele>2609.7</ele>
        <time>2022-03-24T11:40:51Z</time>
      </trkpt>
      <trkpt lat="42.77838" lon="0.11431">
        <ele>2610.8</ele>
        <time>2022-03-24T11:41:05Z</time>
      </trkpt>
      <trkpt lat="42.77842" lon="0.1143">
        <ele>2611.9</ele>
        <time>2022-03-24T11:41:13Z</time>
      </trkpt>
      <trkpt lat="42.77843" lon="0.11427">
        <ele>2613</ele>
        <time>2022-03-24T11:41:21Z</time>
      </trkpt>
      <trkpt lat="42.77846" lon="0.11427">
        <ele>2613.5</ele>
        <time>2022-03-24T11:41:28Z</time>
      </trkpt>
      <trkpt lat="42.77848" lon="0.11423">
        <ele>2614.9</ele>
        <time>2022-03-24T11:41:38Z</time>
      </trkpt>
      <trkpt lat="42.77856" lon="0.11421">
        <ele>2616.5</ele>
        <time>2022-03-24T11:41:53Z</time>
      </trkpt>
      <trkpt lat="42.77857" lon="0.11419">
        <ele>2617.1</ele>
        <time>2022-03-24T11:41:57Z</time>
      </trkpt>
      <trkpt lat="42.77867" lon="0.11418">
        <ele>2621</ele>
        <time>2022-03-24T11:42:24Z</time>
      </trkpt>
      <trkpt lat="42.77875" lon="0.11419">
        <ele>2625.2</ele>
        <time>2022-03-24T11:42:41Z</time>
      </trkpt>
      <trkpt lat="42.77878" lon="0.1142">
        <ele>2626.7</ele>
        <time>2022-03-24T11:42:51Z</time>
      </trkpt>
      <trkpt lat="42.77881" lon="0.11424">
        <ele>2627.8</ele>
        <time>2022-03-24T11:42:59Z</time>
      </trkpt>
      <trkpt lat="42.77882" lon="0.1142">
        <ele>2628.9</ele>
        <time>2022-03-24T11:43:23Z</time>
      </trkpt>
      <trkpt lat="42.77885" lon="0.1142">
        <ele>2630.5</ele>
        <time>2022-03-24T11:43:26Z</time>
      </trkpt>
      <trkpt lat="42.77884" lon="0.11423">
        <ele>2629.6</ele>
        <time>2022-03-24T11:43:45Z</time>
      </trkpt>
      <trkpt lat="42.77882" lon="0.11423">
        <ele>2628.5</ele>
        <time>2022-03-24T11:44:02Z</time>
      </trkpt>
      <trkpt lat="42.77878" lon="0.11424">
        <ele>2626.1</ele>
        <time>2022-03-24T11:46:25Z</time>
      </trkpt>
      <trkpt lat="42.77877" lon="0.11422">
        <ele>2625.8</ele>
        <time>2022-03-24T11:47:11Z</time>
      </trkpt>
      <trkpt lat="42.77878" lon="0.11414">
        <ele>2628</ele>
        <time>2022-03-24T11:49:49Z</time>
      </trkpt>
      <trkpt lat="42.77878" lon="0.11411">
        <ele>2628.9</ele>
        <time>2022-03-24T11:49:55Z</time>
      </trkpt>
      <trkpt lat="42.7788" lon="0.11405">
        <ele>2631.8</ele>
        <time>2022-03-24T11:50:04Z</time>
      </trkpt>
      <trkpt lat="42.77878" lon="0.11403">
        <ele>2631.5</ele>
        <time>2022-03-24T11:50:09Z</time>
      </trkpt>
      <trkpt lat="42.77878" lon="0.11401">
        <ele>2632.2</ele>
        <time>2022-03-24T11:50:13Z</time>
      </trkpt>
      <trkpt lat="42.77878" lon="0.11399">
        <ele>2632.8</ele>
        <time>2022-03-24T11:50:16Z</time>
      </trkpt>
      <trkpt lat="42.77877" lon="0.11394">
        <ele>2634</ele>
        <time>2022-03-24T11:50:25Z</time>
      </trkpt>
      <trkpt lat="42.77874" lon="0.1139">
        <ele>2634.3</ele>
        <time>2022-03-24T11:50:34Z</time>
      </trkpt>
      <trkpt lat="42.77873" lon="0.11387">
        <ele>2634.9</ele>
        <time>2022-03-24T11:50:37Z</time>
      </trkpt>
      <trkpt lat="42.77873" lon="0.11385">
        <ele>2635.6</ele>
        <time>2022-03-24T11:50:41Z</time>
      </trkpt>
      <trkpt lat="42.77873" lon="0.1138">
        <ele>2637.4</ele>
        <time>2022-03-24T11:50:50Z</time>
      </trkpt>
      <trkpt lat="42.77871" lon="0.11379">
        <ele>2637.1</ele>
        <time>2022-03-24T11:50:53Z</time>
      </trkpt>
      <trkpt lat="42.7787" lon="0.11376">
        <ele>2637.9</ele>
        <time>2022-03-24T11:50:57Z</time>
      </trkpt>
      <trkpt lat="42.77869" lon="0.11375">
        <ele>2637.9</ele>
        <time>2022-03-24T11:51:01Z</time>
      </trkpt>
      <trkpt lat="42.77866" lon="0.11373">
        <ele>2637.7</ele>
        <time>2022-03-24T11:51:08Z</time>
      </trkpt>
      <trkpt lat="42.77865" lon="0.11371">
        <ele>2638.2</ele>
        <time>2022-03-24T11:51:12Z</time>
      </trkpt>
      <trkpt lat="42.77864" lon="0.1137">
        <ele>2638.3</ele>
        <time>2022-03-24T11:51:15Z</time>
      </trkpt>
      <trkpt lat="42.77865" lon="0.11368">
        <ele>2639.4</ele>
        <time>2022-03-24T11:51:23Z</time>
      </trkpt>
      <trkpt lat="42.77866" lon="0.11366">
        <ele>2640.4</ele>
        <time>2022-03-24T11:51:26Z</time>
      </trkpt>
      <trkpt lat="42.77868" lon="0.11365">
        <ele>2641.3</ele>
        <time>2022-03-24T11:51:29Z</time>
      </trkpt>
      <trkpt lat="42.7787" lon="0.11364">
        <ele>2642.2</ele>
        <time>2022-03-24T11:51:33Z</time>
      </trkpt>
      <trkpt lat="42.77873" lon="0.11362">
        <ele>2643.7</ele>
        <time>2022-03-24T11:51:41Z</time>
      </trkpt>
      <trkpt lat="42.77875" lon="0.11362">
        <ele>2644.2</ele>
        <time>2022-03-24T11:51:45Z</time>
      </trkpt>
      <trkpt lat="42.77877" lon="0.11361">
        <ele>2645.1</ele>
        <time>2022-03-24T11:51:49Z</time>
      </trkpt>
      <trkpt lat="42.77884" lon="0.1136">
        <ele>2647.2</ele>
        <time>2022-03-24T11:52:07Z</time>
      </trkpt>
      <trkpt lat="42.77886" lon="0.11361">
        <ele>2647.3</ele>
        <time>2022-03-24T11:52:11Z</time>
      </trkpt>
      <trkpt lat="42.77887" lon="0.1136">
        <ele>2648</ele>
        <time>2022-03-24T11:52:18Z</time>
      </trkpt>
      <trkpt lat="42.77891" lon="0.11363">
        <ele>2648.5</ele>
        <time>2022-03-24T11:52:27Z</time>
      </trkpt>
      <trkpt lat="42.77893" lon="0.11362">
        <ele>2649.8</ele>
        <time>2022-03-24T11:52:32Z</time>
      </trkpt>
      <trkpt lat="42.77892" lon="0.1136">
        <ele>2650</ele>
        <time>2022-03-24T11:52:38Z</time>
      </trkpt>
      <trkpt lat="42.77891" lon="0.11358">
        <ele>2650.4</ele>
        <time>2022-03-24T11:52:56Z</time>
      </trkpt>
      <trkpt lat="42.77889" lon="0.11357">
        <ele>2649.8</ele>
        <time>2022-03-24T11:52:59Z</time>
      </trkpt>
      <trkpt lat="42.77889" lon="0.11352">
        <ele>2652</ele>
        <time>2022-03-24T11:53:06Z</time>
      </trkpt>
      <trkpt lat="42.77887" lon="0.1135">
        <ele>2652.3</ele>
        <time>2022-03-24T11:53:09Z</time>
      </trkpt>
      <trkpt lat="42.77886" lon="0.11349">
        <ele>2652.5</ele>
        <time>2022-03-24T11:53:12Z</time>
      </trkpt>
      <trkpt lat="42.77883" lon="0.11346">
        <ele>2653</ele>
        <time>2022-03-24T11:53:18Z</time>
      </trkpt>
      <trkpt lat="42.77881" lon="0.11342">
        <ele>2654.3</ele>
        <time>2022-03-24T11:53:25Z</time>
      </trkpt>
      <trkpt lat="42.7788" lon="0.1134">
        <ele>2654.9</ele>
        <time>2022-03-24T11:53:28Z</time>
      </trkpt>
      <trkpt lat="42.77877" lon="0.11333">
        <ele>2657.1</ele>
        <time>2022-03-24T11:53:40Z</time>
      </trkpt>
      <trkpt lat="42.77876" lon="0.11331">
        <ele>2657.4</ele>
        <time>2022-03-24T11:53:43Z</time>
      </trkpt>
      <trkpt lat="42.77874" lon="0.1133">
        <ele>2657.2</ele>
        <time>2022-03-24T11:53:49Z</time>
      </trkpt>
      <trkpt lat="42.77872" lon="0.11329">
        <ele>2656.9</ele>
        <time>2022-03-24T11:53:52Z</time>
      </trkpt>
      <trkpt lat="42.77868" lon="0.11325">
        <ele>2657.1</ele>
        <time>2022-03-24T11:54:02Z</time>
      </trkpt>
      <trkpt lat="42.77864" lon="0.11322">
        <ele>2656.9</ele>
        <time>2022-03-24T11:54:08Z</time>
      </trkpt>
      <trkpt lat="42.77863" lon="0.1132">
        <ele>2657.3</ele>
        <time>2022-03-24T11:54:12Z</time>
      </trkpt>
      <trkpt lat="42.77861" lon="0.1132">
        <ele>2656.9</ele>
        <time>2022-03-24T11:54:20Z</time>
      </trkpt>
      <trkpt lat="42.77858" lon="0.11315">
        <ele>2659</ele>
        <time>2022-03-24T11:54:30Z</time>
      </trkpt>
      <trkpt lat="42.77856" lon="0.11314">
        <ele>2659.8</ele>
        <time>2022-03-24T11:54:34Z</time>
      </trkpt>
      <trkpt lat="42.77854" lon="0.11314">
        <ele>2660.3</ele>
        <time>2022-03-24T11:54:40Z</time>
      </trkpt>
      <trkpt lat="42.77847" lon="0.11309">
        <ele>2663.5</ele>
        <time>2022-03-24T11:54:57Z</time>
      </trkpt>
      <trkpt lat="42.7784" lon="0.11309">
        <ele>2665.2</ele>
        <time>2022-03-24T11:55:13Z</time>
      </trkpt>
      <trkpt lat="42.77838" lon="0.11309">
        <ele>2665.7</ele>
        <time>2022-03-24T11:55:16Z</time>
      </trkpt>
      <trkpt lat="42.77838" lon="0.11306">
        <ele>2666.7</ele>
        <time>2022-03-24T11:55:28Z</time>
      </trkpt>
      <trkpt lat="42.77839" lon="0.11304">
        <ele>2666.6</ele>
        <time>2022-03-24T11:55:33Z</time>
      </trkpt>
      <trkpt lat="42.77841" lon="0.11302">
        <ele>2666.1</ele>
        <time>2022-03-24T11:56:00Z</time>
      </trkpt>
      <trkpt lat="42.77843" lon="0.113">
        <ele>2665.6</ele>
        <time>2022-03-24T11:56:07Z</time>
      </trkpt>
      <trkpt lat="42.77844" lon="0.11302">
        <ele>2665.3</ele>
        <time>2022-03-24T11:56:12Z</time>
      </trkpt>
      <trkpt lat="42.77846" lon="0.11301">
        <ele>2664.8</ele>
        <time>2022-03-24T11:56:16Z</time>
      </trkpt>
      <trkpt lat="42.77845" lon="0.11298">
        <ele>2665.1</ele>
        <time>2022-03-24T11:56:24Z</time>
      </trkpt>
      <trkpt lat="42.77842" lon="0.113">
        <ele>2665.9</ele>
        <time>2022-03-24T11:56:32Z</time>
      </trkpt>
      <trkpt lat="42.77841" lon="0.11301">
        <ele>2666.1</ele>
        <time>2022-03-24T11:56:48Z</time>
      </trkpt>
      <trkpt lat="42.77842" lon="0.11301">
        <ele>2665.9</ele>
        <time>2022-03-24T11:57:04Z</time>
      </trkpt>
      <trkpt lat="42.77842" lon="0.11296">
        <ele>2665.9</ele>
        <time>2022-03-24T11:57:07Z</time>
      </trkpt>
      <trkpt lat="42.77842" lon="0.11293">
        <ele>2666</ele>
        <time>2022-03-24T11:57:13Z</time>
      </trkpt>
      <trkpt lat="42.7784" lon="0.11292">
        <ele>2666.6</ele>
        <time>2022-03-24T11:57:26Z</time>
      </trkpt>
      <trkpt lat="42.7784" lon="0.11296">
        <ele>2666.5</ele>
        <time>2022-03-24T11:57:29Z</time>
      </trkpt>
      <trkpt lat="42.77838" lon="0.11297">
        <ele>2667</ele>
        <time>2022-03-24T11:57:42Z</time>
      </trkpt>
      <trkpt lat="42.77838" lon="0.11294">
        <ele>2667.1</ele>
        <time>2022-03-24T11:57:49Z</time>
      </trkpt>
      <trkpt lat="42.77836" lon="0.113">
        <ele>2667.5</ele>
        <time>2022-03-24T11:58:05Z</time>
      </trkpt>
      <trkpt lat="42.77826" lon="0.113">
        <ele>2672.2</ele>
        <time>2022-03-24T11:58:38Z</time>
      </trkpt>
      <trkpt lat="42.77826" lon="0.11297">
        <ele>2672.3</ele>
        <time>2022-03-24T11:58:43Z</time>
      </trkpt>
      <trkpt lat="42.77825" lon="0.11295">
        <ele>2673</ele>
        <time>2022-03-24T11:58:48Z</time>
      </trkpt>
      <trkpt lat="42.77823" lon="0.11295">
        <ele>2674.1</ele>
        <time>2022-03-24T11:58:54Z</time>
      </trkpt>
      <trkpt lat="42.77814" lon="0.11296">
        <ele>2679</ele>
        <time>2022-03-24T11:59:10Z</time>
      </trkpt>
      <trkpt lat="42.7781" lon="0.11297">
        <ele>2681.2</ele>
        <time>2022-03-24T11:59:21Z</time>
      </trkpt>
      <trkpt lat="42.77809" lon="0.11295">
        <ele>2681.9</ele>
        <time>2022-03-24T11:59:26Z</time>
      </trkpt>
      <trkpt lat="42.77807" lon="0.11294">
        <ele>2683</ele>
        <time>2022-03-24T11:59:47Z</time>
      </trkpt>
      <trkpt lat="42.77805" lon="0.11294">
        <ele>2684</ele>
        <time>2022-03-24T11:59:50Z</time>
      </trkpt>
      <trkpt lat="42.77799" lon="0.11295">
        <ele>2685.8</ele>
        <time>2022-03-24T12:00:01Z</time>
      </trkpt>
      <trkpt lat="42.77797" lon="0.11296">
        <ele>2686.5</ele>
        <time>2022-03-24T12:00:07Z</time>
      </trkpt>
      <trkpt lat="42.77795" lon="0.11296">
        <ele>2687.2</ele>
        <time>2022-03-24T12:00:11Z</time>
      </trkpt>
      <trkpt lat="42.77795" lon="0.11294">
        <ele>2687</ele>
        <time>2022-03-24T12:00:22Z</time>
      </trkpt>
      <trkpt lat="42.77793" lon="0.11289">
        <ele>2687.1</ele>
        <time>2022-03-24T12:00:33Z</time>
      </trkpt>
      <trkpt lat="42.77793" lon="0.11285">
        <ele>2686.7</ele>
        <time>2022-03-24T12:00:39Z</time>
      </trkpt>
      <trkpt lat="42.77794" lon="0.11283">
        <ele>2686.3</ele>
        <time>2022-03-24T12:00:42Z</time>
      </trkpt>
      <trkpt lat="42.77791" lon="0.11281">
        <ele>2686.5</ele>
        <time>2022-03-24T12:00:51Z</time>
      </trkpt>
      <trkpt lat="42.77796" lon="0.11283">
        <ele>2686</ele>
        <time>2022-03-24T12:01:28Z</time>
      </trkpt>
      <trkpt lat="42.77795" lon="0.11286">
        <ele>2686.4</ele>
        <time>2022-03-24T12:01:32Z</time>
      </trkpt>
      <trkpt lat="42.77793" lon="0.11287">
        <ele>2686.9</ele>
        <time>2022-03-24T12:01:36Z</time>
      </trkpt>
      <trkpt lat="42.77792" lon="0.11287">
        <ele>2687.1</ele>
        <time>2022-03-24T12:01:40Z</time>
      </trkpt>
      <trkpt lat="42.77791" lon="0.11291">
        <ele>2687.8</ele>
        <time>2022-03-24T12:02:07Z</time>
      </trkpt>
      <trkpt lat="42.77789" lon="0.11291">
        <ele>2688.4</ele>
        <time>2022-03-24T12:02:15Z</time>
      </trkpt>
      <trkpt lat="42.77787" lon="0.11292">
        <ele>2689.1</ele>
        <time>2022-03-24T12:02:41Z</time>
      </trkpt>
      <trkpt lat="42.77788" lon="0.11298">
        <ele>2689.9</ele>
        <time>2022-03-24T12:05:53Z</time>
      </trkpt>
      <trkpt lat="42.77783" lon="0.11304">
        <ele>2693.2</ele>
        <time>2022-03-24T12:06:12Z</time>
      </trkpt>
      <trkpt lat="42.77783" lon="0.113">
        <ele>2692.2</ele>
        <time>2022-03-24T12:06:16Z</time>
      </trkpt>
      <trkpt lat="42.77785" lon="0.11291">
        <ele>2689.4</ele>
        <time>2022-03-24T12:06:18Z</time>
      </trkpt>
      <trkpt lat="42.77786" lon="0.11287">
        <ele>2688.3</ele>
        <time>2022-03-24T12:06:20Z</time>
      </trkpt>
      <trkpt lat="42.77788" lon="0.11282">
        <ele>2687</ele>
        <time>2022-03-24T12:06:24Z</time>
      </trkpt>
      <trkpt lat="42.77789" lon="0.11293">
        <ele>2688.7</ele>
        <time>2022-03-24T12:06:56Z</time>
      </trkpt>
      <trkpt lat="42.77789" lon="0.11289">
        <ele>2688</ele>
        <time>2022-03-24T12:09:31Z</time>
      </trkpt>
      <trkpt lat="42.7779" lon="0.11287">
        <ele>2687.5</ele>
        <time>2022-03-24T12:09:47Z</time>
      </trkpt>
      <trkpt lat="42.77789" lon="0.11291">
        <ele>2688.4</ele>
        <time>2022-03-24T12:10:42Z</time>
      </trkpt>
      <trkpt lat="42.77792" lon="0.11292">
        <ele>2687.7</ele>
        <time>2022-03-24T12:11:37Z</time>
      </trkpt>
      <trkpt lat="42.77791" lon="0.11295">
        <ele>2688.4</ele>
        <time>2022-03-24T12:11:40Z</time>
      </trkpt>
      <trkpt lat="42.77784" lon="0.11308">
        <ele>2692.3</ele>
        <time>2022-03-24T12:12:08Z</time>
      </trkpt>
      <trkpt lat="42.77782" lon="0.1131">
        <ele>2692.5</ele>
        <time>2022-03-24T12:12:11Z</time>
      </trkpt>
      <trkpt lat="42.7778" lon="0.11314">
        <ele>2692.2</ele>
        <time>2022-03-24T12:12:19Z</time>
      </trkpt>
      <trkpt lat="42.77777" lon="0.11317">
        <ele>2692.3</ele>
        <time>2022-03-24T12:12:25Z</time>
      </trkpt>
      <trkpt lat="42.77775" lon="0.11318">
        <ele>2692.1</ele>
        <time>2022-03-24T12:12:28Z</time>
      </trkpt>
      <trkpt lat="42.77774" lon="0.11319">
        <ele>2691.9</ele>
        <time>2022-03-24T12:12:31Z</time>
      </trkpt>
      <trkpt lat="42.77772" lon="0.1132">
        <ele>2691.8</ele>
        <time>2022-03-24T12:12:34Z</time>
      </trkpt>
      <trkpt lat="42.77757" lon="0.11337">
        <ele>2688.8</ele>
        <time>2022-03-24T12:13:06Z</time>
      </trkpt>
      <trkpt lat="42.77754" lon="0.1134">
        <ele>2688</ele>
        <time>2022-03-24T12:13:11Z</time>
      </trkpt>
      <trkpt lat="42.77753" lon="0.11342">
        <ele>2687.2</ele>
        <time>2022-03-24T12:13:14Z</time>
      </trkpt>
      <trkpt lat="42.7775" lon="0.11345">
        <ele>2686.5</ele>
        <time>2022-03-24T12:13:20Z</time>
      </trkpt>
      <trkpt lat="42.77759" lon="0.11343">
        <ele>2685.2</ele>
        <time>2022-03-24T12:14:33Z</time>
      </trkpt>
      <trkpt lat="42.77757" lon="0.11344">
        <ele>2685.2</ele>
        <time>2022-03-24T12:14:39Z</time>
      </trkpt>
      <trkpt lat="42.77753" lon="0.11346">
        <ele>2685.2</ele>
        <time>2022-03-24T12:15:13Z</time>
      </trkpt>
      <trkpt lat="42.77751" lon="0.11345">
        <ele>2686.3</ele>
        <time>2022-03-24T12:15:33Z</time>
      </trkpt>
      <trkpt lat="42.77754" lon="0.11338">
        <ele>2689</ele>
        <time>2022-03-24T12:15:43Z</time>
      </trkpt>
      <trkpt lat="42.77752" lon="0.11337">
        <ele>2689.9</ele>
        <time>2022-03-24T12:15:50Z</time>
      </trkpt>
      <trkpt lat="42.7775" lon="0.11338">
        <ele>2689.8</ele>
        <time>2022-03-24T12:15:54Z</time>
      </trkpt>
      <trkpt lat="42.77748" lon="0.11336">
        <ele>2690.5</ele>
        <time>2022-03-24T12:16:00Z</time>
      </trkpt>
      <trkpt lat="42.77752" lon="0.11338">
        <ele>2689.4</ele>
        <time>2022-03-24T12:16:27Z</time>
      </trkpt>
      <trkpt lat="42.77754" lon="0.1134">
        <ele>2688</ele>
        <time>2022-03-24T12:16:28Z</time>
      </trkpt>
      <trkpt lat="42.77758" lon="0.11338">
        <ele>2688.1</ele>
        <time>2022-03-24T12:16:35Z</time>
      </trkpt>
      <trkpt lat="42.77769" lon="0.11324">
        <ele>2691</ele>
        <time>2022-03-24T12:16:52Z</time>
      </trkpt>
      <trkpt lat="42.77772" lon="0.11319">
        <ele>2692</ele>
        <time>2022-03-24T12:16:58Z</time>
      </trkpt>
      <trkpt lat="42.77774" lon="0.11318">
        <ele>2692.2</ele>
        <time>2022-03-24T12:17:01Z</time>
      </trkpt>
      <trkpt lat="42.77791" lon="0.11289">
        <ele>2687.6</ele>
        <time>2022-03-24T12:17:31Z</time>
      </trkpt>
      <trkpt lat="42.77793" lon="0.11279">
        <ele>2686</ele>
        <time>2022-03-24T12:17:40Z</time>
      </trkpt>
      <trkpt lat="42.77794" lon="0.11278">
        <ele>2685.9</ele>
        <time>2022-03-24T12:17:43Z</time>
      </trkpt>
      <trkpt lat="42.77796" lon="0.1128">
        <ele>2685.8</ele>
        <time>2022-03-24T12:17:49Z</time>
      </trkpt>
      <trkpt lat="42.77798" lon="0.11282">
        <ele>2685.7</ele>
        <time>2022-03-24T12:17:55Z</time>
      </trkpt>
      <trkpt lat="42.778" lon="0.11285">
        <ele>2685.5</ele>
        <time>2022-03-24T12:18:05Z</time>
      </trkpt>
      <trkpt lat="42.77802" lon="0.11287">
        <ele>2685.1</ele>
        <time>2022-03-24T12:18:10Z</time>
      </trkpt>
      <trkpt lat="42.77808" lon="0.11286">
        <ele>2683</ele>
        <time>2022-03-24T12:18:16Z</time>
      </trkpt>
      <trkpt lat="42.77813" lon="0.11288">
        <ele>2680.1</ele>
        <time>2022-03-24T12:18:24Z</time>
      </trkpt>
      <trkpt lat="42.77817" lon="0.11288">
        <ele>2677.8</ele>
        <time>2022-03-24T12:18:28Z</time>
      </trkpt>
      <trkpt lat="42.77822" lon="0.11289">
        <ele>2675</ele>
        <time>2022-03-24T12:18:35Z</time>
      </trkpt>
      <trkpt lat="42.77829" lon="0.113">
        <ele>2670.6</ele>
        <time>2022-03-24T12:18:45Z</time>
      </trkpt>
      <trkpt lat="42.77829" lon="0.11303">
        <ele>2670.4</ele>
        <time>2022-03-24T12:18:48Z</time>
      </trkpt>
      <trkpt lat="42.77837" lon="0.11305">
        <ele>2667.1</ele>
        <time>2022-03-24T12:18:58Z</time>
      </trkpt>
      <trkpt lat="42.77839" lon="0.11303">
        <ele>2666.6</ele>
        <time>2022-03-24T12:19:03Z</time>
      </trkpt>
      <trkpt lat="42.77841" lon="0.11301">
        <ele>2666.1</ele>
        <time>2022-03-24T12:19:06Z</time>
      </trkpt>
      <trkpt lat="42.77865" lon="0.11307">
        <ele>2661.4</ele>
        <time>2022-03-24T12:19:24Z</time>
      </trkpt>
      <trkpt lat="42.77857" lon="0.1131">
        <ele>2660.7</ele>
        <time>2022-03-24T12:20:14Z</time>
      </trkpt>
      <trkpt lat="42.7786" lon="0.11307">
        <ele>2660.9</ele>
        <time>2022-03-24T12:22:21Z</time>
      </trkpt>
      <trkpt lat="42.77859" lon="0.11308">
        <ele>2660.8</ele>
        <time>2022-03-24T12:27:20Z</time>
      </trkpt>
      <trkpt lat="42.77859" lon="0.11307">
        <ele>2661.1</ele>
        <time>2022-03-24T12:33:32Z</time>
      </trkpt>
      <trkpt lat="42.77858" lon="0.11306">
        <ele>2661.7</ele>
        <time>2022-03-24T12:33:53Z</time>
      </trkpt>
      <trkpt lat="42.77862" lon="0.11306">
        <ele>2661.1</ele>
        <time>2022-03-24T12:34:32Z</time>
      </trkpt>
      <trkpt lat="42.77856" lon="0.11304">
        <ele>2662.3</ele>
        <time>2022-03-24T12:35:40Z</time>
      </trkpt>
      <trkpt lat="42.77855" lon="0.11307">
        <ele>2662.1</ele>
        <time>2022-03-24T12:57:09Z</time>
      </trkpt>
      <trkpt lat="42.77849" lon="0.11328">
        <ele>2657.2</ele>
        <time>2022-03-24T12:57:27Z</time>
      </trkpt>
      <trkpt lat="42.7785" lon="0.11321">
        <ele>2659.1</ele>
        <time>2022-03-24T12:57:43Z</time>
      </trkpt>
      <trkpt lat="42.7785" lon="0.11314">
        <ele>2661.2</ele>
        <time>2022-03-24T12:57:54Z</time>
      </trkpt>
      <trkpt lat="42.77847" lon="0.1133">
        <ele>2657.1</ele>
        <time>2022-03-24T12:58:01Z</time>
      </trkpt>
      <trkpt lat="42.77849" lon="0.11329">
        <ele>2656.9</ele>
        <time>2022-03-24T12:58:18Z</time>
      </trkpt>
      <trkpt lat="42.77854" lon="0.11316">
        <ele>2659.7</ele>
        <time>2022-03-24T12:58:42Z</time>
      </trkpt>
      <trkpt lat="42.77857" lon="0.11308">
        <ele>2661.3</ele>
        <time>2022-03-24T12:58:58Z</time>
      </trkpt>
      <trkpt lat="42.77857" lon="0.11304">
        <ele>2662</ele>
        <time>2022-03-24T13:01:11Z</time>
      </trkpt>
      <trkpt lat="42.7786" lon="0.11306">
        <ele>2661.2</ele>
        <time>2022-03-24T13:02:01Z</time>
      </trkpt>
      <trkpt lat="42.77856" lon="0.11307">
        <ele>2661.9</ele>
        <time>2022-03-24T13:02:27Z</time>
      </trkpt>
      <trkpt lat="42.77857" lon="0.11307">
        <ele>2661.6</ele>
        <time>2022-03-24T13:02:53Z</time>
      </trkpt>
      <trkpt lat="42.77852" lon="0.1131">
        <ele>2662</ele>
        <time>2022-03-24T13:04:12Z</time>
      </trkpt>
      <trkpt lat="42.77845" lon="0.11314">
        <ele>2662.5</ele>
        <time>2022-03-24T13:04:15Z</time>
      </trkpt>
      <trkpt lat="42.77845" lon="0.11317">
        <ele>2661.5</ele>
        <time>2022-03-24T13:04:16Z</time>
      </trkpt>
      <trkpt lat="42.77847" lon="0.1132">
        <ele>2660.1</ele>
        <time>2022-03-24T13:04:17Z</time>
      </trkpt>
      <trkpt lat="42.77855" lon="0.11321">
        <ele>2658</ele>
        <time>2022-03-24T13:04:23Z</time>
      </trkpt>
      <trkpt lat="42.77857" lon="0.11326">
        <ele>2656</ele>
        <time>2022-03-24T13:04:33Z</time>
      </trkpt>
      <trkpt lat="42.77857" lon="0.11328">
        <ele>2655.5</ele>
        <time>2022-03-24T13:04:34Z</time>
      </trkpt>
      <trkpt lat="42.77858" lon="0.11331">
        <ele>2654.4</ele>
        <time>2022-03-24T13:04:35Z</time>
      </trkpt>
      <trkpt lat="42.7786" lon="0.11333">
        <ele>2653.3</ele>
        <time>2022-03-24T13:04:36Z</time>
      </trkpt>
      <trkpt lat="42.77862" lon="0.11336">
        <ele>2652.1</ele>
        <time>2022-03-24T13:04:37Z</time>
      </trkpt>
      <trkpt lat="42.77861" lon="0.1134">
        <ele>2650.1</ele>
        <time>2022-03-24T13:04:38Z</time>
      </trkpt>
      <trkpt lat="42.77865" lon="0.11348">
        <ele>2647.6</ele>
        <time>2022-03-24T13:04:40Z</time>
      </trkpt>
      <trkpt lat="42.77865" lon="0.11356">
        <ele>2644.2</ele>
        <time>2022-03-24T13:04:42Z</time>
      </trkpt>
      <trkpt lat="42.77866" lon="0.11361">
        <ele>2642.3</ele>
        <time>2022-03-24T13:04:43Z</time>
      </trkpt>
      <trkpt lat="42.77865" lon="0.11373">
        <ele>2637.5</ele>
        <time>2022-03-24T13:04:45Z</time>
      </trkpt>
      <trkpt lat="42.7788" lon="0.11397">
        <ele>2634.3</ele>
        <time>2022-03-24T13:04:49Z</time>
      </trkpt>
      <trkpt lat="42.77885" lon="0.11414">
        <ele>2631.6</ele>
        <time>2022-03-24T13:04:51Z</time>
      </trkpt>
      <trkpt lat="42.77885" lon="0.11448">
        <ele>2627.1</ele>
        <time>2022-03-24T13:04:55Z</time>
      </trkpt>
      <trkpt lat="42.77884" lon="0.11463">
        <ele>2624.3</ele>
        <time>2022-03-24T13:04:57Z</time>
      </trkpt>
      <trkpt lat="42.77869" lon="0.11498">
        <ele>2608.7</ele>
        <time>2022-03-24T13:05:03Z</time>
      </trkpt>
      <trkpt lat="42.77866" lon="0.11502">
        <ele>2606.2</ele>
        <time>2022-03-24T13:05:04Z</time>
      </trkpt>
      <trkpt lat="42.77861" lon="0.11504">
        <ele>2603.1</ele>
        <time>2022-03-24T13:05:05Z</time>
      </trkpt>
      <trkpt lat="42.77856" lon="0.11505">
        <ele>2600.9</ele>
        <time>2022-03-24T13:05:06Z</time>
      </trkpt>
      <trkpt lat="42.77851" lon="0.11508">
        <ele>2598.4</ele>
        <time>2022-03-24T13:05:07Z</time>
      </trkpt>
      <trkpt lat="42.77847" lon="0.11514">
        <ele>2595.6</ele>
        <time>2022-03-24T13:05:08Z</time>
      </trkpt>
      <trkpt lat="42.77846" lon="0.11523">
        <ele>2593.5</ele>
        <time>2022-03-24T13:05:09Z</time>
      </trkpt>
      <trkpt lat="42.77847" lon="0.11534">
        <ele>2591.7</ele>
        <time>2022-03-24T13:05:10Z</time>
      </trkpt>
      <trkpt lat="42.7785" lon="0.11544">
        <ele>2590.7</ele>
        <time>2022-03-24T13:05:11Z</time>
      </trkpt>
      <trkpt lat="42.77854" lon="0.11555">
        <ele>2589.8</ele>
        <time>2022-03-24T13:05:12Z</time>
      </trkpt>
      <trkpt lat="42.77857" lon="0.11564">
        <ele>2589.1</ele>
        <time>2022-03-24T13:05:13Z</time>
      </trkpt>
      <trkpt lat="42.77859" lon="0.11573">
        <ele>2588.1</ele>
        <time>2022-03-24T13:05:14Z</time>
      </trkpt>
      <trkpt lat="42.77862" lon="0.1158">
        <ele>2588</ele>
        <time>2022-03-24T13:05:15Z</time>
      </trkpt>
      <trkpt lat="42.77864" lon="0.11587">
        <ele>2587.7</ele>
        <time>2022-03-24T13:05:16Z</time>
      </trkpt>
      <trkpt lat="42.77872" lon="0.11611">
        <ele>2587.1</ele>
        <time>2022-03-24T13:05:35Z</time>
      </trkpt>
      <trkpt lat="42.77872" lon="0.11614">
        <ele>2586.3</ele>
        <time>2022-03-24T13:06:11Z</time>
      </trkpt>
      <trkpt lat="42.77868" lon="0.1162">
        <ele>2582.9</ele>
        <time>2022-03-24T13:06:13Z</time>
      </trkpt>
      <trkpt lat="42.77865" lon="0.11624">
        <ele>2580.5</ele>
        <time>2022-03-24T13:06:14Z</time>
      </trkpt>
      <trkpt lat="42.77862" lon="0.1163">
        <ele>2577.6</ele>
        <time>2022-03-24T13:06:15Z</time>
      </trkpt>
      <trkpt lat="42.77855" lon="0.1165">
        <ele>2569.8</ele>
        <time>2022-03-24T13:06:18Z</time>
      </trkpt>
      <trkpt lat="42.77852" lon="0.11685">
        <ele>2558.1</ele>
        <time>2022-03-24T13:06:22Z</time>
      </trkpt>
      <trkpt lat="42.77852" lon="0.11695">
        <ele>2554.9</ele>
        <time>2022-03-24T13:06:23Z</time>
      </trkpt>
      <trkpt lat="42.77855" lon="0.11704">
        <ele>2553.3</ele>
        <time>2022-03-24T13:06:24Z</time>
      </trkpt>
      <trkpt lat="42.77857" lon="0.11714">
        <ele>2551</ele>
        <time>2022-03-24T13:06:25Z</time>
      </trkpt>
      <trkpt lat="42.77859" lon="0.11722">
        <ele>2549.4</ele>
        <time>2022-03-24T13:06:26Z</time>
      </trkpt>
      <trkpt lat="42.77859" lon="0.1173">
        <ele>2547.1</ele>
        <time>2022-03-24T13:06:27Z</time>
      </trkpt>
      <trkpt lat="42.77859" lon="0.11739">
        <ele>2544.4</ele>
        <time>2022-03-24T13:06:28Z</time>
      </trkpt>
      <trkpt lat="42.77858" lon="0.11748">
        <ele>2541.5</ele>
        <time>2022-03-24T13:06:29Z</time>
      </trkpt>
      <trkpt lat="42.77858" lon="0.11756">
        <ele>2539.1</ele>
        <time>2022-03-24T13:06:30Z</time>
      </trkpt>
      <trkpt lat="42.77858" lon="0.11765">
        <ele>2536.5</ele>
        <time>2022-03-24T13:06:31Z</time>
      </trkpt>
      <trkpt lat="42.7786" lon="0.11781">
        <ele>2532.6</ele>
        <time>2022-03-24T13:06:33Z</time>
      </trkpt>
      <trkpt lat="42.7786" lon="0.11787">
        <ele>2530.9</ele>
        <time>2022-03-24T13:06:34Z</time>
      </trkpt>
      <trkpt lat="42.77859" lon="0.11793">
        <ele>2528.8</ele>
        <time>2022-03-24T13:06:35Z</time>
      </trkpt>
      <trkpt lat="42.7786" lon="0.11801">
        <ele>2526.9</ele>
        <time>2022-03-24T13:06:36Z</time>
      </trkpt>
      <trkpt lat="42.77862" lon="0.11809">
        <ele>2525.5</ele>
        <time>2022-03-24T13:06:37Z</time>
      </trkpt>
      <trkpt lat="42.77865" lon="0.11818">
        <ele>2524.5</ele>
        <time>2022-03-24T13:06:38Z</time>
      </trkpt>
      <trkpt lat="42.77869" lon="0.11839">
        <ele>2521.3</ele>
        <time>2022-03-24T13:06:40Z</time>
      </trkpt>
      <trkpt lat="42.77869" lon="0.11849">
        <ele>2519.3</ele>
        <time>2022-03-24T13:06:41Z</time>
      </trkpt>
      <trkpt lat="42.77868" lon="0.11858">
        <ele>2517.1</ele>
        <time>2022-03-24T13:06:42Z</time>
      </trkpt>
      <trkpt lat="42.77866" lon="0.11868">
        <ele>2514.4</ele>
        <time>2022-03-24T13:06:43Z</time>
      </trkpt>
      <trkpt lat="42.77863" lon="0.11877">
        <ele>2511.6</ele>
        <time>2022-03-24T13:06:44Z</time>
      </trkpt>
      <trkpt lat="42.77861" lon="0.11887">
        <ele>2509.2</ele>
        <time>2022-03-24T13:06:45Z</time>
      </trkpt>
      <trkpt lat="42.77861" lon="0.11897">
        <ele>2507.8</ele>
        <time>2022-03-24T13:06:46Z</time>
      </trkpt>
      <trkpt lat="42.7786" lon="0.11915">
        <ele>2504.7</ele>
        <time>2022-03-24T13:06:48Z</time>
      </trkpt>
      <trkpt lat="42.77858" lon="0.11932">
        <ele>2501</ele>
        <time>2022-03-24T13:06:51Z</time>
      </trkpt>
      <trkpt lat="42.77858" lon="0.11946">
        <ele>2498.6</ele>
        <time>2022-03-24T13:06:54Z</time>
      </trkpt>
      <trkpt lat="42.77858" lon="0.11949">
        <ele>2498.2</ele>
        <time>2022-03-24T13:06:55Z</time>
      </trkpt>
      <trkpt lat="42.77859" lon="0.11951">
        <ele>2498.3</ele>
        <time>2022-03-24T13:06:56Z</time>
      </trkpt>
      <trkpt lat="42.7786" lon="0.11962">
        <ele>2497</ele>
        <time>2022-03-24T13:07:02Z</time>
      </trkpt>
      <trkpt lat="42.77862" lon="0.11959">
        <ele>2498.2</ele>
        <time>2022-03-24T13:08:08Z</time>
      </trkpt>
      <trkpt lat="42.77863" lon="0.11959">
        <ele>2498.4</ele>
        <time>2022-03-24T13:08:22Z</time>
      </trkpt>
      <trkpt lat="42.77863" lon="0.11972">
        <ele>2496.4</ele>
        <time>2022-03-24T13:10:11Z</time>
      </trkpt>
      <trkpt lat="42.77888" lon="0.11972">
        <ele>2501.9</ele>
        <time>2022-03-24T13:10:12Z</time>
      </trkpt>
      <trkpt lat="42.77897" lon="0.11984">
        <ele>2503.1</ele>
        <time>2022-03-24T13:10:15Z</time>
      </trkpt>
      <trkpt lat="42.77898" lon="0.12">
        <ele>2498.6</ele>
        <time>2022-03-24T13:10:16Z</time>
      </trkpt>
      <trkpt lat="42.77885" lon="0.12019">
        <ele>2484.2</ele>
        <time>2022-03-24T13:10:18Z</time>
      </trkpt>
      <trkpt lat="42.77881" lon="0.12018">
        <ele>2483.3</ele>
        <time>2022-03-24T13:10:19Z</time>
      </trkpt>
      <trkpt lat="42.77874" lon="0.12014">
        <ele>2482.9</ele>
        <time>2022-03-24T13:10:20Z</time>
      </trkpt>
      <trkpt lat="42.77868" lon="0.12002">
        <ele>2486.8</ele>
        <time>2022-03-24T13:10:21Z</time>
      </trkpt>
      <trkpt lat="42.77861" lon="0.11988">
        <ele>2490.3</ele>
        <time>2022-03-24T13:10:22Z</time>
      </trkpt>
      <trkpt lat="42.77857" lon="0.11975">
        <ele>2493.4</ele>
        <time>2022-03-24T13:10:23Z</time>
      </trkpt>
      <trkpt lat="42.77856" lon="0.11967">
        <ele>2494.8</ele>
        <time>2022-03-24T13:10:24Z</time>
      </trkpt>
      <trkpt lat="42.77857" lon="0.11963">
        <ele>2495.7</ele>
        <time>2022-03-24T13:10:26Z</time>
      </trkpt>
      <trkpt lat="42.77858" lon="0.11962">
        <ele>2496.3</ele>
        <time>2022-03-24T13:10:41Z</time>
      </trkpt>
      <trkpt lat="42.77865" lon="0.11969">
        <ele>2497.4</ele>
        <time>2022-03-24T13:11:33Z</time>
      </trkpt>
      <trkpt lat="42.77869" lon="0.11976">
        <ele>2496.4</ele>
        <time>2022-03-24T13:11:46Z</time>
      </trkpt>
      <trkpt lat="42.77873" lon="0.11981">
        <ele>2495.5</ele>
        <time>2022-03-24T13:11:48Z</time>
      </trkpt>
      <trkpt lat="42.77874" lon="0.11984">
        <ele>2494.7</ele>
        <time>2022-03-24T13:11:49Z</time>
      </trkpt>
      <trkpt lat="42.77875" lon="0.11997">
        <ele>2490.5</ele>
        <time>2022-03-24T13:11:52Z</time>
      </trkpt>
      <trkpt lat="42.77873" lon="0.12011">
        <ele>2484</ele>
        <time>2022-03-24T13:11:54Z</time>
      </trkpt>
      <trkpt lat="42.77873" lon="0.12028">
        <ele>2476.2</ele>
        <time>2022-03-24T13:11:56Z</time>
      </trkpt>
      <trkpt lat="42.77872" lon="0.12036">
        <ele>2472.4</ele>
        <time>2022-03-24T13:11:57Z</time>
      </trkpt>
      <trkpt lat="42.77866" lon="0.12047">
        <ele>2465.9</ele>
        <time>2022-03-24T13:11:59Z</time>
      </trkpt>
      <trkpt lat="42.77859" lon="0.12072">
        <ele>2453.6</ele>
        <time>2022-03-24T13:12:03Z</time>
      </trkpt>
      <trkpt lat="42.77859" lon="0.12078">
        <ele>2451</ele>
        <time>2022-03-24T13:12:04Z</time>
      </trkpt>
      <trkpt lat="42.77861" lon="0.12084">
        <ele>2448.8</ele>
        <time>2022-03-24T13:12:05Z</time>
      </trkpt>
      <trkpt lat="42.77866" lon="0.12095">
        <ele>2447.3</ele>
        <time>2022-03-24T13:12:07Z</time>
      </trkpt>
      <trkpt lat="42.77889" lon="0.12196">
        <ele>2421.4</ele>
        <time>2022-03-24T13:12:18Z</time>
      </trkpt>
      <trkpt lat="42.77896" lon="0.1221">
        <ele>2417.9</ele>
        <time>2022-03-24T13:12:20Z</time>
      </trkpt>
      <trkpt lat="42.77901" lon="0.12229">
        <ele>2411.8</ele>
        <time>2022-03-24T13:12:23Z</time>
      </trkpt>
      <trkpt lat="42.77903" lon="0.12233">
        <ele>2410.9</ele>
        <time>2022-03-24T13:12:24Z</time>
      </trkpt>
      <trkpt lat="42.77914" lon="0.12248">
        <ele>2409.6</ele>
        <time>2022-03-24T13:12:29Z</time>
      </trkpt>
      <trkpt lat="42.77917" lon="0.12253">
        <ele>2408.9</ele>
        <time>2022-03-24T13:12:31Z</time>
      </trkpt>
      <trkpt lat="42.77917" lon="0.1224">
        <ele>2414.1</ele>
        <time>2022-03-24T13:12:40Z</time>
      </trkpt>
      <trkpt lat="42.77917" lon="0.12235">
        <ele>2416.1</ele>
        <time>2022-03-24T13:12:42Z</time>
      </trkpt>
      <trkpt lat="42.77918" lon="0.12248">
        <ele>2411.5</ele>
        <time>2022-03-24T13:13:21Z</time>
      </trkpt>
      <trkpt lat="42.77887" lon="0.12321">
        <ele>2373.2</ele>
        <time>2022-03-24T13:13:36Z</time>
      </trkpt>
      <trkpt lat="42.77895" lon="0.12355">
        <ele>2364.9</ele>
        <time>2022-03-24T13:13:40Z</time>
      </trkpt>
      <trkpt lat="42.77891" lon="0.12388">
        <ele>2357</ele>
        <time>2022-03-24T13:13:43Z</time>
      </trkpt>
      <trkpt lat="42.77891" lon="0.12397">
        <ele>2354.9</ele>
        <time>2022-03-24T13:13:44Z</time>
      </trkpt>
      <trkpt lat="42.77894" lon="0.12407">
        <ele>2351.9</ele>
        <time>2022-03-24T13:13:45Z</time>
      </trkpt>
      <trkpt lat="42.779" lon="0.12415">
        <ele>2348.3</ele>
        <time>2022-03-24T13:13:46Z</time>
      </trkpt>
      <trkpt lat="42.77903" lon="0.12433">
        <ele>2341.3</ele>
        <time>2022-03-24T13:13:48Z</time>
      </trkpt>
      <trkpt lat="42.77903" lon="0.12442">
        <ele>2338.3</ele>
        <time>2022-03-24T13:13:49Z</time>
      </trkpt>
      <trkpt lat="42.77901" lon="0.12449">
        <ele>2337.1</ele>
        <time>2022-03-24T13:13:50Z</time>
      </trkpt>
      <trkpt lat="42.77897" lon="0.12455">
        <ele>2337.1</ele>
        <time>2022-03-24T13:13:51Z</time>
      </trkpt>
      <trkpt lat="42.77895" lon="0.12469">
        <ele>2334.4</ele>
        <time>2022-03-24T13:13:53Z</time>
      </trkpt>
      <trkpt lat="42.77896" lon="0.12474">
        <ele>2332.5</ele>
        <time>2022-03-24T13:13:54Z</time>
      </trkpt>
      <trkpt lat="42.779" lon="0.12477">
        <ele>2329.8</ele>
        <time>2022-03-24T13:13:55Z</time>
      </trkpt>
      <trkpt lat="42.77906" lon="0.12477">
        <ele>2327.4</ele>
        <time>2022-03-24T13:13:56Z</time>
      </trkpt>
      <trkpt lat="42.77915" lon="0.12475">
        <ele>2324.7</ele>
        <time>2022-03-24T13:13:58Z</time>
      </trkpt>
      <trkpt lat="42.77919" lon="0.12474">
        <ele>2323.5</ele>
        <time>2022-03-24T13:14:00Z</time>
      </trkpt>
      <trkpt lat="42.7792" lon="0.12472">
        <ele>2323.9</ele>
        <time>2022-03-24T13:14:15Z</time>
      </trkpt>
      <trkpt lat="42.77929" lon="0.12471">
        <ele>2320.9</ele>
        <time>2022-03-24T13:14:58Z</time>
      </trkpt>
      <trkpt lat="42.77928" lon="0.12477">
        <ele>2319.2</ele>
        <time>2022-03-24T13:15:12Z</time>
      </trkpt>
      <trkpt lat="42.77932" lon="0.12487">
        <ele>2314.2</ele>
        <time>2022-03-24T13:15:15Z</time>
      </trkpt>
      <trkpt lat="42.77938" lon="0.12507">
        <ele>2304.8</ele>
        <time>2022-03-24T13:15:18Z</time>
      </trkpt>
      <trkpt lat="42.77947" lon="0.12523">
        <ele>2296.1</ele>
        <time>2022-03-24T13:15:21Z</time>
      </trkpt>
      <trkpt lat="42.77957" lon="0.12538">
        <ele>2289.6</ele>
        <time>2022-03-24T13:15:24Z</time>
      </trkpt>
      <trkpt lat="42.77962" lon="0.12539">
        <ele>2288</ele>
        <time>2022-03-24T13:15:25Z</time>
      </trkpt>
      <trkpt lat="42.77967" lon="0.12545">
        <ele>2284.9</ele>
        <time>2022-03-24T13:15:27Z</time>
      </trkpt>
      <trkpt lat="42.77972" lon="0.12547">
        <ele>2282.8</ele>
        <time>2022-03-24T13:15:28Z</time>
      </trkpt>
      <trkpt lat="42.77975" lon="0.12551">
        <ele>2280.8</ele>
        <time>2022-03-24T13:15:29Z</time>
      </trkpt>
      <trkpt lat="42.77978" lon="0.12556">
        <ele>2278.5</ele>
        <time>2022-03-24T13:15:30Z</time>
      </trkpt>
      <trkpt lat="42.77981" lon="0.1256">
        <ele>2276.8</ele>
        <time>2022-03-24T13:15:31Z</time>
      </trkpt>
      <trkpt lat="42.77983" lon="0.12565">
        <ele>2275.2</ele>
        <time>2022-03-24T13:15:32Z</time>
      </trkpt>
      <trkpt lat="42.7799" lon="0.12594">
        <ele>2265.9</ele>
        <time>2022-03-24T13:15:36Z</time>
      </trkpt>
      <trkpt lat="42.77993" lon="0.12596">
        <ele>2264.3</ele>
        <time>2022-03-24T13:15:37Z</time>
      </trkpt>
      <trkpt lat="42.77997" lon="0.12598">
        <ele>2262.4</ele>
        <time>2022-03-24T13:15:38Z</time>
      </trkpt>
      <trkpt lat="42.78" lon="0.12597">
        <ele>2261.6</ele>
        <time>2022-03-24T13:15:39Z</time>
      </trkpt>
      <trkpt lat="42.78006" lon="0.12595">
        <ele>2259.6</ele>
        <time>2022-03-24T13:15:41Z</time>
      </trkpt>
      <trkpt lat="42.7804" lon="0.12582">
        <ele>2251.6</ele>
        <time>2022-03-24T13:15:49Z</time>
      </trkpt>
      <trkpt lat="42.78054" lon="0.12581">
        <ele>2249.7</ele>
        <time>2022-03-24T13:15:51Z</time>
      </trkpt>
      <trkpt lat="42.7808" lon="0.1259">
        <ele>2249.1</ele>
        <time>2022-03-24T13:15:54Z</time>
      </trkpt>
      <trkpt lat="42.78102" lon="0.12614">
        <ele>2244.7</ele>
        <time>2022-03-24T13:15:57Z</time>
      </trkpt>
      <trkpt lat="42.78117" lon="0.12634">
        <ele>2241.1</ele>
        <time>2022-03-24T13:16:00Z</time>
      </trkpt>
      <trkpt lat="42.78124" lon="0.12646">
        <ele>2238.1</ele>
        <time>2022-03-24T13:16:02Z</time>
      </trkpt>
      <trkpt lat="42.78129" lon="0.12665">
        <ele>2232.8</ele>
        <time>2022-03-24T13:16:04Z</time>
      </trkpt>
      <trkpt lat="42.78134" lon="0.12703">
        <ele>2220</ele>
        <time>2022-03-24T13:16:10Z</time>
      </trkpt>
      <trkpt lat="42.7813" lon="0.12703">
        <ele>2220.1</ele>
        <time>2022-03-24T13:16:21Z</time>
      </trkpt>
      <trkpt lat="42.78128" lon="0.12688">
        <ele>2225.5</ele>
        <time>2022-03-24T13:16:55Z</time>
      </trkpt>
      <trkpt lat="42.7814" lon="0.12695">
        <ele>2222.9</ele>
        <time>2022-03-24T13:17:03Z</time>
      </trkpt>
      <trkpt lat="42.78156" lon="0.1271">
        <ele>2219</ele>
        <time>2022-03-24T13:17:07Z</time>
      </trkpt>
      <trkpt lat="42.78164" lon="0.12725">
        <ele>2214.8</ele>
        <time>2022-03-24T13:17:09Z</time>
      </trkpt>
      <trkpt lat="42.78166" lon="0.12731">
        <ele>2213.1</ele>
        <time>2022-03-24T13:17:10Z</time>
      </trkpt>
      <trkpt lat="42.78183" lon="0.1286">
        <ele>2170.2</ele>
        <time>2022-03-24T13:17:24Z</time>
      </trkpt>
      <trkpt lat="42.78186" lon="0.12868">
        <ele>2167.7</ele>
        <time>2022-03-24T13:17:25Z</time>
      </trkpt>
      <trkpt lat="42.78188" lon="0.12876">
        <ele>2165.1</ele>
        <time>2022-03-24T13:17:26Z</time>
      </trkpt>
      <trkpt lat="42.78188" lon="0.12884">
        <ele>2162.3</ele>
        <time>2022-03-24T13:17:27Z</time>
      </trkpt>
      <trkpt lat="42.78189" lon="0.12893">
        <ele>2159.4</ele>
        <time>2022-03-24T13:17:28Z</time>
      </trkpt>
      <trkpt lat="42.78189" lon="0.12936">
        <ele>2146.1</ele>
        <time>2022-03-24T13:17:33Z</time>
      </trkpt>
      <trkpt lat="42.78191" lon="0.12945">
        <ele>2143.4</ele>
        <time>2022-03-24T13:17:34Z</time>
      </trkpt>
      <trkpt lat="42.78195" lon="0.12954">
        <ele>2140.6</ele>
        <time>2022-03-24T13:17:35Z</time>
      </trkpt>
      <trkpt lat="42.78198" lon="0.12961">
        <ele>2138.4</ele>
        <time>2022-03-24T13:17:36Z</time>
      </trkpt>
      <trkpt lat="42.78202" lon="0.12968">
        <ele>2136.3</ele>
        <time>2022-03-24T13:17:37Z</time>
      </trkpt>
      <trkpt lat="42.78207" lon="0.12973">
        <ele>2135.1</ele>
        <time>2022-03-24T13:17:38Z</time>
      </trkpt>
      <trkpt lat="42.78215" lon="0.12981">
        <ele>2132.9</ele>
        <time>2022-03-24T13:17:40Z</time>
      </trkpt>
      <trkpt lat="42.78215" lon="0.12979">
        <ele>2133.7</ele>
        <time>2022-03-24T13:17:44Z</time>
      </trkpt>
      <trkpt lat="42.7821" lon="0.12965">
        <ele>2138.1</ele>
        <time>2022-03-24T13:18:07Z</time>
      </trkpt>
      <trkpt lat="42.78209" lon="0.12969">
        <ele>2136.7</ele>
        <time>2022-03-24T13:19:15Z</time>
      </trkpt>
      <trkpt lat="42.7821" lon="0.12973">
        <ele>2135.4</ele>
        <time>2022-03-24T13:19:16Z</time>
      </trkpt>
      <trkpt lat="42.78212" lon="0.12978">
        <ele>2133.8</ele>
        <time>2022-03-24T13:19:17Z</time>
      </trkpt>
      <trkpt lat="42.78219" lon="0.1308">
        <ele>2099.1</ele>
        <time>2022-03-24T13:19:28Z</time>
      </trkpt>
      <trkpt lat="42.78218" lon="0.1309">
        <ele>2095</ele>
        <time>2022-03-24T13:19:29Z</time>
      </trkpt>
      <trkpt lat="42.78225" lon="0.1316">
        <ele>2071.6</ele>
        <time>2022-03-24T13:19:38Z</time>
      </trkpt>
      <trkpt lat="42.7823" lon="0.13182">
        <ele>2065.9</ele>
        <time>2022-03-24T13:19:40Z</time>
      </trkpt>
      <trkpt lat="42.78231" lon="0.13194">
        <ele>2062.8</ele>
        <time>2022-03-24T13:19:41Z</time>
      </trkpt>
      <trkpt lat="42.78231" lon="0.13203">
        <ele>2060.1</ele>
        <time>2022-03-24T13:19:42Z</time>
      </trkpt>
      <trkpt lat="42.78226" lon="0.13216">
        <ele>2056.6</ele>
        <time>2022-03-24T13:19:44Z</time>
      </trkpt>
      <trkpt lat="42.78219" lon="0.13227">
        <ele>2054.1</ele>
        <time>2022-03-24T13:19:46Z</time>
      </trkpt>
      <trkpt lat="42.78217" lon="0.13237">
        <ele>2051.8</ele>
        <time>2022-03-24T13:19:48Z</time>
      </trkpt>
      <trkpt lat="42.78211" lon="0.13225">
        <ele>2055.5</ele>
        <time>2022-03-24T13:20:02Z</time>
      </trkpt>
      <trkpt lat="42.78213" lon="0.13221">
        <ele>2056.3</ele>
        <time>2022-03-24T13:20:12Z</time>
      </trkpt>
      <trkpt lat="42.7822" lon="0.13228">
        <ele>2053.8</ele>
        <time>2022-03-24T13:20:15Z</time>
      </trkpt>
      <trkpt lat="42.78221" lon="0.13232">
        <ele>2052.7</ele>
        <time>2022-03-24T13:20:16Z</time>
      </trkpt>
      <trkpt lat="42.78222" lon="0.13244">
        <ele>2049.5</ele>
        <time>2022-03-24T13:20:18Z</time>
      </trkpt>
      <trkpt lat="42.78223" lon="0.13249">
        <ele>2048.2</ele>
        <time>2022-03-24T13:20:19Z</time>
      </trkpt>
      <trkpt lat="42.78226" lon="0.13254">
        <ele>2046.6</ele>
        <time>2022-03-24T13:20:20Z</time>
      </trkpt>
      <trkpt lat="42.78227" lon="0.13261">
        <ele>2044.7</ele>
        <time>2022-03-24T13:20:21Z</time>
      </trkpt>
      <trkpt lat="42.78229" lon="0.13267">
        <ele>2043</ele>
        <time>2022-03-24T13:20:22Z</time>
      </trkpt>
      <trkpt lat="42.78232" lon="0.13271">
        <ele>2041.7</ele>
        <time>2022-03-24T13:20:23Z</time>
      </trkpt>
      <trkpt lat="42.78235" lon="0.13278">
        <ele>2039.6</ele>
        <time>2022-03-24T13:20:24Z</time>
      </trkpt>
      <trkpt lat="42.78247" lon="0.13296">
        <ele>2033.7</ele>
        <time>2022-03-24T13:20:27Z</time>
      </trkpt>
      <trkpt lat="42.7825" lon="0.13304">
        <ele>2031.4</ele>
        <time>2022-03-24T13:20:28Z</time>
      </trkpt>
      <trkpt lat="42.78258" lon="0.13328">
        <ele>2022.9</ele>
        <time>2022-03-24T13:20:31Z</time>
      </trkpt>
      <trkpt lat="42.78262" lon="0.13331">
        <ele>2020.8</ele>
        <time>2022-03-24T13:20:32Z</time>
      </trkpt>
      <trkpt lat="42.78268" lon="0.13333">
        <ele>2018.3</ele>
        <time>2022-03-24T13:20:34Z</time>
      </trkpt>
      <trkpt lat="42.78271" lon="0.13331">
        <ele>2017.9</ele>
        <time>2022-03-24T13:20:36Z</time>
      </trkpt>
      <trkpt lat="42.7827" lon="0.13334">
        <ele>2017.3</ele>
        <time>2022-03-24T13:20:50Z</time>
      </trkpt>
      <trkpt lat="42.78269" lon="0.13338">
        <ele>2016.4</ele>
        <time>2022-03-24T13:20:52Z</time>
      </trkpt>
      <trkpt lat="42.7827" lon="0.13341">
        <ele>2015.2</ele>
        <time>2022-03-24T13:20:53Z</time>
      </trkpt>
      <trkpt lat="42.78271" lon="0.13346">
        <ele>2013.4</ele>
        <time>2022-03-24T13:20:54Z</time>
      </trkpt>
      <trkpt lat="42.78276" lon="0.13358">
        <ele>2008.4</ele>
        <time>2022-03-24T13:20:57Z</time>
      </trkpt>
      <trkpt lat="42.78279" lon="0.1336">
        <ele>2007.1</ele>
        <time>2022-03-24T13:20:58Z</time>
      </trkpt>
      <trkpt lat="42.78284" lon="0.13365">
        <ele>2004.3</ele>
        <time>2022-03-24T13:21:00Z</time>
      </trkpt>
      <trkpt lat="42.78286" lon="0.13369">
        <ele>2002.6</ele>
        <time>2022-03-24T13:21:01Z</time>
      </trkpt>
      <trkpt lat="42.78286" lon="0.13373">
        <ele>2001.2</ele>
        <time>2022-03-24T13:21:02Z</time>
      </trkpt>
      <trkpt lat="42.78287" lon="0.13377">
        <ele>1999.7</ele>
        <time>2022-03-24T13:21:03Z</time>
      </trkpt>
      <trkpt lat="42.78295" lon="0.13381">
        <ele>1997</ele>
        <time>2022-03-24T13:21:06Z</time>
      </trkpt>
      <trkpt lat="42.78324" lon="0.13414">
        <ele>1987.7</ele>
        <time>2022-03-24T13:21:13Z</time>
      </trkpt>
      <trkpt lat="42.78339" lon="0.13438">
        <ele>1983.6</ele>
        <time>2022-03-24T13:21:18Z</time>
      </trkpt>
      <trkpt lat="42.78342" lon="0.13444">
        <ele>1982.7</ele>
        <time>2022-03-24T13:21:19Z</time>
      </trkpt>
      <trkpt lat="42.78348" lon="0.13455">
        <ele>1981.2</ele>
        <time>2022-03-24T13:21:21Z</time>
      </trkpt>
      <trkpt lat="42.7836" lon="0.13469">
        <ele>1980.5</ele>
        <time>2022-03-24T13:21:25Z</time>
      </trkpt>
      <trkpt lat="42.78362" lon="0.1347">
        <ele>1980.6</ele>
        <time>2022-03-24T13:22:10Z</time>
      </trkpt>
      <trkpt lat="42.78363" lon="0.13475">
        <ele>1979.5</ele>
        <time>2022-03-24T13:23:49Z</time>
      </trkpt>
      <trkpt lat="42.78364" lon="0.13479">
        <ele>1978.6</ele>
        <time>2022-03-24T13:23:50Z</time>
      </trkpt>
      <trkpt lat="42.78344" lon="0.13861">
        <ele>1906.9</ele>
        <time>2022-03-24T13:24:20Z</time>
      </trkpt>
      <trkpt lat="42.7833" lon="0.13937">
        <ele>1896.3</ele>
        <time>2022-03-24T13:24:24Z</time>
      </trkpt>
      <trkpt lat="42.78304" lon="0.13986">
        <ele>1887.3</ele>
        <time>2022-03-24T13:24:27Z</time>
      </trkpt>
      <trkpt lat="42.78294" lon="0.14001">
        <ele>1884.6</ele>
        <time>2022-03-24T13:24:28Z</time>
      </trkpt>
      <trkpt lat="42.78285" lon="0.14033">
        <ele>1880.3</ele>
        <time>2022-03-24T13:24:30Z</time>
      </trkpt>
      <trkpt lat="42.78284" lon="0.14049">
        <ele>1878.8</ele>
        <time>2022-03-24T13:24:31Z</time>
      </trkpt>
      <trkpt lat="42.78292" lon="0.14077">
        <ele>1875.8</ele>
        <time>2022-03-24T13:24:33Z</time>
      </trkpt>
      <trkpt lat="42.78314" lon="0.14112">
        <ele>1873.1</ele>
        <time>2022-03-24T13:24:37Z</time>
      </trkpt>
      <trkpt lat="42.78314" lon="0.14132">
        <ele>1870.7</ele>
        <time>2022-03-24T13:24:40Z</time>
      </trkpt>
      <trkpt lat="42.78313" lon="0.14143">
        <ele>1870.1</ele>
        <time>2022-03-24T13:24:42Z</time>
      </trkpt>
      <trkpt lat="42.78306" lon="0.14157">
        <ele>1871.6</ele>
        <time>2022-03-24T13:24:45Z</time>
      </trkpt>
      <trkpt lat="42.78304" lon="0.14164">
        <ele>1873</ele>
        <time>2022-03-24T13:24:46Z</time>
      </trkpt>
      <trkpt lat="42.78304" lon="0.14169">
        <ele>1873.8</ele>
        <time>2022-03-24T13:24:47Z</time>
      </trkpt>
      <trkpt lat="42.78306" lon="0.14173">
        <ele>1874.1</ele>
        <time>2022-03-24T13:24:48Z</time>
      </trkpt>
      <trkpt lat="42.78308" lon="0.14176">
        <ele>1874.2</ele>
        <time>2022-03-24T13:24:49Z</time>
      </trkpt>
      <trkpt lat="42.78314" lon="0.14176">
        <ele>1873.2</ele>
        <time>2022-03-24T13:24:55Z</time>
      </trkpt>
      <trkpt lat="42.78315" lon="0.14178">
        <ele>1873.3</ele>
        <time>2022-03-24T13:25:11Z</time>
      </trkpt>
      <trkpt lat="42.78313" lon="0.14191">
        <ele>1876</ele>
        <time>2022-03-24T13:28:08Z</time>
      </trkpt>
      <trkpt lat="42.78314" lon="0.14193">
        <ele>1876.2</ele>
        <time>2022-03-24T13:28:25Z</time>
      </trkpt>
      <trkpt lat="42.7832" lon="0.14202">
        <ele>1877</ele>
        <time>2022-03-24T13:29:27Z</time>
      </trkpt>
      <trkpt lat="42.7833" lon="0.1423">
        <ele>1879.7</ele>
        <time>2022-03-24T13:30:02Z</time>
      </trkpt>
      <trkpt lat="42.78338" lon="0.14257">
        <ele>1882.6</ele>
        <time>2022-03-24T13:30:38Z</time>
      </trkpt>
      <trkpt lat="42.78345" lon="0.14272">
        <ele>1882.5</ele>
        <time>2022-03-24T13:31:14Z</time>
      </trkpt>
      <trkpt lat="42.78338" lon="0.14282">
        <ele>1886</ele>
        <time>2022-03-24T13:32:37Z</time>
      </trkpt>
      <trkpt lat="42.78341" lon="0.14292">
        <ele>1886</ele>
        <time>2022-03-24T13:34:38Z</time>
      </trkpt>
      <trkpt lat="42.78351" lon="0.14312">
        <ele>1882.7</ele>
        <time>2022-03-24T13:34:43Z</time>
      </trkpt>
      <trkpt lat="42.78379" lon="0.14374">
        <ele>1876.4</ele>
        <time>2022-03-24T13:34:50Z</time>
      </trkpt>
      <trkpt lat="42.78492" lon="0.14567">
        <ele>1850.4</ele>
        <time>2022-03-24T13:35:10Z</time>
      </trkpt>
      <trkpt lat="42.78497" lon="0.14581">
        <ele>1848.5</ele>
        <time>2022-03-24T13:35:11Z</time>
      </trkpt>
      <trkpt lat="42.78502" lon="0.14596">
        <ele>1846.4</ele>
        <time>2022-03-24T13:35:12Z</time>
      </trkpt>
      <trkpt lat="42.78507" lon="0.14609">
        <ele>1845.2</ele>
        <time>2022-03-24T13:35:13Z</time>
      </trkpt>
      <trkpt lat="42.78592" lon="0.14923">
        <ele>1825.8</ele>
        <time>2022-03-24T13:35:43Z</time>
      </trkpt>
      <trkpt lat="42.7861" lon="0.14988">
        <ele>1821</ele>
        <time>2022-03-24T13:35:50Z</time>
      </trkpt>
      <trkpt lat="42.78633" lon="0.15042">
        <ele>1821.3</ele>
        <time>2022-03-24T13:35:58Z</time>
      </trkpt>
      <trkpt lat="42.78636" lon="0.15053">
        <ele>1821.2</ele>
        <time>2022-03-24T13:36:00Z</time>
      </trkpt>
      <trkpt lat="42.78635" lon="0.15066">
        <ele>1821.2</ele>
        <time>2022-03-24T13:36:03Z</time>
      </trkpt>
      <trkpt lat="42.78634" lon="0.15072">
        <ele>1821.2</ele>
        <time>2022-03-24T13:36:08Z</time>
      </trkpt>
      <trkpt lat="42.78627" lon="0.1508">
        <ele>1821.5</ele>
        <time>2022-03-24T13:37:12Z</time>
      </trkpt>
      <trkpt lat="42.78626" lon="0.15085">
        <ele>1821.5</ele>
        <time>2022-03-24T13:39:30Z</time>
      </trkpt>
      <trkpt lat="42.78634" lon="0.151">
        <ele>1821.2</ele>
        <time>2022-03-24T13:40:01Z</time>
      </trkpt>
      <trkpt lat="42.7865" lon="0.15124">
        <ele>1823.6</ele>
        <time>2022-03-24T13:40:30Z</time>
      </trkpt>
      <trkpt lat="42.78657" lon="0.15151">
        <ele>1826.6</ele>
        <time>2022-03-24T13:41:01Z</time>
      </trkpt>
      <trkpt lat="42.78656" lon="0.15198">
        <ele>1830.3</ele>
        <time>2022-03-24T13:41:47Z</time>
      </trkpt>
      <trkpt lat="42.78657" lon="0.1523">
        <ele>1833.2</ele>
        <time>2022-03-24T13:42:21Z</time>
      </trkpt>
      <trkpt lat="42.78657" lon="0.15246">
        <ele>1834</ele>
        <time>2022-03-24T13:42:38Z</time>
      </trkpt>
      <trkpt lat="42.78659" lon="0.1526">
        <ele>1835.5</ele>
        <time>2022-03-24T13:42:59Z</time>
      </trkpt>
      <trkpt lat="42.78659" lon="0.15276">
        <ele>1836.7</ele>
        <time>2022-03-24T13:43:15Z</time>
      </trkpt>
      <trkpt lat="42.78659" lon="0.15307">
        <ele>1836.9</ele>
        <time>2022-03-24T13:43:42Z</time>
      </trkpt>
      <trkpt lat="42.78659" lon="0.15314">
        <ele>1837.1</ele>
        <time>2022-03-24T13:43:48Z</time>
      </trkpt>
      <trkpt lat="42.78669" lon="0.1534">
        <ele>1836.4</ele>
        <time>2022-03-24T13:44:25Z</time>
      </trkpt>
      <trkpt lat="42.78661" lon="0.15335">
        <ele>1837.4</ele>
        <time>2022-03-24T13:44:39Z</time>
      </trkpt>
      <trkpt lat="42.78658" lon="0.15334">
        <ele>1837.7</ele>
        <time>2022-03-24T13:44:42Z</time>
      </trkpt>
      <trkpt lat="42.78649" lon="0.15331">
        <ele>1838</ele>
        <time>2022-03-24T13:44:56Z</time>
      </trkpt>
      <trkpt lat="42.78647" lon="0.15333">
        <ele>1838.4</ele>
        <time>2022-03-24T13:44:59Z</time>
      </trkpt>
      <trkpt lat="42.78639" lon="0.15339">
        <ele>1840.2</ele>
        <time>2022-03-24T13:45:16Z</time>
      </trkpt>
      <trkpt lat="42.7863" lon="0.15349">
        <ele>1841.9</ele>
        <time>2022-03-24T13:45:38Z</time>
      </trkpt>
      <trkpt lat="42.78627" lon="0.15362">
        <ele>1844.3</ele>
        <time>2022-03-24T13:45:59Z</time>
      </trkpt>
      <trkpt lat="42.78627" lon="0.1538">
        <ele>1847.8</ele>
        <time>2022-03-24T13:46:42Z</time>
      </trkpt>
      <trkpt lat="42.78624" lon="0.15392">
        <ele>1849.8</ele>
        <time>2022-03-24T13:46:44Z</time>
      </trkpt>
      <trkpt lat="42.78625" lon="0.15406">
        <ele>1851.3</ele>
        <time>2022-03-24T13:47:06Z</time>
      </trkpt>
      <trkpt lat="42.78619" lon="0.15418">
        <ele>1853</ele>
        <time>2022-03-24T13:47:23Z</time>
      </trkpt>
      <trkpt lat="42.78603" lon="0.15439">
        <ele>1857.8</ele>
        <time>2022-03-24T13:47:59Z</time>
      </trkpt>
      <trkpt lat="42.78592" lon="0.15463">
        <ele>1860.4</ele>
        <time>2022-03-24T13:48:30Z</time>
      </trkpt>
      <trkpt lat="42.78588" lon="0.15472">
        <ele>1861.1</ele>
        <time>2022-03-24T13:48:38Z</time>
      </trkpt>
      <trkpt lat="42.78577" lon="0.15502">
        <ele>1864</ele>
        <time>2022-03-24T13:49:10Z</time>
      </trkpt>
      <trkpt lat="42.78571" lon="0.15516">
        <ele>1864.2</ele>
        <time>2022-03-24T13:49:26Z</time>
      </trkpt>
      <trkpt lat="42.78567" lon="0.15528">
        <ele>1864.7</ele>
        <time>2022-03-24T13:49:40Z</time>
      </trkpt>
      <trkpt lat="42.78559" lon="0.15539">
        <ele>1865</ele>
        <time>2022-03-24T13:49:59Z</time>
      </trkpt>
      <trkpt lat="42.78552" lon="0.15551">
        <ele>1866.8</ele>
        <time>2022-03-24T13:50:17Z</time>
      </trkpt>
      <trkpt lat="42.78542" lon="0.15577">
        <ele>1870.4</ele>
        <time>2022-03-24T13:50:57Z</time>
      </trkpt>
      <trkpt lat="42.7854" lon="0.15592">
        <ele>1871.5</ele>
        <time>2022-03-24T13:51:15Z</time>
      </trkpt>
      <trkpt lat="42.78551" lon="0.1559">
        <ele>1870.4</ele>
        <time>2022-03-24T13:51:32Z</time>
      </trkpt>
      <trkpt lat="42.78558" lon="0.15596">
        <ele>1870.1</ele>
        <time>2022-03-24T13:51:46Z</time>
      </trkpt>
      <trkpt lat="42.78569" lon="0.15634">
        <ele>1871.8</ele>
        <time>2022-03-24T13:52:18Z</time>
      </trkpt>
    </trkseg>
  </trk>
</gpx>